PWSweather.com
Personal Weather Stations
Station Observations
SARATOGA
Aldara Apartments, Saratoga Springs, UT 84045

Aldara ApartmentsSaratoga Springs, UT 84045

Lat: 40.384864, Lon: -111.913644

Elevation: 4531

Station Type: VantagePro 2

Latest ConditionsUpdated 11:04:05 PM MDT Monday, Aug 29, 2016
Currently Today's Max Today's Min Today's Average
Temperature 77.9°F25.5°C 93.3°F34.1°C 56.9°F13.8°C 75.0°F23.9°C
Dew Point 38.2°F3.4°C 48.2°F9.0°C 33.5°F0.8°C 40.5°F4.7°C
Winds Calm Calm 12.0 mph N19.3 kmh N - 1.4 mph 2.3 kmh
Wind Gusts -- 13.0 mph20.9 kmh - -
Humidity 24% 64% 14% 32%
Pressure 29.65 in1004.1 mb 29.77 in1008.1 mb 29.60 in1002.4 mb -
Hour Temp Dew Point Humidity Winds Wind Gusts Pressure Precip Precip Rate Daily Precip Total
11:04 PM 77.9°F25.5°C 38.2°F3.4°C 24% Calm Calm -- 29.65 in1004.1 mb 0.00 in0.0 mm 0.00 in0.0 mm 0.00 in0.0 mm
11:03 PM 78.0°F25.6°C 38.3°F3.5°C 24% Calm Calm -- 29.65 in1004.1 mb 0.00 in0.0 mm 0.00 in0.0 mm 0.00 in0.0 mm
11:02 PM 78.1°F25.6°C 38.4°F3.6°C 24% Calm Calm -- 29.65 in1004.1 mb 0.00 in0.0 mm 0.00 in0.0 mm 0.00 in0.0 mm
11:01 PM 78.2°F25.7°C 38.5°F3.6°C 24% Calm Calm -- 29.64 in1003.7 mb 0.00 in0.0 mm 0.00 in0.0 mm 0.00 in0.0 mm
10:59 PM 78.4°F25.8°C 36.5°F2.5°C 22% Calm Calm -- 29.64 in1003.7 mb 0.00 in0.0 mm 0.00 in0.0 mm 0.00 in0.0 mm
10:58 PM 78.4°F25.8°C 36.5°F2.5°C 22% Calm Calm 1.0 mph1.6 kmh 29.64 in1003.7 mb 0.00 in0.0 mm 0.00 in0.0 mm 0.00 in0.0 mm
10:57 PM 78.5°F25.8°C 35.4°F1.9°C 21% Calm Calm -- 29.65 in1004.1 mb 0.00 in0.0 mm 0.00 in0.0 mm 0.00 in0.0 mm
10:56 PM 78.5°F25.8°C 35.4°F1.9°C 21% Calm Calm -- 29.64 in1003.7 mb 0.00 in0.0 mm 0.00 in0.0 mm 0.00 in0.0 mm
10:55 PM 78.6°F25.9°C 34.2°F1.2°C 20% Calm Calm 3.0 mph4.8 kmh 29.64 in1003.7 mb 0.00 in0.0 mm 0.00 in0.0 mm 0.00 in0.0 mm
10:54 PM 78.6°F25.9°C 35.4°F1.9°C 21% Calm Calm 3.0 mph4.8 kmh 29.64 in1003.7 mb 0.00 in0.0 mm 0.00 in0.0 mm 0.00 in0.0 mm
10:53 PM 78.6°F25.9°C 35.4°F1.9°C 21% 1.0 mph NE1.6 kmh NE 3.0 mph4.8 kmh 29.64 in1003.7 mb 0.00 in0.0 mm 0.00 in0.0 mm 0.00 in0.0 mm
10:52 PM 78.7°F25.9°C 35.5°F1.9°C 21% Calm Calm 5.0 mph8.0 kmh 29.64 in1003.7 mb 0.00 in0.0 mm 0.00 in0.0 mm 0.00 in0.0 mm
10:51 PM 78.7°F25.9°C 34.3°F1.3°C 20% 3.0 mph NE4.8 kmh NE 5.0 mph8.0 kmh 29.64 in1003.7 mb 0.00 in0.0 mm 0.00 in0.0 mm 0.00 in0.0 mm
10:50 PM 78.8°F26.0°C 34.4°F1.3°C 20% 5.0 mph NNE8.0 kmh NNE 5.0 mph8.0 kmh 29.64 in1003.7 mb 0.00 in0.0 mm 0.00 in0.0 mm 0.00 in0.0 mm
10:49 PM 78.8°F26.0°C 35.6°F2.0°C 21% 2.0 mph NNE3.2 kmh NNE 5.0 mph8.0 kmh 29.64 in1003.7 mb 0.00 in0.0 mm 0.00 in0.0 mm 0.00 in0.0 mm
10:48 PM 78.8°F26.0°C 34.4°F1.3°C 20% Calm Calm 5.0 mph8.0 kmh 29.63 in1003.4 mb 0.00 in0.0 mm 0.00 in0.0 mm 0.00 in0.0 mm
10:47 PM 78.9°F26.1°C 35.7°F2.1°C 21% 3.0 mph NNE4.8 kmh NNE 4.0 mph6.4 kmh 29.63 in1003.4 mb 0.00 in0.0 mm 0.00 in0.0 mm 0.00 in0.0 mm
10:46 PM 78.9°F26.1°C 34.5°F1.4°C 20% Calm Calm 4.0 mph6.4 kmh 29.63 in1003.4 mb 0.00 in0.0 mm 0.00 in0.0 mm 0.00 in0.0 mm
10:45 PM 79.0°F26.1°C 34.5°F1.4°C 20% Calm Calm 5.0 mph8.0 kmh 29.63 in1003.4 mb 0.00 in0.0 mm 0.00 in0.0 mm 0.00 in0.0 mm
10:44 PM 79.0°F26.1°C 34.5°F1.4°C 20% Calm Calm 3.0 mph4.8 kmh 29.63 in1003.4 mb 0.00 in0.0 mm 0.00 in0.0 mm 0.00 in0.0 mm
10:43 PM 79.0°F26.1°C 35.8°F2.1°C 21% Calm Calm 4.0 mph6.4 kmh 29.63 in1003.4 mb 0.00 in0.0 mm 0.00 in0.0 mm 0.00 in0.0 mm
10:42 PM 79.1°F26.2°C 34.6°F1.4°C 20% Calm Calm 6.0 mph9.7 kmh 29.63 in1003.4 mb 0.00 in0.0 mm 0.00 in0.0 mm 0.00 in0.0 mm
10:41 PM 79.1°F26.2°C 34.6°F1.4°C 20% 2.0 mph N3.2 kmh N 6.0 mph9.7 kmh 29.63 in1003.4 mb 0.00 in0.0 mm 0.00 in0.0 mm 0.00 in0.0 mm
10:40 PM 79.1°F26.2°C 34.6°F1.4°C 20% Calm Calm 2.0 mph3.2 kmh 29.63 in1003.4 mb 0.00 in0.0 mm 0.00 in0.0 mm 0.00 in0.0 mm
10:39 PM 79.2°F26.2°C 34.7°F1.5°C 20% 1.0 mph N1.6 kmh N 4.0 mph6.4 kmh 29.63 in1003.4 mb 0.00 in0.0 mm 0.00 in0.0 mm 0.00 in0.0 mm
10:38 PM 79.2°F26.2°C 34.7°F1.5°C 20% 1.0 mph N1.6 kmh N 4.0 mph6.4 kmh 29.63 in1003.4 mb 0.00 in0.0 mm 0.00 in0.0 mm 0.00 in0.0 mm
10:37 PM 79.2°F26.2°C 34.7°F1.5°C 20% Calm Calm 4.0 mph6.4 kmh 29.63 in1003.4 mb 0.00 in0.0 mm 0.00 in0.0 mm 0.00 in0.0 mm
10:36 PM 79.3°F26.3°C 33.5°F0.8°C 19% Calm Calm 2.0 mph3.2 kmh 29.63 in1003.4 mb 0.00 in0.0 mm 0.00 in0.0 mm 0.00 in0.0 mm
10:35 PM 79.3°F26.3°C 34.8°F1.6°C 20% 2.0 mph N3.2 kmh N 4.0 mph6.4 kmh 29.63 in1003.4 mb 0.00 in0.0 mm 0.00 in0.0 mm 0.00 in0.0 mm
10:34 PM 79.3°F26.3°C 33.5°F0.8°C 19% Calm Calm 6.0 mph9.7 kmh 29.63 in1003.4 mb 0.00 in0.0 mm 0.00 in0.0 mm 0.00 in0.0 mm
10:33 PM 79.4°F26.3°C 33.6°F0.9°C 19% Calm Calm 7.0 mph11.3 kmh 29.63 in1003.4 mb 0.00 in0.0 mm 0.00 in0.0 mm 0.00 in0.0 mm
10:32 PM 79.4°F26.3°C 34.9°F1.6°C 20% 7.0 mph N11.3 kmh N 7.0 mph11.3 kmh 29.63 in1003.4 mb 0.00 in0.0 mm 0.00 in0.0 mm 0.00 in0.0 mm
10:31 PM 79.5°F26.4°C 35.0°F1.7°C 20% Calm Calm 5.0 mph8.0 kmh 29.63 in1003.4 mb 0.00 in0.0 mm 0.00 in0.0 mm 0.00 in0.0 mm
10:30 PM 79.5°F26.4°C 33.7°F0.9°C 19% Calm Calm 5.0 mph8.0 kmh 29.63 in1003.4 mb 0.00 in0.0 mm 0.00 in0.0 mm 0.00 in0.0 mm
10:29 PM 79.5°F26.4°C 33.7°F0.9°C 19% 1.0 mph N1.6 kmh N 4.0 mph6.4 kmh 29.63 in1003.4 mb 0.00 in0.0 mm 0.00 in0.0 mm 0.00 in0.0 mm
10:28 PM 79.5°F26.4°C 33.7°F0.9°C 19% Calm Calm 4.0 mph6.4 kmh 29.63 in1003.4 mb 0.00 in0.0 mm 0.00 in0.0 mm 0.00 in0.0 mm
10:27 PM 79.6°F26.4°C 33.8°F1.0°C 19% 2.0 mph N3.2 kmh N 7.0 mph11.3 kmh 29.63 in1003.4 mb 0.00 in0.0 mm 0.00 in0.0 mm 0.00 in0.0 mm
10:26 PM 79.6°F26.4°C 33.8°F1.0°C 19% 1.0 mph N1.6 kmh N 9.0 mph14.5 kmh 29.63 in1003.4 mb 0.00 in0.0 mm 0.00 in0.0 mm 0.00 in0.0 mm
10:25 PM 79.6°F26.4°C 33.8°F1.0°C 19% 6.0 mph NNW9.7 kmh NNW 9.0 mph14.5 kmh 29.63 in1003.4 mb 0.00 in0.0 mm 0.00 in0.0 mm 0.00 in0.0 mm
10:24 PM 79.6°F26.4°C 33.8°F1.0°C 19% 4.0 mph N6.4 kmh N 8.0 mph12.9 kmh 29.63 in1003.4 mb 0.00 in0.0 mm 0.00 in0.0 mm 0.00 in0.0 mm
10:23 PM 79.6°F26.4°C 33.8°F1.0°C 19% 5.0 mph N8.0 kmh N 8.0 mph12.9 kmh 29.63 in1003.4 mb 0.00 in0.0 mm 0.00 in0.0 mm 0.00 in0.0 mm
10:22 PM 79.6°F26.4°C 33.8°F1.0°C 19% 1.0 mph N1.6 kmh N 6.0 mph9.7 kmh 29.63 in1003.4 mb 0.00 in0.0 mm 0.00 in0.0 mm 0.00 in0.0 mm
10:21 PM 79.6°F26.4°C 33.8°F1.0°C 19% 2.0 mph N3.2 kmh N 7.0 mph11.3 kmh 29.63 in1003.4 mb 0.00 in0.0 mm 0.00 in0.0 mm 0.00 in0.0 mm
10:20 PM 79.6°F26.4°C 33.8°F1.0°C 19% 6.0 mph N9.7 kmh N 7.0 mph11.3 kmh 29.63 in1003.4 mb 0.00 in0.0 mm 0.00 in0.0 mm 0.00 in0.0 mm
10:19 PM 79.6°F26.4°C 33.8°F1.0°C 19% 4.0 mph N6.4 kmh N 8.0 mph12.9 kmh 29.63 in1003.4 mb 0.00 in0.0 mm 0.00 in0.0 mm 0.00 in0.0 mm
10:18 PM 79.6°F26.4°C 33.8°F1.0°C 19% Calm Calm 7.0 mph11.3 kmh 29.63 in1003.4 mb 0.00 in0.0 mm 0.00 in0.0 mm 0.00 in0.0 mm
10:17 PM 79.6°F26.4°C 33.8°F1.0°C 19% 4.0 mph N6.4 kmh N 8.0 mph12.9 kmh 29.63 in1003.4 mb 0.00 in0.0 mm 0.00 in0.0 mm 0.00 in0.0 mm
10:16 PM 79.6°F26.4°C 33.8°F1.0°C 19% 1.0 mph NNW1.6 kmh NNW 8.0 mph12.9 kmh 29.63 in1003.4 mb 0.00 in0.0 mm 0.00 in0.0 mm 0.00 in0.0 mm
10:15 PM 79.7°F26.5°C 33.8°F1.0°C 19% 2.0 mph N3.2 kmh N 7.0 mph11.3 kmh 29.63 in1003.4 mb 0.00 in0.0 mm 0.00 in0.0 mm 0.00 in0.0 mm
10:14 PM 79.7°F26.5°C 33.8°F1.0°C 19% 4.0 mph N6.4 kmh N 7.0 mph11.3 kmh 29.63 in1003.4 mb 0.00 in0.0 mm 0.00 in0.0 mm 0.00 in0.0 mm
10:13 PM 79.7°F26.5°C 33.8°F1.0°C 19% 2.0 mph N3.2 kmh N 7.0 mph11.3 kmh 29.63 in1003.4 mb 0.00 in0.0 mm 0.00 in0.0 mm 0.00 in0.0 mm
10:12 PM 79.7°F26.5°C 33.8°F1.0°C 19% 5.0 mph N8.0 kmh N 8.0 mph12.9 kmh 29.63 in1003.4 mb 0.00 in0.0 mm 0.00 in0.0 mm 0.00 in0.0 mm
10:11 PM 79.8°F26.6°C 33.9°F1.1°C 19% 4.0 mph N6.4 kmh N 8.0 mph12.9 kmh 29.63 in1003.4 mb 0.00 in0.0 mm 0.00 in0.0 mm 0.00 in0.0 mm
10:10 PM 79.8°F26.6°C 33.9°F1.1°C 19% 4.0 mph N6.4 kmh N 8.0 mph12.9 kmh 29.63 in1003.4 mb 0.00 in0.0 mm 0.00 in0.0 mm 0.00 in0.0 mm
10:09 PM 79.8°F26.6°C 33.9°F1.1°C 19% 4.0 mph N6.4 kmh N 8.0 mph12.9 kmh 29.63 in1003.4 mb 0.00 in0.0 mm 0.00 in0.0 mm 0.00 in0.0 mm
10:08 PM 79.8°F26.6°C 33.9°F1.1°C 19% 3.0 mph N4.8 kmh N 9.0 mph14.5 kmh 29.63 in1003.4 mb 0.00 in0.0 mm 0.00 in0.0 mm 0.00 in0.0 mm
10:07 PM 79.9°F26.6°C 34.0°F1.1°C 19% 6.0 mph N9.7 kmh N 9.0 mph14.5 kmh 29.63 in1003.4 mb 0.00 in0.0 mm 0.00 in0.0 mm 0.00 in0.0 mm
10:06 PM 79.9°F26.6°C 34.0°F1.1°C 19% 5.0 mph N8.0 kmh N 9.0 mph14.5 kmh 29.63 in1003.4 mb 0.00 in0.0 mm 0.00 in0.0 mm 0.00 in0.0 mm
10:05 PM 80.0°F26.7°C 34.1°F1.2°C 19% 8.0 mph N12.9 kmh N 9.0 mph14.5 kmh 29.63 in1003.4 mb 0.00 in0.0 mm 0.00 in0.0 mm 0.00 in0.0 mm
10:04 PM 80.0°F26.7°C 34.1°F1.2°C 19% 5.0 mph N8.0 kmh N 8.0 mph12.9 kmh 29.63 in1003.4 mb 0.00 in0.0 mm 0.00 in0.0 mm 0.00 in0.0 mm
10:03 PM 80.0°F26.7°C 34.1°F1.2°C 19% 4.0 mph N6.4 kmh N 6.0 mph9.7 kmh 29.63 in1003.4 mb 0.00 in0.0 mm 0.00 in0.0 mm 0.00 in0.0 mm
10:02 PM 80.0°F26.7°C 34.1°F1.2°C 19% 5.0 mph N8.0 kmh N 10.0 mph16.1 kmh 29.63 in1003.4 mb 0.00 in0.0 mm 0.00 in0.0 mm 0.00 in0.0 mm
10:01 PM 80.1°F26.7°C 34.2°F1.2°C 19% 2.0 mph N3.2 kmh N 10.0 mph16.1 kmh 29.63 in1003.4 mb 0.00 in0.0 mm 0.00 in0.0 mm 0.00 in0.0 mm
09:59 PM 80.2°F26.8°C 34.2°F1.2°C 19% 4.0 mph N6.4 kmh N 5.0 mph8.0 kmh 29.63 in1003.4 mb 0.00 in0.0 mm 0.00 in0.0 mm 0.00 in0.0 mm
09:58 PM 80.2°F26.8°C 34.2°F1.2°C 19% 5.0 mph NNW8.0 kmh NNW 11.0 mph17.7 kmh 29.63 in1003.4 mb 0.00 in0.0 mm 0.00 in0.0 mm 0.00 in0.0 mm
09:57 PM 80.2°F26.8°C 34.2°F1.2°C 19% 8.0 mph NNW12.9 kmh NNW 11.0 mph17.7 kmh 29.63 in1003.4 mb 0.00 in0.0 mm 0.00 in0.0 mm 0.00 in0.0 mm
09:56 PM 80.3°F26.8°C 34.3°F1.3°C 19% 1.0 mph N1.6 kmh N 7.0 mph11.3 kmh 29.63 in1003.4 mb 0.00 in0.0 mm 0.00 in0.0 mm 0.00 in0.0 mm
09:55 PM 80.3°F26.8°C 34.3°F1.3°C 19% 6.0 mph N9.7 kmh N 8.0 mph12.9 kmh 29.63 in1003.4 mb 0.00 in0.0 mm 0.00 in0.0 mm 0.00 in0.0 mm
09:54 PM 80.3°F26.8°C 34.3°F1.3°C 19% 4.0 mph N6.4 kmh N 8.0 mph12.9 kmh 29.63 in1003.4 mb 0.00 in0.0 mm 0.00 in0.0 mm 0.00 in0.0 mm
09:53 PM 80.3°F26.8°C 34.3°F1.3°C 19% 4.0 mph NNW6.4 kmh NNW 8.0 mph12.9 kmh 29.63 in1003.4 mb 0.00 in0.0 mm 0.00 in0.0 mm 0.00 in0.0 mm
09:52 PM 80.3°F26.8°C 34.3°F1.3°C 19% 5.0 mph N8.0 kmh N 8.0 mph12.9 kmh 29.63 in1003.4 mb 0.00 in0.0 mm 0.00 in0.0 mm 0.00 in0.0 mm
09:51 PM 80.4°F26.9°C 34.4°F1.3°C 19% 7.0 mph N11.3 kmh N 9.0 mph14.5 kmh 29.63 in1003.4 mb 0.00 in0.0 mm 0.00 in0.0 mm 0.00 in0.0 mm
09:50 PM 80.3°F26.8°C 34.3°F1.3°C 19% 2.0 mph N3.2 kmh N 8.0 mph12.9 kmh 29.63 in1003.4 mb 0.00 in0.0 mm 0.00 in0.0 mm 0.00 in0.0 mm
09:49 PM 80.4°F26.9°C 34.4°F1.3°C 19% 8.0 mph NNW12.9 kmh NNW 8.0 mph12.9 kmh 29.63 in1003.4 mb 0.00 in0.0 mm 0.00 in0.0 mm 0.00 in0.0 mm
09:48 PM 80.3°F26.8°C 34.3°F1.3°C 19% 6.0 mph N9.7 kmh N 10.0 mph16.1 kmh 29.63 in1003.4 mb 0.00 in0.0 mm 0.00 in0.0 mm 0.00 in0.0 mm
09:47 PM 80.3°F26.8°C 34.3°F1.3°C 19% 5.0 mph N8.0 kmh N 7.0 mph11.3 kmh 29.63 in1003.4 mb 0.00 in0.0 mm 0.00 in0.0 mm 0.00 in0.0 mm
09:46 PM 80.3°F26.8°C 34.3°F1.3°C 19% 3.0 mph N4.8 kmh N 7.0 mph11.3 kmh 29.63 in1003.4 mb 0.00 in0.0 mm 0.00 in0.0 mm 0.00 in0.0 mm
09:45 PM 80.3°F26.8°C 34.3°F1.3°C 19% 4.0 mph NNE6.4 kmh NNE 10.0 mph16.1 kmh 29.63 in1003.4 mb 0.00 in0.0 mm 0.00 in0.0 mm 0.00 in0.0 mm
09:44 PM 80.3°F26.8°C 34.3°F1.3°C 19% 1.0 mph NNW1.6 kmh NNW 10.0 mph16.1 kmh 29.63 in1003.4 mb 0.00 in0.0 mm 0.00 in0.0 mm 0.00 in0.0 mm
09:43 PM 80.2°F26.8°C 34.2°F1.2°C 19% 6.0 mph NNE9.7 kmh NNE 10.0 mph16.1 kmh 29.63 in1003.4 mb 0.00 in0.0 mm 0.00 in0.0 mm 0.00 in0.0 mm
09:42 PM 80.2°F26.8°C 34.2°F1.2°C 19% 5.0 mph N8.0 kmh N 8.0 mph12.9 kmh 29.63 in1003.4 mb 0.00 in0.0 mm 0.00 in0.0 mm 0.00 in0.0 mm
09:41 PM 80.2°F26.8°C 34.2°F1.2°C 19% 4.0 mph N6.4 kmh N 8.0 mph12.9 kmh 29.63 in1003.4 mb 0.00 in0.0 mm 0.00 in0.0 mm 0.00 in0.0 mm
09:40 PM 80.2°F26.8°C 34.2°F1.2°C 19% 2.0 mph N3.2 kmh N 8.0 mph12.9 kmh 29.62 in1003.0 mb 0.00 in0.0 mm 0.00 in0.0 mm 0.00 in0.0 mm
09:39 PM 80.2°F26.8°C 34.2°F1.2°C 19% 6.0 mph N9.7 kmh N 7.0 mph11.3 kmh 29.63 in1003.4 mb 0.00 in0.0 mm 0.00 in0.0 mm 0.00 in0.0 mm
09:38 PM 80.3°F26.8°C 34.3°F1.3°C 19% 5.0 mph NNW8.0 kmh NNW 8.0 mph12.9 kmh 29.63 in1003.4 mb 0.00 in0.0 mm 0.00 in0.0 mm 0.00 in0.0 mm
09:37 PM 80.3°F26.8°C 34.3°F1.3°C 19% 8.0 mph NNW12.9 kmh NNW 11.0 mph17.7 kmh 29.63 in1003.4 mb 0.00 in0.0 mm 0.00 in0.0 mm 0.00 in0.0 mm
09:36 PM 80.3°F26.8°C 34.3°F1.3°C 19% 2.0 mph N3.2 kmh N 11.0 mph17.7 kmh 29.62 in1003.0 mb 0.00 in0.0 mm 0.00 in0.0 mm 0.00 in0.0 mm
09:35 PM 80.4°F26.9°C 34.4°F1.3°C 19% 5.0 mph N8.0 kmh N 10.0 mph16.1 kmh 29.62 in1003.0 mb 0.00 in0.0 mm 0.00 in0.0 mm 0.00 in0.0 mm
09:34 PM 80.4°F26.9°C 34.4°F1.3°C 19% 6.0 mph NNW9.7 kmh NNW 7.0 mph11.3 kmh 29.62 in1003.0 mb 0.00 in0.0 mm 0.00 in0.0 mm 0.00 in0.0 mm
09:33 PM 80.4°F26.9°C 34.4°F1.3°C 19% 5.0 mph NNW8.0 kmh NNW 7.0 mph11.3 kmh 29.62 in1003.0 mb 0.00 in0.0 mm 0.00 in0.0 mm 0.00 in0.0 mm
09:32 PM 80.5°F26.9°C 34.5°F1.4°C 19% 5.0 mph NNW8.0 kmh NNW 7.0 mph11.3 kmh 29.62 in1003.0 mb 0.00 in0.0 mm 0.00 in0.0 mm 0.00 in0.0 mm
09:31 PM 80.5°F26.9°C 34.5°F1.4°C 19% 6.0 mph N9.7 kmh N 7.0 mph11.3 kmh 29.62 in1003.0 mb 0.00 in0.0 mm 0.00 in0.0 mm 0.00 in0.0 mm
09:29 PM 80.6°F27.0°C 34.6°F1.4°C 19% 2.0 mph N3.2 kmh N 8.0 mph12.9 kmh 29.62 in1003.0 mb 0.00 in0.0 mm 0.00 in0.0 mm 0.00 in0.0 mm
09:28 PM 80.7°F27.1°C 34.7°F1.5°C 19% 7.0 mph N11.3 kmh N 7.0 mph11.3 kmh 29.62 in1003.0 mb 0.00 in0.0 mm 0.00 in0.0 mm 0.00 in0.0 mm
09:27 PM 80.7°F27.1°C 34.7°F1.5°C 19% 4.0 mph N6.4 kmh N 8.0 mph12.9 kmh 29.62 in1003.0 mb 0.00 in0.0 mm 0.00 in0.0 mm 0.00 in0.0 mm
09:26 PM 80.8°F27.1°C 34.7°F1.5°C 19% Calm Calm 8.0 mph12.9 kmh 29.62 in1003.0 mb 0.00 in0.0 mm 0.00 in0.0 mm 0.00 in0.0 mm
09:25 PM 80.9°F27.2°C 34.8°F1.6°C 19% Calm Calm 5.0 mph8.0 kmh 29.62 in1003.0 mb 0.00 in0.0 mm 0.00 in0.0 mm 0.00 in0.0 mm
09:24 PM 80.9°F27.2°C 34.8°F1.6°C 19% 3.0 mph N4.8 kmh N 5.0 mph8.0 kmh 29.62 in1003.0 mb 0.00 in0.0 mm 0.00 in0.0 mm 0.00 in0.0 mm
09:23 PM 80.9°F27.2°C 34.8°F1.6°C 19% 1.0 mph N1.6 kmh N 5.0 mph8.0 kmh 29.62 in1003.0 mb 0.00 in0.0 mm 0.00 in0.0 mm 0.00 in0.0 mm
09:22 PM 80.9°F27.2°C 34.8°F1.6°C 19% Calm Calm 6.0 mph9.7 kmh 29.62 in1003.0 mb 0.00 in0.0 mm 0.00 in0.0 mm 0.00 in0.0 mm
09:21 PM 81.0°F27.2°C 34.9°F1.6°C 19% Calm Calm 6.0 mph9.7 kmh 29.62 in1003.0 mb 0.00 in0.0 mm 0.00 in0.0 mm 0.00 in0.0 mm
09:20 PM 81.0°F27.2°C 34.9°F1.6°C 19% 1.0 mph N1.6 kmh N 4.0 mph6.4 kmh 29.62 in1003.0 mb 0.00 in0.0 mm 0.00 in0.0 mm 0.00 in0.0 mm
09:19 PM 81.0°F27.2°C 34.9°F1.6°C 19% 1.0 mph N1.6 kmh N 7.0 mph11.3 kmh 29.62 in1003.0 mb 0.00 in0.0 mm 0.00 in0.0 mm 0.00 in0.0 mm
09:18 PM 81.1°F27.3°C 35.0°F1.7°C 19% 1.0 mph N1.6 kmh N 7.0 mph11.3 kmh 29.62 in1003.0 mb 0.00 in0.0 mm 0.00 in0.0 mm 0.00 in0.0 mm
09:17 PM 81.1°F27.3°C 35.0°F1.7°C 19% 6.0 mph N9.7 kmh N 7.0 mph11.3 kmh 29.62 in1003.0 mb 0.00 in0.0 mm 0.00 in0.0 mm 0.00 in0.0 mm
09:16 PM 81.2°F27.3°C 35.1°F1.7°C 19% 5.0 mph NNE8.0 kmh NNE 5.0 mph8.0 kmh 29.62 in1003.0 mb 0.00 in0.0 mm 0.00 in0.0 mm 0.00 in0.0 mm
09:15 PM 81.2°F27.3°C 35.1°F1.7°C 19% Calm Calm 6.0 mph9.7 kmh 29.62 in1003.0 mb 0.00 in0.0 mm 0.00 in0.0 mm 0.00 in0.0 mm
09:14 PM 81.3°F27.4°C 35.1°F1.7°C 19% 6.0 mph NNE9.7 kmh NNE 6.0 mph9.7 kmh 29.62 in1003.0 mb 0.00 in0.0 mm 0.00 in0.0 mm 0.00 in0.0 mm
09:13 PM 81.3°F27.4°C 35.1°F1.7°C 19% 1.0 mph N1.6 kmh N 3.0 mph4.8 kmh 29.62 in1003.0 mb 0.00 in0.0 mm 0.00 in0.0 mm 0.00 in0.0 mm
09:12 PM 81.3°F27.4°C 35.1°F1.7°C 19% Calm Calm 4.0 mph6.4 kmh 29.62 in1003.0 mb 0.00 in0.0 mm 0.00 in0.0 mm 0.00 in0.0 mm
09:11 PM 81.4°F27.4°C 35.2°F1.8°C 19% 3.0 mph N4.8 kmh N 4.0 mph6.4 kmh 29.62 in1003.0 mb 0.00 in0.0 mm 0.00 in0.0 mm 0.00 in0.0 mm
09:10 PM 81.4°F27.4°C 35.2°F1.8°C 19% 1.0 mph NNW1.6 kmh NNW 2.0 mph3.2 kmh 29.62 in1003.0 mb 0.00 in0.0 mm 0.00 in0.0 mm 0.00 in0.0 mm
09:09 PM 81.4°F27.4°C 35.2°F1.8°C 19% Calm Calm 4.0 mph6.4 kmh 29.62 in1003.0 mb 0.00 in0.0 mm 0.00 in0.0 mm 0.00 in0.0 mm
09:08 PM 81.4°F27.4°C 35.2°F1.8°C 19% 1.0 mph NNW1.6 kmh NNW 5.0 mph8.0 kmh 29.62 in1003.0 mb 0.00 in0.0 mm 0.00 in0.0 mm 0.00 in0.0 mm
09:07 PM 81.4°F27.4°C 35.2°F1.8°C 19% 1.0 mph NNW1.6 kmh NNW 9.0 mph14.5 kmh 29.62 in1003.0 mb 0.00 in0.0 mm 0.00 in0.0 mm 0.00 in0.0 mm
09:06 PM 81.4°F27.4°C 35.2°F1.8°C 19% 6.0 mph N9.7 kmh N 9.0 mph14.5 kmh 29.62 in1003.0 mb 0.00 in0.0 mm 0.00 in0.0 mm 0.00 in0.0 mm
09:05 PM 81.5°F27.5°C 35.3°F1.8°C 19% 5.0 mph N8.0 kmh N 10.0 mph16.1 kmh 29.62 in1003.0 mb 0.00 in0.0 mm 0.00 in0.0 mm 0.00 in0.0 mm
09:04 PM 81.5°F27.5°C 35.3°F1.8°C 19% 7.0 mph N11.3 kmh N 10.0 mph16.1 kmh 29.62 in1003.0 mb 0.00 in0.0 mm 0.00 in0.0 mm 0.00 in0.0 mm
09:03 PM 81.5°F27.5°C 35.3°F1.8°C 19% 5.0 mph N8.0 kmh N 10.0 mph16.1 kmh 29.62 in1003.0 mb 0.00 in0.0 mm 0.00 in0.0 mm 0.00 in0.0 mm
09:02 PM 81.6°F27.6°C 35.4°F1.9°C 19% 4.0 mph N6.4 kmh N 8.0 mph12.9 kmh 29.62 in1003.0 mb 0.00 in0.0 mm 0.00 in0.0 mm 0.00 in0.0 mm
09:01 PM 81.6°F27.6°C 35.4°F1.9°C 19% Calm Calm 6.0 mph9.7 kmh 29.62 in1003.0 mb 0.00 in0.0 mm 0.00 in0.0 mm 0.00 in0.0 mm
09:00 PM 81.6°F27.6°C 35.4°F1.9°C 19% Calm Calm 8.0 mph12.9 kmh 29.62 in1003.0 mb 0.00 in0.0 mm 0.00 in0.0 mm 0.00 in0.0 mm
08:59 PM 81.6°F27.6°C 35.4°F1.9°C 19% 5.0 mph N8.0 kmh N 5.0 mph8.0 kmh 29.62 in1003.0 mb 0.00 in0.0 mm 0.00 in0.0 mm 0.00 in0.0 mm
08:58 PM 81.7°F27.6°C 35.5°F1.9°C 19% Calm Calm 6.0 mph9.7 kmh 29.62 in1003.0 mb 0.00 in0.0 mm 0.00 in0.0 mm 0.00 in0.0 mm
08:57 PM 81.7°F27.6°C 35.5°F1.9°C 19% 1.0 mph N1.6 kmh N 9.0 mph14.5 kmh 29.62 in1003.0 mb 0.00 in0.0 mm 0.00 in0.0 mm 0.00 in0.0 mm
08:56 PM 81.7°F27.6°C 35.5°F1.9°C 19% 2.0 mph N3.2 kmh N 9.0 mph14.5 kmh 29.62 in1003.0 mb 0.00 in0.0 mm 0.00 in0.0 mm 0.00 in0.0 mm
08:55 PM 81.7°F27.6°C 35.5°F1.9°C 19% 4.0 mph N6.4 kmh N 9.0 mph14.5 kmh 29.62 in1003.0 mb 0.00 in0.0 mm 0.00 in0.0 mm 0.00 in0.0 mm
08:54 PM 81.8°F27.7°C 35.6°F2.0°C 19% 2.0 mph N3.2 kmh N 9.0 mph14.5 kmh 29.62 in1003.0 mb 0.00 in0.0 mm 0.00 in0.0 mm 0.00 in0.0 mm
08:53 PM 81.8°F27.7°C 36.9°F2.7°C 20% Calm Calm 4.0 mph6.4 kmh 29.61 in1002.7 mb 0.00 in0.0 mm 0.00 in0.0 mm 0.00 in0.0 mm
08:52 PM 81.9°F27.7°C 35.6°F2.0°C 19% 2.0 mph NNE3.2 kmh NNE 5.0 mph8.0 kmh 29.61 in1002.7 mb 0.00 in0.0 mm 0.00 in0.0 mm 0.00 in0.0 mm
08:51 PM 81.9°F27.7°C 35.6°F2.0°C 19% 3.0 mph NNE4.8 kmh NNE 6.0 mph9.7 kmh 29.61 in1002.7 mb 0.00 in0.0 mm 0.00 in0.0 mm 0.00 in0.0 mm
08:50 PM 82.0°F27.8°C 35.7°F2.1°C 19% 3.0 mph NNE4.8 kmh NNE 6.0 mph9.7 kmh 29.61 in1002.7 mb 0.00 in0.0 mm 0.00 in0.0 mm 0.00 in0.0 mm
08:49 PM 82.1°F27.8°C 35.8°F2.1°C 19% 4.0 mph NNE6.4 kmh NNE 5.0 mph8.0 kmh 29.61 in1002.7 mb 0.00 in0.0 mm 0.00 in0.0 mm 0.00 in0.0 mm
08:48 PM 82.1°F27.8°C 35.8°F2.1°C 19% Calm Calm 8.0 mph12.9 kmh 29.61 in1002.7 mb 0.00 in0.0 mm 0.00 in0.0 mm 0.00 in0.0 mm
08:47 PM 82.1°F27.8°C 35.8°F2.1°C 19% 2.0 mph N3.2 kmh N 6.0 mph9.7 kmh 29.61 in1002.7 mb 0.00 in0.0 mm 0.00 in0.0 mm 0.00 in0.0 mm
08:46 PM 82.2°F27.9°C 35.9°F2.2°C 19% 6.0 mph N9.7 kmh N 6.0 mph9.7 kmh 29.61 in1002.7 mb 0.00 in0.0 mm 0.00 in0.0 mm 0.00 in0.0 mm
08:45 PM 82.3°F27.9°C 36.0°F2.2°C 19% 1.0 mph N1.6 kmh N 6.0 mph9.7 kmh 29.61 in1002.7 mb 0.00 in0.0 mm 0.00 in0.0 mm 0.00 in0.0 mm
08:44 PM 82.4°F28.0°C 36.0°F2.2°C 19% 1.0 mph N1.6 kmh N 4.0 mph6.4 kmh 29.61 in1002.7 mb 0.00 in0.0 mm 0.00 in0.0 mm 0.00 in0.0 mm
08:43 PM 82.5°F28.1°C 36.1°F2.3°C 19% 1.0 mph NNE1.6 kmh NNE 3.0 mph4.8 kmh 29.61 in1002.7 mb 0.00 in0.0 mm 0.00 in0.0 mm 0.00 in0.0 mm
08:42 PM 82.6°F28.1°C 36.2°F2.3°C 19% Calm Calm 2.0 mph3.2 kmh 29.61 in1002.7 mb 0.00 in0.0 mm 0.00 in0.0 mm 0.00 in0.0 mm
08:41 PM 82.7°F28.2°C 36.3°F2.4°C 19% Calm Calm 3.0 mph4.8 kmh 29.61 in1002.7 mb 0.00 in0.0 mm 0.00 in0.0 mm 0.00 in0.0 mm
08:40 PM 82.7°F28.2°C 36.3°F2.4°C 19% Calm Calm 2.0 mph3.2 kmh 29.61 in1002.7 mb 0.00 in0.0 mm 0.00 in0.0 mm 0.00 in0.0 mm
08:39 PM 82.8°F28.2°C 36.4°F2.4°C 19% Calm Calm 6.0 mph9.7 kmh 29.61 in1002.7 mb 0.00 in0.0 mm 0.00 in0.0 mm 0.00 in0.0 mm
08:38 PM 82.8°F28.2°C 36.4°F2.4°C 19% 2.0 mph N3.2 kmh N 7.0 mph11.3 kmh 29.61 in1002.7 mb 0.00 in0.0 mm 0.00 in0.0 mm 0.00 in0.0 mm
08:37 PM 82.9°F28.3°C 36.5°F2.5°C 19% 6.0 mph N9.7 kmh N 9.0 mph14.5 kmh 29.61 in1002.7 mb 0.00 in0.0 mm 0.00 in0.0 mm 0.00 in0.0 mm
08:36 PM 83.0°F28.3°C 36.5°F2.5°C 19% 2.0 mph N3.2 kmh N 10.0 mph16.1 kmh 29.61 in1002.7 mb 0.00 in0.0 mm 0.00 in0.0 mm 0.00 in0.0 mm
08:35 PM 83.0°F28.3°C 36.5°F2.5°C 19% 5.0 mph NNW8.0 kmh NNW 5.0 mph8.0 kmh 29.61 in1002.7 mb 0.00 in0.0 mm 0.00 in0.0 mm 0.00 in0.0 mm
08:34 PM 83.1°F28.4°C 36.6°F2.6°C 19% 5.0 mph N8.0 kmh N 5.0 mph8.0 kmh 29.61 in1002.7 mb 0.00 in0.0 mm 0.00 in0.0 mm 0.00 in0.0 mm
08:33 PM 83.2°F28.4°C 36.7°F2.6°C 19% 4.0 mph N6.4 kmh N 5.0 mph8.0 kmh 29.61 in1002.7 mb 0.00 in0.0 mm 0.00 in0.0 mm 0.00 in0.0 mm
08:32 PM 83.3°F28.5°C 36.8°F2.7°C 19% 2.0 mph N3.2 kmh N 5.0 mph8.0 kmh 29.61 in1002.7 mb 0.00 in0.0 mm 0.00 in0.0 mm 0.00 in0.0 mm
08:31 PM 83.4°F28.6°C 35.5°F1.9°C 18% 1.0 mph N1.6 kmh N 8.0 mph12.9 kmh 29.61 in1002.7 mb 0.00 in0.0 mm 0.00 in0.0 mm 0.00 in0.0 mm
08:30 PM 83.5°F28.6°C 35.6°F2.0°C 18% 5.0 mph N8.0 kmh N 8.0 mph12.9 kmh 29.61 in1002.7 mb 0.00 in0.0 mm 0.00 in0.0 mm 0.00 in0.0 mm
08:29 PM 83.6°F28.7°C 35.7°F2.1°C 18% Calm Calm 8.0 mph12.9 kmh 29.61 in1002.7 mb 0.00 in0.0 mm 0.00 in0.0 mm 0.00 in0.0 mm
08:28 PM 83.8°F28.8°C 35.8°F2.1°C 18% 8.0 mph N12.9 kmh N 8.0 mph12.9 kmh 29.61 in1002.7 mb 0.00 in0.0 mm 0.00 in0.0 mm 0.00 in0.0 mm
08:27 PM 83.9°F28.8°C 35.9°F2.2°C 18% 2.0 mph NNE3.2 kmh NNE 6.0 mph9.7 kmh 29.61 in1002.7 mb 0.00 in0.0 mm 0.00 in0.0 mm 0.00 in0.0 mm
08:26 PM 84.1°F28.9°C 36.1°F2.3°C 18% 1.0 mph N1.6 kmh N 6.0 mph9.7 kmh 29.61 in1002.7 mb 0.00 in0.0 mm 0.00 in0.0 mm 0.00 in0.0 mm
08:25 PM 84.2°F29.0°C 36.2°F2.3°C 18% 2.0 mph N3.2 kmh N 6.0 mph9.7 kmh 29.61 in1002.7 mb 0.00 in0.0 mm 0.00 in0.0 mm 0.00 in0.0 mm
08:24 PM 84.3°F29.1°C 36.2°F2.3°C 18% 2.0 mph N3.2 kmh N 6.0 mph9.7 kmh 29.61 in1002.7 mb 0.00 in0.0 mm 0.00 in0.0 mm 0.00 in0.0 mm
08:23 PM 84.5°F29.2°C 36.4°F2.4°C 18% 1.0 mph N1.6 kmh N 6.0 mph9.7 kmh 29.61 in1002.7 mb 0.00 in0.0 mm 0.00 in0.0 mm 0.00 in0.0 mm
08:22 PM 84.6°F29.2°C 36.5°F2.5°C 18% Calm Calm 7.0 mph11.3 kmh 29.61 in1002.7 mb 0.00 in0.0 mm 0.00 in0.0 mm 0.00 in0.0 mm
08:21 PM 84.7°F29.3°C 36.6°F2.6°C 18% 1.0 mph N1.6 kmh N 8.0 mph12.9 kmh 29.61 in1002.7 mb 0.00 in0.0 mm 0.00 in0.0 mm 0.00 in0.0 mm
08:20 PM 84.7°F29.3°C 36.6°F2.6°C 18% 4.0 mph NE6.4 kmh NE 8.0 mph12.9 kmh 29.61 in1002.7 mb 0.00 in0.0 mm 0.00 in0.0 mm 0.00 in0.0 mm
08:19 PM 84.8°F29.3°C 35.2°F1.8°C 17% Calm Calm 8.0 mph12.9 kmh 29.61 in1002.7 mb 0.00 in0.0 mm 0.00 in0.0 mm 0.00 in0.0 mm
08:18 PM 84.8°F29.3°C 35.2°F1.8°C 17% 5.0 mph NW8.0 kmh NW 8.0 mph12.9 kmh 29.61 in1002.7 mb 0.00 in0.0 mm 0.00 in0.0 mm 0.00 in0.0 mm
08:17 PM 84.8°F29.3°C 35.2°F1.8°C 17% 4.0 mph N6.4 kmh N 8.0 mph12.9 kmh 29.61 in1002.7 mb 0.00 in0.0 mm 0.00 in0.0 mm 0.00 in0.0 mm
08:16 PM 84.8°F29.3°C 35.2°F1.8°C 17% 3.0 mph N4.8 kmh N 6.0 mph9.7 kmh 29.61 in1002.7 mb 0.00 in0.0 mm 0.00 in0.0 mm 0.00 in0.0 mm
08:15 PM 84.8°F29.3°C 35.2°F1.8°C 17% 6.0 mph N9.7 kmh N 6.0 mph9.7 kmh 29.61 in1002.7 mb 0.00 in0.0 mm 0.00 in0.0 mm 0.00 in0.0 mm
08:14 PM 84.9°F29.4°C 35.3°F1.8°C 17% Calm Calm 6.0 mph9.7 kmh 29.61 in1002.7 mb 0.00 in0.0 mm 0.00 in0.0 mm 0.00 in0.0 mm
08:13 PM 84.9°F29.4°C 35.3°F1.8°C 17% 4.0 mph N6.4 kmh N 7.0 mph11.3 kmh 29.61 in1002.7 mb 0.00 in0.0 mm 0.00 in0.0 mm 0.00 in0.0 mm
08:12 PM 84.9°F29.4°C 35.3°F1.8°C 17% 7.0 mph N11.3 kmh N 8.0 mph12.9 kmh 29.60 in1002.4 mb 0.00 in0.0 mm 0.00 in0.0 mm 0.00 in0.0 mm
08:11 PM 85.0°F29.4°C 35.4°F1.9°C 17% 8.0 mph NNW12.9 kmh NNW 8.0 mph12.9 kmh 29.60 in1002.4 mb 0.00 in0.0 mm 0.00 in0.0 mm 0.00 in0.0 mm
08:10 PM 85.0°F29.4°C 35.4°F1.9°C 17% 6.0 mph NNW9.7 kmh NNW 6.0 mph9.7 kmh 29.60 in1002.4 mb 0.00 in0.0 mm 0.00 in0.0 mm 0.00 in0.0 mm
08:09 PM 85.1°F29.5°C 35.4°F1.9°C 17% 4.0 mph N6.4 kmh N 10.0 mph16.1 kmh 29.60 in1002.4 mb 0.00 in0.0 mm 0.00 in0.0 mm 0.00 in0.0 mm
08:08 PM 85.1°F29.5°C 35.4°F1.9°C 17% 4.0 mph N6.4 kmh N 10.0 mph16.1 kmh 29.60 in1002.4 mb 0.00 in0.0 mm 0.00 in0.0 mm 0.00 in0.0 mm
08:07 PM 85.2°F29.6°C 35.5°F1.9°C 17% 1.0 mph N1.6 kmh N 4.0 mph6.4 kmh 29.60 in1002.4 mb 0.00 in0.0 mm 0.00 in0.0 mm 0.00 in0.0 mm
08:06 PM 85.2°F29.6°C 37.0°F2.8°C 18% Calm Calm 4.0 mph6.4 kmh 29.60 in1002.4 mb 0.00 in0.0 mm 0.00 in0.0 mm 0.00 in0.0 mm
08:05 PM 85.3°F29.6°C 35.6°F2.0°C 17% Calm Calm 5.0 mph8.0 kmh 29.61 in1002.7 mb 0.00 in0.0 mm 0.00 in0.0 mm 0.00 in0.0 mm
08:04 PM 85.4°F29.7°C 35.7°F2.1°C 17% 2.0 mph N3.2 kmh N 7.0 mph11.3 kmh 29.61 in1002.7 mb 0.00 in0.0 mm 0.00 in0.0 mm 0.00 in0.0 mm
08:03 PM 85.4°F29.7°C 37.1°F2.8°C 18% 2.0 mph N3.2 kmh N 7.0 mph11.3 kmh 29.61 in1002.7 mb 0.00 in0.0 mm 0.00 in0.0 mm 0.00 in0.0 mm
08:02 PM 85.4°F29.7°C 35.7°F2.1°C 17% 5.0 mph N8.0 kmh N 9.0 mph14.5 kmh 29.60 in1002.4 mb 0.00 in0.0 mm 0.00 in0.0 mm 0.00 in0.0 mm
08:01 PM 85.5°F29.7°C 37.2°F2.9°C 18% 1.0 mph N1.6 kmh N 10.0 mph16.1 kmh 29.60 in1002.4 mb 0.00 in0.0 mm 0.00 in0.0 mm 0.00 in0.0 mm
08:00 PM 85.5°F29.7°C 37.2°F2.9°C 18% 3.0 mph N4.8 kmh N 10.0 mph16.1 kmh 29.60 in1002.4 mb 0.00 in0.0 mm 0.00 in0.0 mm 0.00 in0.0 mm
07:59 PM 85.6°F29.8°C 35.8°F2.1°C 17% 4.0 mph N6.4 kmh N 9.0 mph14.5 kmh 29.60 in1002.4 mb 0.00 in0.0 mm 0.00 in0.0 mm 0.00 in0.0 mm
07:58 PM 85.6°F29.8°C 35.8°F2.1°C 17% 4.0 mph N6.4 kmh N 9.0 mph14.5 kmh 29.60 in1002.4 mb 0.00 in0.0 mm 0.00 in0.0 mm 0.00 in0.0 mm
07:57 PM 85.6°F29.8°C 35.8°F2.1°C 17% Calm Calm 8.0 mph12.9 kmh 29.60 in1002.4 mb 0.00 in0.0 mm 0.00 in0.0 mm 0.00 in0.0 mm
07:56 PM 85.7°F29.8°C 35.9°F2.2°C 17% 8.0 mph NNW12.9 kmh NNW 8.0 mph12.9 kmh 29.60 in1002.4 mb 0.00 in0.0 mm 0.00 in0.0 mm 0.00 in0.0 mm
07:55 PM 85.7°F29.8°C 35.9°F2.2°C 17% 5.0 mph N8.0 kmh N 7.0 mph11.3 kmh 29.60 in1002.4 mb 0.00 in0.0 mm 0.00 in0.0 mm 0.00 in0.0 mm
07:54 PM 85.7°F29.8°C 35.9°F2.2°C 17% 7.0 mph N11.3 kmh N 7.0 mph11.3 kmh 29.60 in1002.4 mb 0.00 in0.0 mm 0.00 in0.0 mm 0.00 in0.0 mm
07:53 PM 85.7°F29.8°C 35.9°F2.2°C 17% 5.0 mph N8.0 kmh N 8.0 mph12.9 kmh 29.60 in1002.4 mb 0.00 in0.0 mm 0.00 in0.0 mm 0.00 in0.0 mm
07:52 PM 85.8°F29.9°C 37.4°F3.0°C 18% 2.0 mph N3.2 kmh N 8.0 mph12.9 kmh 29.60 in1002.4 mb 0.00 in0.0 mm 0.00 in0.0 mm 0.00 in0.0 mm
07:51 PM 85.8°F29.9°C 36.0°F2.2°C 17% 8.0 mph NNW12.9 kmh NNW 8.0 mph12.9 kmh 29.60 in1002.4 mb 0.00 in0.0 mm 0.00 in0.0 mm 0.00 in0.0 mm
07:50 PM 85.9°F29.9°C 37.5°F3.1°C 18% 4.0 mph N6.4 kmh N 8.0 mph12.9 kmh 29.60 in1002.4 mb 0.00 in0.0 mm 0.00 in0.0 mm 0.00 in0.0 mm
07:49 PM 85.9°F29.9°C 37.5°F3.1°C 18% 2.0 mph N3.2 kmh N 8.0 mph12.9 kmh 29.60 in1002.4 mb 0.00 in0.0 mm 0.00 in0.0 mm 0.00 in0.0 mm
07:48 PM 86.0°F30.0°C 37.6°F3.1°C 18% 3.0 mph N4.8 kmh N 7.0 mph11.3 kmh 29.60 in1002.4 mb 0.00 in0.0 mm 0.00 in0.0 mm 0.00 in0.0 mm
07:47 PM 86.0°F30.0°C 37.6°F3.1°C 18% 6.0 mph N9.7 kmh N 7.0 mph11.3 kmh 29.60 in1002.4 mb 0.00 in0.0 mm 0.00 in0.0 mm 0.00 in0.0 mm
07:46 PM 86.1°F30.1°C 37.7°F3.2°C 18% 4.0 mph N6.4 kmh N 7.0 mph11.3 kmh 29.60 in1002.4 mb 0.00 in0.0 mm 0.00 in0.0 mm 0.00 in0.0 mm
07:45 PM 86.1°F30.1°C 37.7°F3.2°C 18% 1.0 mph N1.6 kmh N 6.0 mph9.7 kmh 29.60 in1002.4 mb 0.00 in0.0 mm 0.00 in0.0 mm 0.00 in0.0 mm
07:44 PM 86.2°F30.1°C 37.8°F3.2°C 18% 5.0 mph N8.0 kmh N 10.0 mph16.1 kmh 29.60 in1002.4 mb 0.00 in0.0 mm 0.00 in0.0 mm 0.00 in0.0 mm
07:43 PM 86.2°F30.1°C 37.8°F3.2°C 18% 6.0 mph N9.7 kmh N 10.0 mph16.1 kmh 29.60 in1002.4 mb 0.00 in0.0 mm 0.00 in0.0 mm 0.00 in0.0 mm
07:42 PM 86.3°F30.2°C 37.9°F3.3°C 18% 2.0 mph N3.2 kmh N 6.0 mph9.7 kmh 29.60 in1002.4 mb 0.00 in0.0 mm 0.00 in0.0 mm 0.00 in0.0 mm
07:41 PM 86.3°F30.2°C 37.9°F3.3°C 18% 2.0 mph NNE3.2 kmh NNE 9.0 mph14.5 kmh 29.60 in1002.4 mb 0.00 in0.0 mm 0.00 in0.0 mm 0.00 in0.0 mm
07:40 PM 86.3°F30.2°C 37.9°F3.3°C 18% 1.0 mph N1.6 kmh N 9.0 mph14.5 kmh 29.60 in1002.4 mb 0.00 in0.0 mm 0.00 in0.0 mm 0.00 in0.0 mm
07:39 PM 86.4°F30.2°C 37.9°F3.3°C 18% 8.0 mph N12.9 kmh N 9.0 mph14.5 kmh 29.60 in1002.4 mb 0.00 in0.0 mm 0.00 in0.0 mm 0.00 in0.0 mm
07:38 PM 86.4°F30.2°C 37.9°F3.3°C 18% 1.0 mph N1.6 kmh N 7.0 mph11.3 kmh 29.60 in1002.4 mb 0.00 in0.0 mm 0.00 in0.0 mm 0.00 in0.0 mm
07:37 PM 86.5°F30.3°C 38.0°F3.3°C 18% Calm Calm 9.0 mph14.5 kmh 29.60 in1002.4 mb 0.00 in0.0 mm 0.00 in0.0 mm 0.00 in0.0 mm
07:36 PM 86.5°F30.3°C 38.0°F3.3°C 18% 1.0 mph N1.6 kmh N 8.0 mph12.9 kmh 29.60 in1002.4 mb 0.00 in0.0 mm 0.00 in0.0 mm 0.00 in0.0 mm
07:35 PM 86.6°F30.3°C 38.1°F3.4°C 18% 4.0 mph N6.4 kmh N 8.0 mph12.9 kmh 29.60 in1002.4 mb 0.00 in0.0 mm 0.00 in0.0 mm 0.00 in0.0 mm
07:34 PM 86.7°F30.4°C 38.2°F3.4°C 18% 5.0 mph N8.0 kmh N 7.0 mph11.3 kmh 29.60 in1002.4 mb 0.00 in0.0 mm 0.00 in0.0 mm 0.00 in0.0 mm
07:33 PM 86.8°F30.4°C 38.3°F3.5°C 18% 3.0 mph N4.8 kmh N 9.0 mph14.5 kmh 29.60 in1002.4 mb 0.00 in0.0 mm 0.00 in0.0 mm 0.00 in0.0 mm
07:32 PM 86.9°F30.5°C 38.3°F3.5°C 18% 6.0 mph N9.7 kmh N 9.0 mph14.5 kmh 29.60 in1002.4 mb 0.00 in0.0 mm 0.00 in0.0 mm 0.00 in0.0 mm
07:31 PM 86.9°F30.5°C 38.3°F3.5°C 18% 8.0 mph N12.9 kmh N 11.0 mph17.7 kmh 29.60 in1002.4 mb 0.00 in0.0 mm 0.00 in0.0 mm 0.00 in0.0 mm
07:30 PM 87.1°F30.6°C 38.5°F3.6°C 18% 8.0 mph N12.9 kmh N 11.0 mph17.7 kmh 29.60 in1002.4 mb 0.00 in0.0 mm 0.00 in0.0 mm 0.00 in0.0 mm
07:29 PM 87.2°F30.7°C 38.6°F3.7°C 18% 4.0 mph N6.4 kmh N 9.0 mph14.5 kmh 29.60 in1002.4 mb 0.00 in0.0 mm 0.00 in0.0 mm 0.00 in0.0 mm
07:28 PM 87.3°F30.7°C 38.7°F3.7°C 18% 5.0 mph N8.0 kmh N 7.0 mph11.3 kmh 29.60 in1002.4 mb 0.00 in0.0 mm 0.00 in0.0 mm 0.00 in0.0 mm
07:27 PM 87.4°F30.8°C 37.3°F2.9°C 17% 4.0 mph N6.4 kmh N 7.0 mph11.3 kmh 29.60 in1002.4 mb 0.00 in0.0 mm 0.00 in0.0 mm 0.00 in0.0 mm
07:26 PM 87.5°F30.8°C 38.8°F3.8°C 18% 6.0 mph N9.7 kmh N 7.0 mph11.3 kmh 29.60 in1002.4 mb 0.00 in0.0 mm 0.00 in0.0 mm 0.00 in0.0 mm
07:25 PM 87.6°F30.9°C 37.5°F3.1°C 17% 1.0 mph N1.6 kmh N 8.0 mph12.9 kmh 29.60 in1002.4 mb 0.00 in0.0 mm 0.00 in0.0 mm 0.00 in0.0 mm
07:24 PM 87.7°F30.9°C 37.5°F3.1°C 17% 8.0 mph NW12.9 kmh NW 10.0 mph16.1 kmh 29.60 in1002.4 mb 0.00 in0.0 mm 0.00 in0.0 mm 0.00 in0.0 mm
07:23 PM 87.8°F31.0°C 37.6°F3.1°C 17% 4.0 mph N6.4 kmh N 9.0 mph14.5 kmh 29.60 in1002.4 mb 0.00 in0.0 mm 0.00 in0.0 mm 0.00 in0.0 mm
07:22 PM 87.9°F31.1°C 37.7°F3.2°C 17% 4.0 mph N6.4 kmh N 8.0 mph12.9 kmh 29.60 in1002.4 mb 0.00 in0.0 mm 0.00 in0.0 mm 0.00 in0.0 mm
07:21 PM 88.0°F31.1°C 37.8°F3.2°C 17% 6.0 mph NNW9.7 kmh NNW 8.0 mph12.9 kmh 29.60 in1002.4 mb 0.00 in0.0 mm 0.00 in0.0 mm 0.00 in0.0 mm
07:20 PM 88.1°F31.2°C 37.9°F3.3°C 17% 1.0 mph N1.6 kmh N 8.0 mph12.9 kmh 29.60 in1002.4 mb 0.00 in0.0 mm 0.00 in0.0 mm 0.00 in0.0 mm
07:19 PM 88.1°F31.2°C 39.3°F4.1°C 18% Calm Calm 8.0 mph12.9 kmh 29.60 in1002.4 mb 0.00 in0.0 mm 0.00 in0.0 mm 0.00 in0.0 mm
07:18 PM 88.1°F31.2°C 37.9°F3.3°C 17% 4.0 mph N6.4 kmh N 8.0 mph12.9 kmh 29.60 in1002.4 mb 0.00 in0.0 mm 0.00 in0.0 mm 0.00 in0.0 mm
07:17 PM 88.2°F31.2°C 39.4°F4.1°C 18% 4.0 mph N6.4 kmh N 9.0 mph14.5 kmh 29.60 in1002.4 mb 0.00 in0.0 mm 0.00 in0.0 mm 0.00 in0.0 mm
07:16 PM 88.3°F31.3°C 38.0°F3.3°C 17% 4.0 mph N6.4 kmh N 9.0 mph14.5 kmh 29.60 in1002.4 mb 0.00 in0.0 mm 0.00 in0.0 mm 0.00 in0.0 mm
07:15 PM 88.3°F31.3°C 38.0°F3.3°C 17% 5.0 mph N8.0 kmh N 9.0 mph14.5 kmh 29.60 in1002.4 mb 0.00 in0.0 mm 0.00 in0.0 mm 0.00 in0.0 mm
07:14 PM 88.4°F31.3°C 38.1°F3.4°C 17% 5.0 mph N8.0 kmh N 9.0 mph14.5 kmh 29.60 in1002.4 mb 0.00 in0.0 mm 0.00 in0.0 mm 0.00 in0.0 mm
07:13 PM 88.5°F31.4°C 38.2°F3.4°C 17% 6.0 mph N9.7 kmh N 9.0 mph14.5 kmh 29.60 in1002.4 mb 0.00 in0.0 mm 0.00 in0.0 mm 0.00 in0.0 mm
07:12 PM 88.5°F31.4°C 38.2°F3.4°C 17% 4.0 mph N6.4 kmh N 9.0 mph14.5 kmh 29.60 in1002.4 mb 0.00 in0.0 mm 0.00 in0.0 mm 0.00 in0.0 mm
07:11 PM 88.6°F31.4°C 38.3°F3.5°C 17% 3.0 mph N4.8 kmh N 7.0 mph11.3 kmh 29.60 in1002.4 mb 0.00 in0.0 mm 0.00 in0.0 mm 0.00 in0.0 mm
07:10 PM 88.6°F31.4°C 38.3°F3.5°C 17% 2.0 mph NNW3.2 kmh NNW 7.0 mph11.3 kmh 29.60 in1002.4 mb 0.00 in0.0 mm 0.00 in0.0 mm 0.00 in0.0 mm
07:09 PM 88.6°F31.4°C 38.3°F3.5°C 17% 6.0 mph N9.7 kmh N 8.0 mph12.9 kmh 29.60 in1002.4 mb 0.00 in0.0 mm 0.00 in0.0 mm 0.00 in0.0 mm
07:08 PM 88.7°F31.5°C 38.3°F3.5°C 17% 1.0 mph NNW1.6 kmh NNW 9.0 mph14.5 kmh 29.60 in1002.4 mb 0.00 in0.0 mm 0.00 in0.0 mm 0.00 in0.0 mm
07:07 PM 88.8°F31.6°C 36.9°F2.7°C 16% 9.0 mph N14.5 kmh N 10.0 mph16.1 kmh 29.60 in1002.4 mb 0.00 in0.0 mm 0.00 in0.0 mm 0.00 in0.0 mm
07:06 PM 88.8°F31.6°C 36.9°F2.7°C 16% 10.0 mph N16.1 kmh N 10.0 mph16.1 kmh 29.60 in1002.4 mb 0.00 in0.0 mm 0.00 in0.0 mm 0.00 in0.0 mm
07:05 PM 88.9°F31.6°C 37.0°F2.8°C 16% 9.0 mph NNW14.5 kmh NNW 11.0 mph17.7 kmh 29.60 in1002.4 mb 0.00 in0.0 mm 0.00 in0.0 mm 0.00 in0.0 mm
07:04 PM 89.0°F31.7°C 37.0°F2.8°C 16% 2.0 mph N3.2 kmh N 7.0 mph11.3 kmh 29.60 in1002.4 mb 0.00 in0.0 mm 0.00 in0.0 mm 0.00 in0.0 mm
07:03 PM 89.1°F31.7°C 37.1°F2.8°C 16% 3.0 mph NE4.8 kmh NE 8.0 mph12.9 kmh 29.60 in1002.4 mb 0.00 in0.0 mm 0.00 in0.0 mm 0.00 in0.0 mm
07:02 PM 89.2°F31.8°C 37.2°F2.9°C 16% 3.0 mph N4.8 kmh N 8.0 mph12.9 kmh 29.60 in1002.4 mb 0.00 in0.0 mm 0.00 in0.0 mm 0.00 in0.0 mm
07:01 PM 89.3°F31.8°C 37.3°F2.9°C 16% Calm Calm 6.0 mph9.7 kmh 29.60 in1002.4 mb 0.00 in0.0 mm 0.00 in0.0 mm 0.00 in0.0 mm
06:59 PM 89.5°F31.9°C 37.4°F3.0°C 16% 5.0 mph N8.0 kmh N 8.0 mph12.9 kmh 29.60 in1002.4 mb 0.00 in0.0 mm 0.00 in0.0 mm 0.00 in0.0 mm
06:58 PM 89.6°F32.0°C 37.5°F3.1°C 16% 5.0 mph NNE8.0 kmh NNE 9.0 mph14.5 kmh 29.60 in1002.4 mb 0.00 in0.0 mm 0.00 in0.0 mm 0.00 in0.0 mm
06:57 PM 89.7°F32.1°C 37.6°F3.1°C 16% 7.0 mph N11.3 kmh N 9.0 mph14.5 kmh 29.61 in1002.7 mb 0.00 in0.0 mm 0.00 in0.0 mm 0.00 in0.0 mm
06:56 PM 89.8°F32.1°C 37.7°F3.2°C 16% 7.0 mph N11.3 kmh N 12.0 mph19.3 kmh 29.60 in1002.4 mb 0.00 in0.0 mm 0.00 in0.0 mm 0.00 in0.0 mm
06:55 PM 90.0°F32.2°C 37.8°F3.2°C 16% 6.0 mph N9.7 kmh N 6.0 mph9.7 kmh 29.60 in1002.4 mb 0.00 in0.0 mm 0.00 in0.0 mm 0.00 in0.0 mm
06:54 PM 90.0°F32.2°C 37.8°F3.2°C 16% 5.0 mph NNE8.0 kmh NNE 6.0 mph9.7 kmh 29.60 in1002.4 mb 0.00 in0.0 mm 0.00 in0.0 mm 0.00 in0.0 mm
06:53 PM 90.1°F32.3°C 37.9°F3.3°C 16% 5.0 mph NE8.0 kmh NE 6.0 mph9.7 kmh 29.60 in1002.4 mb 0.00 in0.0 mm 0.00 in0.0 mm 0.00 in0.0 mm
06:52 PM 90.2°F32.3°C 38.0°F3.3°C 16% 1.0 mph N1.6 kmh N 6.0 mph9.7 kmh 29.61 in1002.7 mb 0.00 in0.0 mm 0.00 in0.0 mm 0.00 in0.0 mm
06:51 PM 90.2°F32.3°C 38.0°F3.3°C 16% 3.0 mph NNE4.8 kmh NNE 9.0 mph14.5 kmh 29.61 in1002.7 mb 0.00 in0.0 mm 0.00 in0.0 mm 0.00 in0.0 mm
06:50 PM 90.2°F32.3°C 38.0°F3.3°C 16% 4.0 mph N6.4 kmh N 7.0 mph11.3 kmh 29.61 in1002.7 mb 0.00 in0.0 mm 0.00 in0.0 mm 0.00 in0.0 mm
06:49 PM 90.2°F32.3°C 38.0°F3.3°C 16% 3.0 mph NNE4.8 kmh NNE 7.0 mph11.3 kmh 29.60 in1002.4 mb 0.00 in0.0 mm 0.00 in0.0 mm 0.00 in0.0 mm
06:48 PM 90.3°F32.4°C 38.1°F3.4°C 16% 4.0 mph N6.4 kmh N 7.0 mph11.3 kmh 29.60 in1002.4 mb 0.00 in0.0 mm 0.00 in0.0 mm 0.00 in0.0 mm
06:47 PM 90.3°F32.4°C 38.1°F3.4°C 16% 5.0 mph N8.0 kmh N 8.0 mph12.9 kmh 29.61 in1002.7 mb 0.00 in0.0 mm 0.00 in0.0 mm 0.00 in0.0 mm
06:46 PM 90.3°F32.4°C 38.1°F3.4°C 16% 4.0 mph N6.4 kmh N 8.0 mph12.9 kmh 29.61 in1002.7 mb 0.00 in0.0 mm 0.00 in0.0 mm 0.00 in0.0 mm
06:45 PM 90.3°F32.4°C 38.1°F3.4°C 16% 7.0 mph N11.3 kmh N 10.0 mph16.1 kmh 29.60 in1002.4 mb 0.00 in0.0 mm 0.00 in0.0 mm 0.00 in0.0 mm
06:44 PM 90.4°F32.4°C 38.2°F3.4°C 16% 8.0 mph N12.9 kmh N 10.0 mph16.1 kmh 29.61 in1002.7 mb 0.00 in0.0 mm 0.00 in0.0 mm 0.00 in0.0 mm
06:43 PM 90.4°F32.4°C 38.2°F3.4°C 16% 6.0 mph NNE9.7 kmh NNE 11.0 mph17.7 kmh 29.60 in1002.4 mb 0.00 in0.0 mm 0.00 in0.0 mm 0.00 in0.0 mm
06:42 PM 90.5°F32.5°C 38.2°F3.4°C 16% 9.0 mph N14.5 kmh N 12.0 mph19.3 kmh 29.60 in1002.4 mb 0.00 in0.0 mm 0.00 in0.0 mm 0.00 in0.0 mm
06:41 PM 90.6°F32.6°C 38.3°F3.5°C 16% 12.0 mph N19.3 kmh N 12.0 mph19.3 kmh 29.60 in1002.4 mb 0.00 in0.0 mm 0.00 in0.0 mm 0.00 in0.0 mm
06:40 PM 90.6°F32.6°C 38.3°F3.5°C 16% 5.0 mph NNW8.0 kmh NNW 10.0 mph16.1 kmh 29.60 in1002.4 mb 0.00 in0.0 mm 0.00 in0.0 mm 0.00 in0.0 mm
06:39 PM 90.7°F32.6°C 38.4°F3.6°C 16% 6.0 mph N9.7 kmh N 12.0 mph19.3 kmh 29.60 in1002.4 mb 0.00 in0.0 mm 0.00 in0.0 mm 0.00 in0.0 mm
06:38 PM 90.7°F32.6°C 38.4°F3.6°C 16% 5.0 mph N8.0 kmh N 10.0 mph16.1 kmh 29.60 in1002.4 mb 0.00 in0.0 mm 0.00 in0.0 mm 0.00 in0.0 mm
06:37 PM 90.8°F32.7°C 38.5°F3.6°C 16% 7.0 mph NE11.3 kmh NE 8.0 mph12.9 kmh 29.60 in1002.4 mb 0.00 in0.0 mm 0.00 in0.0 mm 0.00 in0.0 mm
06:36 PM 90.8°F32.7°C 38.5°F3.6°C 16% 6.0 mph N9.7 kmh N 8.0 mph12.9 kmh 29.60 in1002.4 mb 0.00 in0.0 mm 0.00 in0.0 mm 0.00 in0.0 mm
06:35 PM 90.8°F32.7°C 38.5°F3.6°C 16% 7.0 mph NE11.3 kmh NE 9.0 mph14.5 kmh 29.60 in1002.4 mb 0.00 in0.0 mm 0.00 in0.0 mm 0.00 in0.0 mm
06:34 PM 90.9°F32.7°C 38.6°F3.7°C 16% 8.0 mph NE12.9 kmh NE 10.0 mph16.1 kmh 29.60 in1002.4 mb 0.00 in0.0 mm 0.00 in0.0 mm 0.00 in0.0 mm
06:33 PM 90.9°F32.7°C 38.6°F3.7°C 16% 6.0 mph NE9.7 kmh NE 10.0 mph16.1 kmh 29.60 in1002.4 mb 0.00 in0.0 mm 0.00 in0.0 mm 0.00 in0.0 mm
06:32 PM 91.0°F32.8°C 38.6°F3.7°C 16% 5.0 mph NNE8.0 kmh NNE 10.0 mph16.1 kmh 29.61 in1002.7 mb 0.00 in0.0 mm 0.00 in0.0 mm 0.00 in0.0 mm
06:31 PM 91.0°F32.8°C 38.6°F3.7°C 16% 7.0 mph N11.3 kmh N 9.0 mph14.5 kmh 29.60 in1002.4 mb 0.00 in0.0 mm 0.00 in0.0 mm 0.00 in0.0 mm
06:30 PM 91.0°F32.8°C 38.6°F3.7°C 16% 5.0 mph NNW8.0 kmh NNW 9.0 mph14.5 kmh 29.61 in1002.7 mb 0.00 in0.0 mm 0.00 in0.0 mm 0.00 in0.0 mm
06:29 PM 91.1°F32.8°C 38.7°F3.7°C 16% 7.0 mph NNE11.3 kmh NNE 9.0 mph14.5 kmh 29.61 in1002.7 mb 0.00 in0.0 mm 0.00 in0.0 mm 0.00 in0.0 mm
06:28 PM 91.1°F32.8°C 38.7°F3.7°C 16% 6.0 mph NNE9.7 kmh NNE 8.0 mph12.9 kmh 29.61 in1002.7 mb 0.00 in0.0 mm 0.00 in0.0 mm 0.00 in0.0 mm
06:27 PM 91.1°F32.8°C 38.7°F3.7°C 16% 7.0 mph N11.3 kmh N 10.0 mph16.1 kmh 29.61 in1002.7 mb 0.00 in0.0 mm 0.00 in0.0 mm 0.00 in0.0 mm
06:26 PM 91.2°F32.9°C 40.4°F4.7°C 17% 8.0 mph NNE12.9 kmh NNE 10.0 mph16.1 kmh 29.61 in1002.7 mb 0.00 in0.0 mm 0.00 in0.0 mm 0.00 in0.0 mm
06:25 PM 91.2°F32.9°C 40.4°F4.7°C 17% 2.0 mph N3.2 kmh N 7.0 mph11.3 kmh 29.61 in1002.7 mb 0.00 in0.0 mm 0.00 in0.0 mm 0.00 in0.0 mm
06:24 PM 91.2°F32.9°C 38.8°F3.8°C 16% Calm Calm 11.0 mph17.7 kmh 29.61 in1002.7 mb 0.00 in0.0 mm 0.00 in0.0 mm 0.00 in0.0 mm
06:23 PM 91.2°F32.9°C 38.8°F3.8°C 16% 11.0 mph N17.7 kmh N 11.0 mph17.7 kmh 29.61 in1002.7 mb 0.00 in0.0 mm 0.00 in0.0 mm 0.00 in0.0 mm
06:22 PM 91.3°F32.9°C 38.9°F3.8°C 16% 7.0 mph N11.3 kmh N 10.0 mph16.1 kmh 29.61 in1002.7 mb 0.00 in0.0 mm 0.00 in0.0 mm 0.00 in0.0 mm
06:21 PM 91.3°F32.9°C 40.4°F4.7°C 17% 7.0 mph NNW11.3 kmh NNW 9.0 mph14.5 kmh 29.61 in1002.7 mb 0.00 in0.0 mm 0.00 in0.0 mm 0.00 in0.0 mm
06:20 PM 91.3°F32.9°C 40.4°F4.7°C 17% 6.0 mph N9.7 kmh N 7.0 mph11.3 kmh 29.61 in1002.7 mb 0.00 in0.0 mm 0.00 in0.0 mm 0.00 in0.0 mm
06:19 PM 91.4°F33.0°C 40.5°F4.7°C 17% 6.0 mph N9.7 kmh N 11.0 mph17.7 kmh 29.61 in1002.7 mb 0.00 in0.0 mm 0.00 in0.0 mm 0.00 in0.0 mm
06:18 PM 91.4°F33.0°C 39.0°F3.9°C 16% 6.0 mph NE9.7 kmh NE 12.0 mph19.3 kmh 29.61 in1002.7 mb 0.00 in0.0 mm 0.00 in0.0 mm 0.00 in0.0 mm
06:17 PM 91.5°F33.1°C 39.0°F3.9°C 16% 7.0 mph N11.3 kmh N 12.0 mph19.3 kmh 29.61 in1002.7 mb 0.00 in0.0 mm 0.00 in0.0 mm 0.00 in0.0 mm
06:16 PM 91.6°F33.1°C 39.1°F3.9°C 16% 9.0 mph NNW14.5 kmh NNW 11.0 mph17.7 kmh 29.61 in1002.7 mb 0.00 in0.0 mm 0.00 in0.0 mm 0.00 in0.0 mm
06:15 PM 91.7°F33.2°C 39.2°F4.0°C 16% 4.0 mph N6.4 kmh N 11.0 mph17.7 kmh 29.61 in1002.7 mb 0.00 in0.0 mm 0.00 in0.0 mm 0.00 in0.0 mm
06:14 PM 91.7°F33.2°C 39.2°F4.0°C 16% 6.0 mph N9.7 kmh N 10.0 mph16.1 kmh 29.61 in1002.7 mb 0.00 in0.0 mm 0.00 in0.0 mm 0.00 in0.0 mm
06:13 PM 91.8°F33.2°C 39.3°F4.1°C 16% 6.0 mph N9.7 kmh N 9.0 mph14.5 kmh 29.61 in1002.7 mb 0.00 in0.0 mm 0.00 in0.0 mm 0.00 in0.0 mm
06:12 PM 91.8°F33.2°C 39.3°F4.1°C 16% 6.0 mph N9.7 kmh N 10.0 mph16.1 kmh 29.61 in1002.7 mb 0.00 in0.0 mm 0.00 in0.0 mm 0.00 in0.0 mm
06:11 PM 91.8°F33.2°C 39.3°F4.1°C 16% 10.0 mph NW16.1 kmh NW 10.0 mph16.1 kmh 29.61 in1002.7 mb 0.00 in0.0 mm 0.00 in0.0 mm 0.00 in0.0 mm
06:10 PM 91.9°F33.3°C 39.4°F4.1°C 16% 6.0 mph NE9.7 kmh NE 11.0 mph17.7 kmh 29.61 in1002.7 mb 0.00 in0.0 mm 0.00 in0.0 mm 0.00 in0.0 mm
06:09 PM 91.9°F33.3°C 39.4°F4.1°C 16% 2.0 mph NNE3.2 kmh NNE 13.0 mph20.9 kmh 29.61 in1002.7 mb 0.00 in0.0 mm 0.00 in0.0 mm 0.00 in0.0 mm
06:08 PM 92.0°F33.3°C 39.4°F4.1°C 16% 7.0 mph NE11.3 kmh NE 10.0 mph16.1 kmh 29.61 in1002.7 mb 0.00 in0.0 mm 0.00 in0.0 mm 0.00 in0.0 mm
06:07 PM 92.0°F33.3°C 39.4°F4.1°C 16% 9.0 mph NE14.5 kmh NE 9.0 mph14.5 kmh 29.61 in1002.7 mb 0.00 in0.0 mm 0.00 in0.0 mm 0.00 in0.0 mm
06:06 PM 92.0°F33.3°C 39.4°F4.1°C 16% 8.0 mph NE12.9 kmh NE 8.0 mph12.9 kmh 29.61 in1002.7 mb 0.00 in0.0 mm 0.00 in0.0 mm 0.00 in0.0 mm
06:05 PM 92.1°F33.4°C 39.5°F4.2°C 16% 4.0 mph NNE6.4 kmh NNE 11.0 mph17.7 kmh 29.61 in1002.7 mb 0.00 in0.0 mm 0.00 in0.0 mm 0.00 in0.0 mm
06:04 PM 92.1°F33.4°C 39.5°F4.2°C 16% 6.0 mph N9.7 kmh N 11.0 mph17.7 kmh 29.61 in1002.7 mb 0.00 in0.0 mm 0.00 in0.0 mm 0.00 in0.0 mm
06:03 PM 92.2°F33.4°C 39.6°F4.2°C 16% 5.0 mph N8.0 kmh N 10.0 mph16.1 kmh 29.61 in1002.7 mb 0.00 in0.0 mm 0.00 in0.0 mm 0.00 in0.0 mm
06:02 PM 92.2°F33.4°C 39.6°F4.2°C 16% 6.0 mph NNW9.7 kmh NNW 8.0 mph12.9 kmh 29.61 in1002.7 mb 0.00 in0.0 mm 0.00 in0.0 mm 0.00 in0.0 mm
06:01 PM 92.2°F33.4°C 37.9°F3.3°C 15% 3.0 mph NNE4.8 kmh NNE 9.0 mph14.5 kmh 29.61 in1002.7 mb 0.00 in0.0 mm 0.00 in0.0 mm 0.00 in0.0 mm
06:00 PM 92.2°F33.4°C 39.6°F4.2°C 16% 3.0 mph NNE4.8 kmh NNE 8.0 mph12.9 kmh 29.61 in1002.7 mb 0.00 in0.0 mm 0.00 in0.0 mm 0.00 in0.0 mm
05:59 PM 92.2°F33.4°C 39.6°F4.2°C 16% 1.0 mph N1.6 kmh N 9.0 mph14.5 kmh 29.61 in1002.7 mb 0.00 in0.0 mm 0.00 in0.0 mm 0.00 in0.0 mm
05:58 PM 92.2°F33.4°C 39.6°F4.2°C 16% 8.0 mph NE12.9 kmh NE 9.0 mph14.5 kmh 29.61 in1002.7 mb 0.00 in0.0 mm 0.00 in0.0 mm 0.00 in0.0 mm
05:57 PM 92.2°F33.4°C 39.6°F4.2°C 16% 4.0 mph N6.4 kmh N 9.0 mph14.5 kmh 29.61 in1002.7 mb 0.00 in0.0 mm 0.00 in0.0 mm 0.00 in0.0 mm
05:56 PM 92.2°F33.4°C 39.6°F4.2°C 16% 9.0 mph NE14.5 kmh NE 9.0 mph14.5 kmh 29.61 in1002.7 mb 0.00 in0.0 mm 0.00 in0.0 mm 0.00 in0.0 mm
05:55 PM 92.2°F33.4°C 39.6°F4.2°C 16% 4.0 mph N6.4 kmh N 8.0 mph12.9 kmh 29.61 in1002.7 mb 0.00 in0.0 mm 0.00 in0.0 mm 0.00 in0.0 mm
05:54 PM 92.2°F33.4°C 37.9°F3.3°C 15% 1.0 mph NNW1.6 kmh NNW 10.0 mph16.1 kmh 29.61 in1002.7 mb 0.00 in0.0 mm 0.00 in0.0 mm 0.00 in0.0 mm
05:53 PM 92.3°F33.5°C 38.0°F3.3°C 15% Calm Calm 10.0 mph16.1 kmh 29.61 in1002.7 mb 0.00 in0.0 mm 0.00 in0.0 mm 0.00 in0.0 mm
05:52 PM 92.3°F33.5°C 39.7°F4.3°C 16% 4.0 mph N6.4 kmh N 11.0 mph17.7 kmh 29.61 in1002.7 mb 0.00 in0.0 mm 0.00 in0.0 mm 0.00 in0.0 mm
05:51 PM 92.3°F33.5°C 38.0°F3.3°C 15% 6.0 mph NNE9.7 kmh NNE 13.0 mph20.9 kmh 29.61 in1002.7 mb 0.00 in0.0 mm 0.00 in0.0 mm 0.00 in0.0 mm
05:50 PM 92.3°F33.5°C 38.0°F3.3°C 15% 6.0 mph N9.7 kmh N 13.0 mph20.9 kmh 29.61 in1002.7 mb 0.00 in0.0 mm 0.00 in0.0 mm 0.00 in0.0 mm
05:49 PM 92.4°F33.6°C 39.8°F4.3°C 16% 1.0 mph N1.6 kmh N 8.0 mph12.9 kmh 29.61 in1002.7 mb 0.00 in0.0 mm 0.00 in0.0 mm 0.00 in0.0 mm
05:48 PM 92.4°F33.6°C 38.1°F3.4°C 15% 5.0 mph N8.0 kmh N 8.0 mph12.9 kmh 29.61 in1002.7 mb 0.00 in0.0 mm 0.00 in0.0 mm 0.00 in0.0 mm
05:47 PM 92.4°F33.6°C 38.1°F3.4°C 15% 7.0 mph N11.3 kmh N 9.0 mph14.5 kmh 29.61 in1002.7 mb 0.00 in0.0 mm 0.00 in0.0 mm 0.00 in0.0 mm
05:46 PM 92.4°F33.6°C 38.1°F3.4°C 15% 8.0 mph NE12.9 kmh NE 9.0 mph14.5 kmh 29.61 in1002.7 mb 0.00 in0.0 mm 0.00 in0.0 mm 0.00 in0.0 mm
05:45 PM 92.4°F33.6°C 38.1°F3.4°C 15% 2.0 mph NNE3.2 kmh NNE 10.0 mph16.1 kmh 29.61 in1002.7 mb 0.00 in0.0 mm 0.00 in0.0 mm 0.00 in0.0 mm
05:44 PM 92.4°F33.6°C 38.1°F3.4°C 15% 6.0 mph N9.7 kmh N 7.0 mph11.3 kmh 29.61 in1002.7 mb 0.00 in0.0 mm 0.00 in0.0 mm 0.00 in0.0 mm
05:43 PM 92.4°F33.6°C 38.1°F3.4°C 15% 7.0 mph N11.3 kmh N 7.0 mph11.3 kmh 29.61 in1002.7 mb 0.00 in0.0 mm 0.00 in0.0 mm 0.00 in0.0 mm
05:42 PM 92.4°F33.6°C 38.1°F3.4°C 15% 6.0 mph N9.7 kmh N 9.0 mph14.5 kmh 29.61 in1002.7 mb 0.00 in0.0 mm 0.00 in0.0 mm 0.00 in0.0 mm
05:41 PM 92.4°F33.6°C 38.1°F3.4°C 15% 4.0 mph N6.4 kmh N 11.0 mph17.7 kmh 29.61 in1002.7 mb 0.00 in0.0 mm 0.00 in0.0 mm 0.00 in0.0 mm
05:40 PM 92.4°F33.6°C 38.1°F3.4°C 15% 4.0 mph NNW6.4 kmh NNW 11.0 mph17.7 kmh 29.61 in1002.7 mb 0.00 in0.0 mm 0.00 in0.0 mm 0.00 in0.0 mm
05:39 PM 92.5°F33.6°C 38.2°F3.4°C 15% 5.0 mph N8.0 kmh N 10.0 mph16.1 kmh 29.61 in1002.7 mb 0.00 in0.0 mm 0.00 in0.0 mm 0.00 in0.0 mm
05:38 PM 92.6°F33.7°C 38.3°F3.5°C 15% 2.0 mph N3.2 kmh N 10.0 mph16.1 kmh 29.61 in1002.7 mb 0.00 in0.0 mm 0.00 in0.0 mm 0.00 in0.0 mm
05:37 PM 92.6°F33.7°C 38.3°F3.5°C 15% 6.0 mph N9.7 kmh N 10.0 mph16.1 kmh 29.61 in1002.7 mb 0.00 in0.0 mm 0.00 in0.0 mm 0.00 in0.0 mm
05:36 PM 92.7°F33.7°C 38.3°F3.5°C 15% 6.0 mph N9.7 kmh N 10.0 mph16.1 kmh 29.61 in1002.7 mb 0.00 in0.0 mm 0.00 in0.0 mm 0.00 in0.0 mm
05:35 PM 92.8°F33.8°C 38.4°F3.6°C 15% 8.0 mph NE12.9 kmh NE 10.0 mph16.1 kmh 29.61 in1002.7 mb 0.00 in0.0 mm 0.00 in0.0 mm 0.00 in0.0 mm
05:34 PM 92.8°F33.8°C 38.4°F3.6°C 15% 7.0 mph NE11.3 kmh NE 9.0 mph14.5 kmh 29.61 in1002.7 mb 0.00 in0.0 mm 0.00 in0.0 mm 0.00 in0.0 mm
05:33 PM 92.9°F33.8°C 38.5°F3.6°C 15% 5.0 mph N8.0 kmh N 11.0 mph17.7 kmh 29.61 in1002.7 mb 0.00 in0.0 mm 0.00 in0.0 mm 0.00 in0.0 mm
05:32 PM 92.9°F33.8°C 36.7°F2.6°C 14% 5.0 mph NNW8.0 kmh NNW 9.0 mph14.5 kmh 29.61 in1002.7 mb 0.00 in0.0 mm 0.00 in0.0 mm 0.00 in0.0 mm
05:31 PM 93.0°F33.9°C 38.6°F3.7°C 15% 5.0 mph NNE8.0 kmh NNE 9.0 mph14.5 kmh 29.61 in1002.7 mb 0.00 in0.0 mm 0.00 in0.0 mm 0.00 in0.0 mm
05:30 PM 93.0°F33.9°C 38.6°F3.7°C 15% 3.0 mph NNE4.8 kmh NNE 11.0 mph17.7 kmh 29.61 in1002.7 mb 0.00 in0.0 mm 0.00 in0.0 mm 0.00 in0.0 mm
05:29 PM 93.1°F33.9°C 38.7°F3.7°C 15% 6.0 mph NE9.7 kmh NE 12.0 mph19.3 kmh 29.61 in1002.7 mb 0.00 in0.0 mm 0.00 in0.0 mm 0.00 in0.0 mm
05:28 PM 93.1°F33.9°C 38.7°F3.7°C 15% 7.0 mph N11.3 kmh N 12.0 mph19.3 kmh 29.61 in1002.7 mb 0.00 in0.0 mm 0.00 in0.0 mm 0.00 in0.0 mm
05:27 PM 93.1°F33.9°C 38.7°F3.7°C 15% 2.0 mph N3.2 kmh N 9.0 mph14.5 kmh 29.61 in1002.7 mb 0.00 in0.0 mm 0.00 in0.0 mm 0.00 in0.0 mm
05:26 PM 93.1°F33.9°C 38.7°F3.7°C 15% 7.0 mph NE11.3 kmh NE 9.0 mph14.5 kmh 29.61 in1002.7 mb 0.00 in0.0 mm 0.00 in0.0 mm 0.00 in0.0 mm
05:25 PM 93.1°F33.9°C 38.7°F3.7°C 15% 5.0 mph N8.0 kmh N 7.0 mph11.3 kmh 29.61 in1002.7 mb 0.00 in0.0 mm 0.00 in0.0 mm 0.00 in0.0 mm
05:24 PM 93.1°F33.9°C 38.7°F3.7°C 15% 5.0 mph N8.0 kmh N 7.0 mph11.3 kmh 29.61 in1002.7 mb 0.00 in0.0 mm 0.00 in0.0 mm 0.00 in0.0 mm
05:23 PM 93.2°F34.0°C 38.7°F3.7°C 15% 6.0 mph NE9.7 kmh NE 11.0 mph17.7 kmh 29.61 in1002.7 mb 0.00 in0.0 mm 0.00 in0.0 mm 0.00 in0.0 mm
05:22 PM 93.2°F34.0°C 37.0°F2.8°C 14% 2.0 mph N3.2 kmh N 11.0 mph17.7 kmh 29.61 in1002.7 mb 0.00 in0.0 mm 0.00 in0.0 mm 0.00 in0.0 mm
05:21 PM 93.2°F34.0°C 38.7°F3.7°C 15% 10.0 mph NNE16.1 kmh NNE 10.0 mph16.1 kmh 29.61 in1002.7 mb 0.00 in0.0 mm 0.00 in0.0 mm 0.00 in0.0 mm
05:20 PM 93.2°F34.0°C 38.7°F3.7°C 15% 3.0 mph NE4.8 kmh NE 6.0 mph9.7 kmh 29.61 in1002.7 mb 0.00 in0.0 mm 0.00 in0.0 mm 0.00 in0.0 mm
05:19 PM 93.1°F33.9°C 38.7°F3.7°C 15% Calm Calm 7.0 mph11.3 kmh 29.61 in1002.7 mb 0.00 in0.0 mm 0.00 in0.0 mm 0.00 in0.0 mm
05:18 PM 93.1°F33.9°C 38.7°F3.7°C 15% 3.0 mph NNE4.8 kmh NNE 6.0 mph9.7 kmh 29.61 in1002.7 mb 0.00 in0.0 mm 0.00 in0.0 mm 0.00 in0.0 mm
05:17 PM 93.1°F33.9°C 38.7°F3.7°C 15% 3.0 mph NNE4.8 kmh NNE 6.0 mph9.7 kmh 29.61 in1002.7 mb 0.00 in0.0 mm 0.00 in0.0 mm 0.00 in0.0 mm
05:16 PM 93.1°F33.9°C 38.7°F3.7°C 15% 5.0 mph NNE8.0 kmh NNE 9.0 mph14.5 kmh 29.61 in1002.7 mb 0.00 in0.0 mm 0.00 in0.0 mm 0.00 in0.0 mm
05:15 PM 93.1°F33.9°C 36.9°F2.7°C 14% 3.0 mph NE4.8 kmh NE 11.0 mph17.7 kmh 29.61 in1002.7 mb 0.00 in0.0 mm 0.00 in0.0 mm 0.00 in0.0 mm
05:14 PM 93.1°F33.9°C 38.7°F3.7°C 15% 4.0 mph NE6.4 kmh NE 7.0 mph11.3 kmh 29.61 in1002.7 mb 0.00 in0.0 mm 0.00 in0.0 mm 0.00 in0.0 mm
05:13 PM 93.1°F33.9°C 36.9°F2.7°C 14% 1.0 mph NE1.6 kmh NE 12.0 mph19.3 kmh 29.61 in1002.7 mb 0.00 in0.0 mm 0.00 in0.0 mm 0.00 in0.0 mm
05:12 PM 93.1°F33.9°C 38.7°F3.7°C 15% 10.0 mph NE16.1 kmh NE 12.0 mph19.3 kmh 29.61 in1002.7 mb 0.00 in0.0 mm 0.00 in0.0 mm 0.00 in0.0 mm
05:11 PM 93.1°F33.9°C 38.7°F3.7°C 15% 3.0 mph NNE4.8 kmh NNE 9.0 mph14.5 kmh 29.61 in1002.7 mb 0.00 in0.0 mm 0.00 in0.0 mm 0.00 in0.0 mm
05:10 PM 93.1°F33.9°C 36.9°F2.7°C 14% 7.0 mph NNE11.3 kmh NNE 9.0 mph14.5 kmh 29.61 in1002.7 mb 0.00 in0.0 mm 0.00 in0.0 mm 0.00 in0.0 mm
05:09 PM 93.1°F33.9°C 38.7°F3.7°C 15% 6.0 mph NE9.7 kmh NE 7.0 mph11.3 kmh 29.61 in1002.7 mb 0.00 in0.0 mm 0.00 in0.0 mm 0.00 in0.0 mm
05:08 PM 93.1°F33.9°C 38.7°F3.7°C 15% 2.0 mph NNE3.2 kmh NNE 6.0 mph9.7 kmh 29.61 in1002.7 mb 0.00 in0.0 mm 0.00 in0.0 mm 0.00 in0.0 mm
05:07 PM 93.1°F33.9°C 36.9°F2.7°C 14% 2.0 mph NNE3.2 kmh NNE 10.0 mph16.1 kmh 29.61 in1002.7 mb 0.00 in0.0 mm 0.00 in0.0 mm 0.00 in0.0 mm
05:06 PM 93.1°F33.9°C 38.7°F3.7°C 15% 7.0 mph NNE11.3 kmh NNE 11.0 mph17.7 kmh 29.61 in1002.7 mb 0.00 in0.0 mm 0.00 in0.0 mm 0.00 in0.0 mm
05:05 PM 93.1°F33.9°C 38.7°F3.7°C 15% 5.0 mph N8.0 kmh N 9.0 mph14.5 kmh 29.61 in1002.7 mb 0.00 in0.0 mm 0.00 in0.0 mm 0.00 in0.0 mm
05:04 PM 93.2°F34.0°C 37.0°F2.8°C 14% 7.0 mph NE11.3 kmh NE 13.0 mph20.9 kmh 29.61 in1002.7 mb 0.00 in0.0 mm 0.00 in0.0 mm 0.00 in0.0 mm
05:03 PM 93.2°F34.0°C 37.0°F2.8°C 14% 6.0 mph NW9.7 kmh NW 8.0 mph12.9 kmh 29.61 in1002.7 mb 0.00 in0.0 mm 0.00 in0.0 mm 0.00 in0.0 mm
05:02 PM 93.2°F34.0°C 38.7°F3.7°C 15% 4.0 mph NE6.4 kmh NE 7.0 mph11.3 kmh 29.61 in1002.7 mb 0.00 in0.0 mm 0.00 in0.0 mm 0.00 in0.0 mm
05:01 PM 93.2°F34.0°C 38.7°F3.7°C 15% 3.0 mph N4.8 kmh N 7.0 mph11.3 kmh 29.61 in1002.7 mb 0.00 in0.0 mm 0.00 in0.0 mm 0.00 in0.0 mm
04:59 PM 93.1°F33.9°C 36.9°F2.7°C 14% 3.0 mph NE4.8 kmh NE 8.0 mph12.9 kmh 29.61 in1002.7 mb 0.00 in0.0 mm 0.00 in0.0 mm 0.00 in0.0 mm
04:58 PM 93.2°F34.0°C 38.7°F3.7°C 15% 4.0 mph NE6.4 kmh NE 9.0 mph14.5 kmh 29.61 in1002.7 mb 0.00 in0.0 mm 0.00 in0.0 mm 0.00 in0.0 mm
04:57 PM 93.1°F33.9°C 38.7°F3.7°C 15% 5.0 mph NE8.0 kmh NE 9.0 mph14.5 kmh 29.61 in1002.7 mb 0.00 in0.0 mm 0.00 in0.0 mm 0.00 in0.0 mm
04:56 PM 93.1°F33.9°C 36.9°F2.7°C 14% 4.0 mph NE6.4 kmh NE 7.0 mph11.3 kmh 29.61 in1002.7 mb 0.00 in0.0 mm 0.00 in0.0 mm 0.00 in0.0 mm
04:55 PM 93.1°F33.9°C 36.9°F2.7°C 14% 3.0 mph N4.8 kmh N 6.0 mph9.7 kmh 29.61 in1002.7 mb 0.00 in0.0 mm 0.00 in0.0 mm 0.00 in0.0 mm
04:54 PM 93.1°F33.9°C 36.9°F2.7°C 14% 5.0 mph N8.0 kmh N 7.0 mph11.3 kmh 29.61 in1002.7 mb 0.00 in0.0 mm 0.00 in0.0 mm 0.00 in0.0 mm
04:53 PM 93.2°F34.0°C 37.0°F2.8°C 14% 5.0 mph NNE8.0 kmh NNE 9.0 mph14.5 kmh 29.61 in1002.7 mb 0.00 in0.0 mm 0.00 in0.0 mm 0.00 in0.0 mm
04:52 PM 93.2°F34.0°C 37.0°F2.8°C 14% 4.0 mph N6.4 kmh N 9.0 mph14.5 kmh 29.61 in1002.7 mb 0.00 in0.0 mm 0.00 in0.0 mm 0.00 in0.0 mm
04:51 PM 93.2°F34.0°C 38.7°F3.7°C 15% 6.0 mph NE9.7 kmh NE 8.0 mph12.9 kmh 29.61 in1002.7 mb 0.00 in0.0 mm 0.00 in0.0 mm 0.00 in0.0 mm
04:50 PM 93.2°F34.0°C 37.0°F2.8°C 14% 5.0 mph NNW8.0 kmh NNW 8.0 mph12.9 kmh 29.61 in1002.7 mb 0.00 in0.0 mm 0.00 in0.0 mm 0.00 in0.0 mm
04:49 PM 93.1°F33.9°C 38.7°F3.7°C 15% 5.0 mph NE8.0 kmh NE 8.0 mph12.9 kmh 29.62 in1003.0 mb 0.00 in0.0 mm 0.00 in0.0 mm 0.00 in0.0 mm
04:48 PM 93.1°F33.9°C 40.3°F4.6°C 16% 6.0 mph NE9.7 kmh NE 6.0 mph9.7 kmh 29.62 in1003.0 mb 0.00 in0.0 mm 0.00 in0.0 mm 0.00 in0.0 mm
04:47 PM 93.1°F33.9°C 38.7°F3.7°C 15% 3.0 mph NE4.8 kmh NE 8.0 mph12.9 kmh 29.61 in1002.7 mb 0.00 in0.0 mm 0.00 in0.0 mm 0.00 in0.0 mm
04:46 PM 93.1°F33.9°C 38.7°F3.7°C 15% 6.0 mph NNE9.7 kmh NNE 7.0 mph11.3 kmh 29.62 in1003.0 mb 0.00 in0.0 mm 0.00 in0.0 mm 0.00 in0.0 mm
04:45 PM 93.1°F33.9°C 40.3°F4.6°C 16% 7.0 mph NE11.3 kmh NE 10.0 mph16.1 kmh 29.62 in1003.0 mb 0.00 in0.0 mm 0.00 in0.0 mm 0.00 in0.0 mm
04:44 PM 93.1°F33.9°C 40.3°F4.6°C 16% 6.0 mph NE9.7 kmh NE 10.0 mph16.1 kmh 29.62 in1003.0 mb 0.00 in0.0 mm 0.00 in0.0 mm 0.00 in0.0 mm
04:43 PM 93.0°F33.9°C 40.2°F4.6°C 16% 5.0 mph NE8.0 kmh NE 6.0 mph9.7 kmh 29.62 in1003.0 mb 0.00 in0.0 mm 0.00 in0.0 mm 0.00 in0.0 mm
04:42 PM 93.0°F33.9°C 38.6°F3.7°C 15% 4.0 mph NE6.4 kmh NE 7.0 mph11.3 kmh 29.61 in1002.7 mb 0.00 in0.0 mm 0.00 in0.0 mm 0.00 in0.0 mm
04:41 PM 93.0°F33.9°C 36.8°F2.7°C 14% 4.0 mph NE6.4 kmh NE 7.0 mph11.3 kmh 29.62 in1003.0 mb 0.00 in0.0 mm 0.00 in0.0 mm 0.00 in0.0 mm
04:40 PM 92.9°F33.8°C 38.5°F3.6°C 15% 4.0 mph NE6.4 kmh NE 5.0 mph8.0 kmh 29.62 in1003.0 mb 0.00 in0.0 mm 0.00 in0.0 mm 0.00 in0.0 mm
04:39 PM 92.9°F33.8°C 38.5°F3.6°C 15% 2.0 mph NE3.2 kmh NE 5.0 mph8.0 kmh 29.62 in1003.0 mb 0.00 in0.0 mm 0.00 in0.0 mm 0.00 in0.0 mm
04:38 PM 92.9°F33.8°C 38.5°F3.6°C 15% 2.0 mph NE3.2 kmh NE 4.0 mph6.4 kmh 29.62 in1003.0 mb 0.00 in0.0 mm 0.00 in0.0 mm 0.00 in0.0 mm
04:37 PM 92.9°F33.8°C 38.5°F3.6°C 15% 1.0 mph NE1.6 kmh NE 8.0 mph12.9 kmh 29.62 in1003.0 mb 0.00 in0.0 mm 0.00 in0.0 mm 0.00 in0.0 mm
04:36 PM 93.0°F33.9°C 36.8°F2.7°C 14% 7.0 mph NE11.3 kmh NE 9.0 mph14.5 kmh 29.62 in1003.0 mb 0.00 in0.0 mm 0.00 in0.0 mm 0.00 in0.0 mm
04:35 PM 93.0°F33.9°C 38.6°F3.7°C 15% 5.0 mph NE8.0 kmh NE 11.0 mph17.7 kmh 29.62 in1003.0 mb 0.00 in0.0 mm 0.00 in0.0 mm 0.00 in0.0 mm
04:34 PM 93.1°F33.9°C 38.7°F3.7°C 15% 6.0 mph NNE9.7 kmh NNE 11.0 mph17.7 kmh 29.62 in1003.0 mb 0.00 in0.0 mm 0.00 in0.0 mm 0.00 in0.0 mm
04:33 PM 93.1°F33.9°C 38.7°F3.7°C 15% 7.0 mph NNE11.3 kmh NNE 8.0 mph12.9 kmh 29.62 in1003.0 mb 0.00 in0.0 mm 0.00 in0.0 mm 0.00 in0.0 mm
04:32 PM 93.1°F33.9°C 38.7°F3.7°C 15% 7.0 mph NE11.3 kmh NE 8.0 mph12.9 kmh 29.62 in1003.0 mb 0.00 in0.0 mm 0.00 in0.0 mm 0.00 in0.0 mm
04:31 PM 93.2°F34.0°C 40.4°F4.7°C 16% 6.0 mph NNE9.7 kmh NNE 7.0 mph11.3 kmh 29.62 in1003.0 mb 0.00 in0.0 mm 0.00 in0.0 mm 0.00 in0.0 mm
04:30 PM 93.2°F34.0°C 38.7°F3.7°C 15% 2.0 mph N3.2 kmh N 10.0 mph16.1 kmh 29.62 in1003.0 mb 0.00 in0.0 mm 0.00 in0.0 mm 0.00 in0.0 mm
04:29 PM 93.3°F34.1°C 38.8°F3.8°C 15% 7.0 mph NNE11.3 kmh NNE 10.0 mph16.1 kmh 29.62 in1003.0 mb 0.00 in0.0 mm 0.00 in0.0 mm 0.00 in0.0 mm
04:28 PM 93.3°F34.1°C 40.5°F4.7°C 16% 6.0 mph NNE9.7 kmh NNE 7.0 mph11.3 kmh 29.62 in1003.0 mb 0.00 in0.0 mm 0.00 in0.0 mm 0.00 in0.0 mm
04:27 PM 93.2°F34.0°C 38.7°F3.7°C 15% 7.0 mph NNE11.3 kmh NNE 7.0 mph11.3 kmh 29.62 in1003.0 mb 0.00 in0.0 mm 0.00 in0.0 mm 0.00 in0.0 mm
04:26 PM 93.2°F34.0°C 40.4°F4.7°C 16% 2.0 mph NNE3.2 kmh NNE 8.0 mph12.9 kmh 29.62 in1003.0 mb 0.00 in0.0 mm 0.00 in0.0 mm 0.00 in0.0 mm
04:25 PM 93.2°F34.0°C 40.4°F4.7°C 16% 2.0 mph NE3.2 kmh NE 7.0 mph11.3 kmh 29.62 in1003.0 mb 0.00 in0.0 mm 0.00 in0.0 mm 0.00 in0.0 mm
04:24 PM 93.1°F33.9°C 40.3°F4.6°C 16% 5.0 mph NE8.0 kmh NE 7.0 mph11.3 kmh 29.62 in1003.0 mb 0.00 in0.0 mm 0.00 in0.0 mm 0.00 in0.0 mm
04:23 PM 93.1°F33.9°C 40.3°F4.6°C 16% 5.0 mph NE8.0 kmh NE 7.0 mph11.3 kmh 29.62 in1003.0 mb 0.00 in0.0 mm 0.00 in0.0 mm 0.00 in0.0 mm
04:22 PM 93.1°F33.9°C 38.7°F3.7°C 15% 4.0 mph NE6.4 kmh NE 8.0 mph12.9 kmh 29.62 in1003.0 mb 0.00 in0.0 mm 0.00 in0.0 mm 0.00 in0.0 mm
04:21 PM 93.0°F33.9°C 40.2°F4.6°C 16% 4.0 mph NE6.4 kmh NE 8.0 mph12.9 kmh 29.62 in1003.0 mb 0.00 in0.0 mm 0.00 in0.0 mm 0.00 in0.0 mm
04:20 PM 93.0°F33.9°C 41.8°F5.4°C 17% 5.0 mph NE8.0 kmh NE 6.0 mph9.7 kmh 29.62 in1003.0 mb 0.00 in0.0 mm 0.00 in0.0 mm 0.00 in0.0 mm
04:19 PM 93.0°F33.9°C 40.2°F4.6°C 16% 2.0 mph NNE3.2 kmh NNE 8.0 mph12.9 kmh 29.62 in1003.0 mb 0.00 in0.0 mm 0.00 in0.0 mm 0.00 in0.0 mm
04:18 PM 93.0°F33.9°C 40.2°F4.6°C 16% 1.0 mph NNW1.6 kmh NNW 9.0 mph14.5 kmh 29.62 in1003.0 mb 0.00 in0.0 mm 0.00 in0.0 mm 0.00 in0.0 mm
04:17 PM 93.0°F33.9°C 40.2°F4.6°C 16% 5.0 mph N8.0 kmh N 9.0 mph14.5 kmh 29.62 in1003.0 mb 0.00 in0.0 mm 0.00 in0.0 mm 0.00 in0.0 mm
04:16 PM 93.0°F33.9°C 40.2°F4.6°C 16% 3.0 mph NNE4.8 kmh NNE 9.0 mph14.5 kmh 29.62 in1003.0 mb 0.00 in0.0 mm 0.00 in0.0 mm 0.00 in0.0 mm
04:15 PM 92.9°F33.8°C 40.2°F4.6°C 16% 3.0 mph NNE4.8 kmh NNE 5.0 mph8.0 kmh 29.62 in1003.0 mb 0.00 in0.0 mm 0.00 in0.0 mm 0.00 in0.0 mm
04:14 PM 92.9°F33.8°C 41.7°F5.4°C 17% 2.0 mph NNE3.2 kmh NNE 9.0 mph14.5 kmh 29.62 in1003.0 mb 0.00 in0.0 mm 0.00 in0.0 mm 0.00 in0.0 mm
04:13 PM 92.9°F33.8°C 41.7°F5.4°C 17% 8.0 mph NE12.9 kmh NE 8.0 mph12.9 kmh 29.62 in1003.0 mb 0.00 in0.0 mm 0.00 in0.0 mm 0.00 in0.0 mm
04:12 PM 92.8°F33.8°C 40.1°F4.5°C 16% 7.0 mph NNE11.3 kmh NNE 7.0 mph11.3 kmh 29.62 in1003.0 mb 0.00 in0.0 mm 0.00 in0.0 mm 0.00 in0.0 mm
04:11 PM 92.8°F33.8°C 40.1°F4.5°C 16% 2.0 mph NE3.2 kmh NE 4.0 mph6.4 kmh 29.62 in1003.0 mb 0.00 in0.0 mm 0.00 in0.0 mm 0.00 in0.0 mm
04:10 PM 92.7°F33.7°C 41.6°F5.3°C 17% 3.0 mph NE4.8 kmh NE 6.0 mph9.7 kmh 29.63 in1003.4 mb 0.00 in0.0 mm 0.00 in0.0 mm 0.00 in0.0 mm
04:09 PM 92.8°F33.8°C 41.6°F5.3°C 17% 2.0 mph NE3.2 kmh NE 8.0 mph12.9 kmh 29.63 in1003.4 mb 0.00 in0.0 mm 0.00 in0.0 mm 0.00 in0.0 mm
04:08 PM 92.8°F33.8°C 40.1°F4.5°C 16% 6.0 mph NNE9.7 kmh NNE 8.0 mph12.9 kmh 29.63 in1003.4 mb 0.00 in0.0 mm 0.00 in0.0 mm 0.00 in0.0 mm
04:07 PM 92.8°F33.8°C 40.1°F4.5°C 16% 4.0 mph NNE6.4 kmh NNE 11.0 mph17.7 kmh 29.62 in1003.0 mb 0.00 in0.0 mm 0.00 in0.0 mm 0.00 in0.0 mm
04:06 PM 92.8°F33.8°C 41.6°F5.3°C 17% 4.0 mph NE6.4 kmh NE 11.0 mph17.7 kmh 29.62 in1003.0 mb 0.00 in0.0 mm 0.00 in0.0 mm 0.00 in0.0 mm
04:05 PM 92.8°F33.8°C 40.1°F4.5°C 16% 1.0 mph NE1.6 kmh NE 6.0 mph9.7 kmh 29.63 in1003.4 mb 0.00 in0.0 mm 0.00 in0.0 mm 0.00 in0.0 mm
04:04 PM 92.8°F33.8°C 40.1°F4.5°C 16% 4.0 mph NE6.4 kmh NE 7.0 mph11.3 kmh 29.63 in1003.4 mb 0.00 in0.0 mm 0.00 in0.0 mm 0.00 in0.0 mm
04:03 PM 92.8°F33.8°C 41.6°F5.3°C 17% 5.0 mph NE8.0 kmh NE 12.0 mph19.3 kmh 29.63 in1003.4 mb 0.00 in0.0 mm 0.00 in0.0 mm 0.00 in0.0 mm
04:02 PM 92.8°F33.8°C 41.6°F5.3°C 17% 2.0 mph NNE3.2 kmh NNE 12.0 mph19.3 kmh 29.63 in1003.4 mb 0.00 in0.0 mm 0.00 in0.0 mm 0.00 in0.0 mm
04:01 PM 92.8°F33.8°C 43.1°F6.2°C 18% 5.0 mph NE8.0 kmh NE 8.0 mph12.9 kmh 29.63 in1003.4 mb 0.00 in0.0 mm 0.00 in0.0 mm 0.00 in0.0 mm
04:00 PM 92.8°F33.8°C 43.1°F6.2°C 18% 5.0 mph NNE8.0 kmh NNE 8.0 mph12.9 kmh 29.62 in1003.0 mb 0.00 in0.0 mm 0.00 in0.0 mm 0.00 in0.0 mm
03:59 PM 92.8°F33.8°C 41.6°F5.3°C 17% 5.0 mph NE8.0 kmh NE 7.0 mph11.3 kmh 29.62 in1003.0 mb 0.00 in0.0 mm 0.00 in0.0 mm 0.00 in0.0 mm
03:58 PM 92.8°F33.8°C 41.6°F5.3°C 17% 2.0 mph NE3.2 kmh NE 8.0 mph12.9 kmh 29.62 in1003.0 mb 0.00 in0.0 mm 0.00 in0.0 mm 0.00 in0.0 mm
03:57 PM 92.8°F33.8°C 41.6°F5.3°C 17% 5.0 mph NE8.0 kmh NE 8.0 mph12.9 kmh 29.63 in1003.4 mb 0.00 in0.0 mm 0.00 in0.0 mm 0.00 in0.0 mm
03:56 PM 92.8°F33.8°C 43.1°F6.2°C 18% 2.0 mph NE3.2 kmh NE 7.0 mph11.3 kmh 29.62 in1003.0 mb 0.00 in0.0 mm 0.00 in0.0 mm 0.00 in0.0 mm
03:55 PM 92.8°F33.8°C 43.1°F6.2°C 18% 4.0 mph NE6.4 kmh NE 7.0 mph11.3 kmh 29.62 in1003.0 mb 0.00 in0.0 mm 0.00 in0.0 mm 0.00 in0.0 mm
03:54 PM 92.8°F33.8°C 43.1°F6.2°C 18% 3.0 mph NE4.8 kmh NE 10.0 mph16.1 kmh 29.62 in1003.0 mb 0.00 in0.0 mm 0.00 in0.0 mm 0.00 in0.0 mm
03:53 PM 92.7°F33.7°C 40.0°F4.4°C 16% 6.0 mph NE9.7 kmh NE 10.0 mph16.1 kmh 29.63 in1003.4 mb 0.00 in0.0 mm 0.00 in0.0 mm 0.00 in0.0 mm
03:52 PM 92.7°F33.7°C 40.0°F4.4°C 16% 1.0 mph NE1.6 kmh NE 6.0 mph9.7 kmh 29.62 in1003.0 mb 0.00 in0.0 mm 0.00 in0.0 mm 0.00 in0.0 mm
03:51 PM 92.7°F33.7°C 40.0°F4.4°C 16% 4.0 mph NE6.4 kmh NE 6.0 mph9.7 kmh 29.62 in1003.0 mb 0.00 in0.0 mm 0.00 in0.0 mm 0.00 in0.0 mm
03:50 PM 92.7°F33.7°C 38.3°F3.5°C 15% 2.0 mph N3.2 kmh N 8.0 mph12.9 kmh 29.63 in1003.4 mb 0.00 in0.0 mm 0.00 in0.0 mm 0.00 in0.0 mm
03:49 PM 92.7°F33.7°C 38.3°F3.5°C 15% 5.0 mph N8.0 kmh N 6.0 mph9.7 kmh 29.63 in1003.4 mb 0.00 in0.0 mm 0.00 in0.0 mm 0.00 in0.0 mm
03:48 PM 92.7°F33.7°C 40.0°F4.4°C 16% 3.0 mph NNE4.8 kmh NNE 8.0 mph12.9 kmh 29.63 in1003.4 mb 0.00 in0.0 mm 0.00 in0.0 mm 0.00 in0.0 mm
03:47 PM 92.7°F33.7°C 38.3°F3.5°C 15% 8.0 mph NNE12.9 kmh NNE 8.0 mph12.9 kmh 29.62 in1003.0 mb 0.00 in0.0 mm 0.00 in0.0 mm 0.00 in0.0 mm
03:46 PM 92.7°F33.7°C 38.3°F3.5°C 15% 4.0 mph NE6.4 kmh NE 7.0 mph11.3 kmh 29.63 in1003.4 mb 0.00 in0.0 mm 0.00 in0.0 mm 0.00 in0.0 mm
03:45 PM 92.6°F33.7°C 39.9°F4.4°C 16% 3.0 mph NNE4.8 kmh NNE 7.0 mph11.3 kmh 29.63 in1003.4 mb 0.00 in0.0 mm 0.00 in0.0 mm 0.00 in0.0 mm
03:44 PM 92.6°F33.7°C 39.9°F4.4°C 16% 6.0 mph NE9.7 kmh NE 6.0 mph9.7 kmh 29.63 in1003.4 mb 0.00 in0.0 mm 0.00 in0.0 mm 0.00 in0.0 mm
03:43 PM 92.6°F33.7°C 38.3°F3.5°C 15% 2.0 mph NE3.2 kmh NE 4.0 mph6.4 kmh 29.63 in1003.4 mb 0.00 in0.0 mm 0.00 in0.0 mm 0.00 in0.0 mm
03:42 PM 92.6°F33.7°C 39.9°F4.4°C 16% 2.0 mph NE3.2 kmh NE 4.0 mph6.4 kmh 29.63 in1003.4 mb 0.00 in0.0 mm 0.00 in0.0 mm 0.00 in0.0 mm
03:41 PM 92.6°F33.7°C 38.3°F3.5°C 15% 3.0 mph NE4.8 kmh NE 8.0 mph12.9 kmh 29.63 in1003.4 mb 0.00 in0.0 mm 0.00 in0.0 mm 0.00 in0.0 mm
03:40 PM 92.6°F33.7°C 38.3°F3.5°C 15% 4.0 mph NE6.4 kmh NE 9.0 mph14.5 kmh 29.63 in1003.4 mb 0.00 in0.0 mm 0.00 in0.0 mm 0.00 in0.0 mm
03:39 PM 92.7°F33.7°C 38.3°F3.5°C 15% 6.0 mph NE9.7 kmh NE 7.0 mph11.3 kmh 29.63 in1003.4 mb 0.00 in0.0 mm 0.00 in0.0 mm 0.00 in0.0 mm
03:38 PM 92.7°F33.7°C 38.3°F3.5°C 15% 3.0 mph NE4.8 kmh NE 7.0 mph11.3 kmh 29.63 in1003.4 mb 0.00 in0.0 mm 0.00 in0.0 mm 0.00 in0.0 mm
03:37 PM 92.8°F33.8°C 40.1°F4.5°C 16% 3.0 mph NE4.8 kmh NE 10.0 mph16.1 kmh 29.63 in1003.4 mb 0.00 in0.0 mm 0.00 in0.0 mm 0.00 in0.0 mm
03:36 PM 92.8°F33.8°C 38.4°F3.6°C 15% 7.0 mph NE11.3 kmh NE 10.0 mph16.1 kmh 29.63 in1003.4 mb 0.00 in0.0 mm 0.00 in0.0 mm 0.00 in0.0 mm
03:35 PM 92.8°F33.8°C 38.4°F3.6°C 15% Calm Calm 9.0 mph14.5 kmh 29.64 in1003.7 mb 0.00 in0.0 mm 0.00 in0.0 mm 0.00 in0.0 mm
03:34 PM 92.8°F33.8°C 40.1°F4.5°C 16% 5.0 mph NNE8.0 kmh NNE 9.0 mph14.5 kmh 29.64 in1003.7 mb 0.00 in0.0 mm 0.00 in0.0 mm 0.00 in0.0 mm
03:33 PM 92.7°F33.7°C 38.3°F3.5°C 15% 2.0 mph NE3.2 kmh NE 6.0 mph9.7 kmh 29.63 in1003.4 mb 0.00 in0.0 mm 0.00 in0.0 mm 0.00 in0.0 mm
03:32 PM 92.7°F33.7°C 38.3°F3.5°C 15% 4.0 mph NE6.4 kmh NE 5.0 mph8.0 kmh 29.64 in1003.7 mb 0.00 in0.0 mm 0.00 in0.0 mm 0.00 in0.0 mm
03:31 PM 92.7°F33.7°C 38.3°F3.5°C 15% 1.0 mph NE1.6 kmh NE 6.0 mph9.7 kmh 29.64 in1003.7 mb 0.00 in0.0 mm 0.00 in0.0 mm 0.00 in0.0 mm
03:30 PM 92.7°F33.7°C 38.3°F3.5°C 15% 5.0 mph NE8.0 kmh NE 9.0 mph14.5 kmh 29.64 in1003.7 mb 0.00 in0.0 mm 0.00 in0.0 mm 0.00 in0.0 mm
03:29 PM 92.7°F33.7°C 38.3°F3.5°C 15% 7.0 mph NE11.3 kmh NE 9.0 mph14.5 kmh 29.64 in1003.7 mb 0.00 in0.0 mm 0.00 in0.0 mm 0.00 in0.0 mm
03:28 PM 92.6°F33.7°C 38.3°F3.5°C 15% 5.0 mph NNE8.0 kmh NNE 6.0 mph9.7 kmh 29.64 in1003.7 mb 0.00 in0.0 mm 0.00 in0.0 mm 0.00 in0.0 mm
03:27 PM 92.6°F33.7°C 38.3°F3.5°C 15% 1.0 mph NNE1.6 kmh NNE 5.0 mph8.0 kmh 29.64 in1003.7 mb 0.00 in0.0 mm 0.00 in0.0 mm 0.00 in0.0 mm
03:26 PM 92.6°F33.7°C 38.3°F3.5°C 15% 3.0 mph NNE4.8 kmh NNE 4.0 mph6.4 kmh 29.64 in1003.7 mb 0.00 in0.0 mm 0.00 in0.0 mm 0.00 in0.0 mm
03:25 PM 92.5°F33.6°C 39.8°F4.3°C 16% 3.0 mph NNE4.8 kmh NNE 5.0 mph8.0 kmh 29.64 in1003.7 mb 0.00 in0.0 mm 0.00 in0.0 mm 0.00 in0.0 mm
03:24 PM 92.4°F33.6°C 39.8°F4.3°C 16% 1.0 mph NNE1.6 kmh NNE 3.0 mph4.8 kmh 29.64 in1003.7 mb 0.00 in0.0 mm 0.00 in0.0 mm 0.00 in0.0 mm
03:23 PM 92.4°F33.6°C 39.8°F4.3°C 16% 3.0 mph NNE4.8 kmh NNE 3.0 mph4.8 kmh 29.64 in1003.7 mb 0.00 in0.0 mm 0.00 in0.0 mm 0.00 in0.0 mm
03:22 PM 92.4°F33.6°C 38.1°F3.4°C 15% 2.0 mph NNE3.2 kmh NNE 5.0 mph8.0 kmh 29.64 in1003.7 mb 0.00 in0.0 mm 0.00 in0.0 mm 0.00 in0.0 mm
03:21 PM 92.4°F33.6°C 39.8°F4.3°C 16% 4.0 mph NE6.4 kmh NE 7.0 mph11.3 kmh 29.64 in1003.7 mb 0.00 in0.0 mm 0.00 in0.0 mm 0.00 in0.0 mm
03:20 PM 92.3°F33.5°C 39.7°F4.3°C 16% 3.0 mph NE4.8 kmh NE 7.0 mph11.3 kmh 29.64 in1003.7 mb 0.00 in0.0 mm 0.00 in0.0 mm 0.00 in0.0 mm
03:19 PM 92.2°F33.4°C 37.9°F3.3°C 15% 1.0 mph N1.6 kmh N 6.0 mph9.7 kmh 29.64 in1003.7 mb 0.00 in0.0 mm 0.00 in0.0 mm 0.00 in0.0 mm
03:18 PM 92.1°F33.4°C 41.1°F5.1°C 17% 4.0 mph NE6.4 kmh NE 4.0 mph6.4 kmh 29.64 in1003.7 mb 0.00 in0.0 mm 0.00 in0.0 mm 0.00 in0.0 mm
03:17 PM 92.0°F33.3°C 39.4°F4.1°C 16% 3.0 mph NE4.8 kmh NE 4.0 mph6.4 kmh 29.64 in1003.7 mb 0.00 in0.0 mm 0.00 in0.0 mm 0.00 in0.0 mm
03:16 PM 91.9°F33.3°C 39.4°F4.1°C 16% Calm Calm 7.0 mph11.3 kmh 29.64 in1003.7 mb 0.00 in0.0 mm 0.00 in0.0 mm 0.00 in0.0 mm
03:15 PM 91.8°F33.2°C 40.8°F4.9°C 17% 7.0 mph NE11.3 kmh NE 7.0 mph11.3 kmh 29.64 in1003.7 mb 0.00 in0.0 mm 0.00 in0.0 mm 0.00 in0.0 mm
03:14 PM 91.7°F33.2°C 42.2°F5.7°C 18% Calm Calm 6.0 mph9.7 kmh 29.64 in1003.7 mb 0.00 in0.0 mm 0.00 in0.0 mm 0.00 in0.0 mm
03:13 PM 91.6°F33.1°C 39.1°F3.9°C 16% 3.0 mph NE4.8 kmh NE 6.0 mph9.7 kmh 29.64 in1003.7 mb 0.00 in0.0 mm 0.00 in0.0 mm 0.00 in0.0 mm
03:12 PM 91.5°F33.1°C 39.0°F3.9°C 16% Calm Calm 4.0 mph6.4 kmh 29.64 in1003.7 mb 0.00 in0.0 mm 0.00 in0.0 mm 0.00 in0.0 mm
03:11 PM 91.4°F33.0°C 39.0°F3.9°C 16% 3.0 mph NE4.8 kmh NE 3.0 mph4.8 kmh 29.64 in1003.7 mb 0.00 in0.0 mm 0.00 in0.0 mm 0.00 in0.0 mm
03:10 PM 91.3°F32.9°C 38.9°F3.8°C 16% Calm Calm 5.0 mph8.0 kmh 29.64 in1003.7 mb 0.00 in0.0 mm 0.00 in0.0 mm 0.00 in0.0 mm
03:09 PM 91.3°F32.9°C 37.2°F2.9°C 15% 1.0 mph NE1.6 kmh NE 7.0 mph11.3 kmh 29.65 in1004.1 mb 0.00 in0.0 mm 0.00 in0.0 mm 0.00 in0.0 mm
03:08 PM 91.2°F32.9°C 38.8°F3.8°C 16% 3.0 mph NE4.8 kmh NE 7.0 mph11.3 kmh 29.64 in1003.7 mb 0.00 in0.0 mm 0.00 in0.0 mm 0.00 in0.0 mm
03:07 PM 91.1°F32.8°C 41.7°F5.4°C 18% 2.0 mph NE3.2 kmh NE 5.0 mph8.0 kmh 29.64 in1003.7 mb 0.00 in0.0 mm 0.00 in0.0 mm 0.00 in0.0 mm
03:06 PM 91.1°F32.8°C 45.8°F7.7°C 21% 2.0 mph NE3.2 kmh NE 5.0 mph8.0 kmh 29.65 in1004.1 mb 0.00 in0.0 mm 0.00 in0.0 mm 0.00 in0.0 mm
03:05 PM 91.0°F32.8°C 45.7°F7.6°C 21% 2.0 mph NE3.2 kmh NE 4.0 mph6.4 kmh 29.65 in1004.1 mb 0.00 in0.0 mm 0.00 in0.0 mm 0.00 in0.0 mm
03:04 PM 91.0°F32.8°C 46.9°F8.3°C 22% 1.0 mph NE1.6 kmh NE 5.0 mph8.0 kmh 29.65 in1004.1 mb 0.00 in0.0 mm 0.00 in0.0 mm 0.00 in0.0 mm
03:03 PM 90.9°F32.7°C 46.8°F8.2°C 22% 1.0 mph NE1.6 kmh NE 4.0 mph6.4 kmh 29.65 in1004.1 mb 0.00 in0.0 mm 0.00 in0.0 mm 0.00 in0.0 mm
03:01 PM 90.6°F32.6°C 47.8°F8.8°C 23% 3.0 mph NE4.8 kmh NE 5.0 mph8.0 kmh 29.65 in1004.1 mb 0.00 in0.0 mm 0.00 in0.0 mm 0.00 in0.0 mm
03:00 PM 90.5°F32.5°C 46.5°F8.1°C 22% Calm Calm 2.0 mph3.2 kmh 29.65 in1004.1 mb 0.00 in0.0 mm 0.00 in0.0 mm 0.00 in0.0 mm
02:59 PM 90.4°F32.4°C 45.2°F7.3°C 21% Calm Calm 1.0 mph1.6 kmh 29.65 in1004.1 mb 0.00 in0.0 mm 0.00 in0.0 mm 0.00 in0.0 mm
02:58 PM 90.2°F32.3°C 43.8°F6.6°C 20% Calm Calm 3.0 mph4.8 kmh 29.65 in1004.1 mb 0.00 in0.0 mm 0.00 in0.0 mm 0.00 in0.0 mm
02:57 PM 90.1°F32.3°C 39.5°F4.2°C 17% 3.0 mph NE4.8 kmh NE 6.0 mph9.7 kmh 29.65 in1004.1 mb 0.00 in0.0 mm 0.00 in0.0 mm 0.00 in0.0 mm
02:56 PM 89.9°F32.2°C 39.3°F4.1°C 17% 3.0 mph NE4.8 kmh NE 6.0 mph9.7 kmh 29.66 in1004.4 mb 0.00 in0.0 mm 0.00 in0.0 mm 0.00 in0.0 mm
02:55 PM 89.8°F32.1°C 44.7°F7.1°C 21% 3.0 mph NE4.8 kmh NE 4.0 mph6.4 kmh 29.65 in1004.1 mb 0.00 in0.0 mm 0.00 in0.0 mm 0.00 in0.0 mm
02:54 PM 89.7°F32.1°C 44.6°F7.0°C 21% 1.0 mph NE1.6 kmh NE 1.0 mph1.6 kmh 29.66 in1004.4 mb 0.00 in0.0 mm 0.00 in0.0 mm 0.00 in0.0 mm
02:53 PM 89.6°F32.0°C 44.5°F6.9°C 21% Calm Calm 1.0 mph1.6 kmh 29.66 in1004.4 mb 0.00 in0.0 mm 0.00 in0.0 mm 0.00 in0.0 mm
02:52 PM 89.5°F31.9°C 44.5°F6.9°C 21% Calm Calm 2.0 mph3.2 kmh 29.66 in1004.4 mb 0.00 in0.0 mm 0.00 in0.0 mm 0.00 in0.0 mm
02:51 PM 89.4°F31.9°C 44.4°F6.9°C 21% Calm Calm 2.0 mph3.2 kmh 29.66 in1004.4 mb 0.00 in0.0 mm 0.00 in0.0 mm 0.00 in0.0 mm
02:50 PM 89.3°F31.8°C 45.5°F7.5°C 22% 1.0 mph NE1.6 kmh NE 1.0 mph1.6 kmh 29.66 in1004.4 mb 0.00 in0.0 mm 0.00 in0.0 mm 0.00 in0.0 mm
02:49 PM 89.2°F31.8°C 45.4°F7.4°C 22% Calm Calm -- 29.66 in1004.4 mb 0.00 in0.0 mm 0.00 in0.0 mm 0.00 in0.0 mm
02:48 PM 89.1°F31.7°C 45.3°F7.4°C 22% Calm Calm 1.0 mph1.6 kmh 29.66 in1004.4 mb 0.00 in0.0 mm 0.00 in0.0 mm 0.00 in0.0 mm
02:47 PM 89.0°F31.7°C 46.4°F8.0°C 23% Calm Calm 1.0 mph1.6 kmh 29.66 in1004.4 mb 0.00 in0.0 mm 0.00 in0.0 mm 0.00 in0.0 mm
02:46 PM 88.9°F31.6°C 47.5°F8.6°C 24% Calm Calm -- 29.66 in1004.4 mb 0.00 in0.0 mm 0.00 in0.0 mm 0.00 in0.0 mm
02:45 PM 88.9°F31.6°C 46.4°F8.0°C 23% Calm Calm -- 29.66 in1004.4 mb 0.00 in0.0 mm 0.00 in0.0 mm 0.00 in0.0 mm
02:44 PM 88.8°F31.6°C 46.3°F7.9°C 23% Calm Calm 2.0 mph3.2 kmh 29.66 in1004.4 mb 0.00 in0.0 mm 0.00 in0.0 mm 0.00 in0.0 mm
02:43 PM 88.7°F31.5°C 47.3°F8.5°C 24% 1.0 mph NE1.6 kmh NE 2.0 mph3.2 kmh 29.66 in1004.4 mb 0.00 in0.0 mm 0.00 in0.0 mm 0.00 in0.0 mm
02:42 PM 88.5°F31.4°C 46.0°F7.8°C 23% Calm Calm 1.0 mph1.6 kmh 29.66 in1004.4 mb 0.00 in0.0 mm 0.00 in0.0 mm 0.00 in0.0 mm
02:41 PM 88.4°F31.3°C 47.1°F8.4°C 24% 1.0 mph NE1.6 kmh NE 1.0 mph1.6 kmh 29.66 in1004.4 mb 0.00 in0.0 mm 0.00 in0.0 mm 0.00 in0.0 mm
02:40 PM 88.2°F31.2°C 45.8°F7.7°C 23% Calm Calm 1.0 mph1.6 kmh 29.66 in1004.4 mb 0.00 in0.0 mm 0.00 in0.0 mm 0.00 in0.0 mm
02:39 PM 88.0°F31.1°C 44.4°F6.9°C 22% Calm Calm 2.0 mph3.2 kmh 29.66 in1004.4 mb 0.00 in0.0 mm 0.00 in0.0 mm 0.00 in0.0 mm
02:38 PM 87.9°F31.1°C 44.4°F6.9°C 22% 2.0 mph NE3.2 kmh NE 6.0 mph9.7 kmh 29.66 in1004.4 mb 0.00 in0.0 mm 0.00 in0.0 mm 0.00 in0.0 mm
02:37 PM 87.7°F30.9°C 44.2°F6.8°C 22% 3.0 mph NE4.8 kmh NE 6.0 mph9.7 kmh 29.66 in1004.4 mb 0.00 in0.0 mm 0.00 in0.0 mm 0.00 in0.0 mm
02:36 PM 87.6°F30.9°C 45.3°F7.4°C 23% Calm Calm 2.0 mph3.2 kmh 29.66 in1004.4 mb 0.00 in0.0 mm 0.00 in0.0 mm 0.00 in0.0 mm
02:35 PM 87.5°F30.8°C 46.3°F7.9°C 24% Calm Calm 1.0 mph1.6 kmh 29.66 in1004.4 mb 0.00 in0.0 mm 0.00 in0.0 mm 0.00 in0.0 mm
02:34 PM 87.4°F30.8°C 43.9°F6.6°C 22% Calm Calm 3.0 mph4.8 kmh 29.66 in1004.4 mb 0.00 in0.0 mm 0.00 in0.0 mm 0.00 in0.0 mm
02:33 PM 87.3°F30.7°C 46.1°F7.8°C 24% Calm Calm 4.0 mph6.4 kmh 29.66 in1004.4 mb 0.00 in0.0 mm 0.00 in0.0 mm 0.00 in0.0 mm
02:32 PM 87.2°F30.7°C 44.9°F7.2°C 23% 3.0 mph S4.8 kmh S 6.0 mph9.7 kmh 29.66 in1004.4 mb 0.00 in0.0 mm 0.00 in0.0 mm 0.00 in0.0 mm
02:31 PM 87.2°F30.7°C 44.9°F7.2°C 23% 1.0 mph S1.6 kmh S 8.0 mph12.9 kmh 29.66 in1004.4 mb 0.00 in0.0 mm 0.00 in0.0 mm 0.00 in0.0 mm
02:30 PM 87.2°F30.7°C 44.9°F7.2°C 23% 6.0 mph SSW9.7 kmh SSW 7.0 mph11.3 kmh 29.66 in1004.4 mb 0.00 in0.0 mm 0.00 in0.0 mm 0.00 in0.0 mm
02:29 PM 87.1°F30.6°C 46.0°F7.8°C 24% 2.0 mph SSW3.2 kmh SSW 6.0 mph9.7 kmh 29.67 in1004.7 mb 0.00 in0.0 mm 0.00 in0.0 mm 0.00 in0.0 mm
02:28 PM 87.0°F30.6°C 47.0°F8.3°C 25% Calm Calm 6.0 mph9.7 kmh 29.67 in1004.7 mb 0.00 in0.0 mm 0.00 in0.0 mm 0.00 in0.0 mm
02:27 PM 87.0°F30.6°C 45.9°F7.7°C 24% Calm Calm 1.0 mph1.6 kmh 29.67 in1004.7 mb 0.00 in0.0 mm 0.00 in0.0 mm 0.00 in0.0 mm
02:26 PM 86.9°F30.5°C 45.8°F7.7°C 24% 1.0 mph SW1.6 kmh SW 4.0 mph6.4 kmh 29.67 in1004.7 mb 0.00 in0.0 mm 0.00 in0.0 mm 0.00 in0.0 mm
02:25 PM 86.9°F30.5°C 45.8°F7.7°C 24% 1.0 mph SW1.6 kmh SW 4.0 mph6.4 kmh 29.67 in1004.7 mb 0.00 in0.0 mm 0.00 in0.0 mm 0.00 in0.0 mm
02:24 PM 86.9°F30.5°C 45.8°F7.7°C 24% 1.0 mph SW1.6 kmh SW 3.0 mph4.8 kmh 29.67 in1004.7 mb 0.00 in0.0 mm 0.00 in0.0 mm 0.00 in0.0 mm
02:23 PM 86.9°F30.5°C 45.8°F7.7°C 24% 2.0 mph SW3.2 kmh SW 3.0 mph4.8 kmh 29.67 in1004.7 mb 0.00 in0.0 mm 0.00 in0.0 mm 0.00 in0.0 mm
02:22 PM 86.8°F30.4°C 45.7°F7.6°C 24% Calm Calm 4.0 mph6.4 kmh 29.67 in1004.7 mb 0.00 in0.0 mm 0.00 in0.0 mm 0.00 in0.0 mm
02:21 PM 86.8°F30.4°C 45.7°F7.6°C 24% 1.0 mph SW1.6 kmh SW 3.0 mph4.8 kmh 29.67 in1004.7 mb 0.00 in0.0 mm 0.00 in0.0 mm 0.00 in0.0 mm
02:20 PM 86.8°F30.4°C 46.8°F8.2°C 25% 2.0 mph SW3.2 kmh SW 3.0 mph4.8 kmh 29.67 in1004.7 mb 0.00 in0.0 mm 0.00 in0.0 mm 0.00 in0.0 mm
02:19 PM 86.7°F30.4°C 46.7°F8.2°C 25% 1.0 mph SW1.6 kmh SW 4.0 mph6.4 kmh 29.67 in1004.7 mb 0.00 in0.0 mm 0.00 in0.0 mm 0.00 in0.0 mm
02:18 PM 86.7°F30.4°C 45.6°F7.6°C 24% 2.0 mph SW3.2 kmh SW 4.0 mph6.4 kmh 29.67 in1004.7 mb 0.00 in0.0 mm 0.00 in0.0 mm 0.00 in0.0 mm
02:17 PM 86.6°F30.3°C 45.6°F7.6°C 24% 1.0 mph SW1.6 kmh SW 5.0 mph8.0 kmh 29.68 in1005.1 mb 0.00 in0.0 mm 0.00 in0.0 mm 0.00 in0.0 mm
02:16 PM 86.6°F30.3°C 44.4°F6.9°C 23% 1.0 mph SW1.6 kmh SW 5.0 mph8.0 kmh 29.68 in1005.1 mb 0.00 in0.0 mm 0.00 in0.0 mm 0.00 in0.0 mm
02:15 PM 86.5°F30.3°C 46.5°F8.1°C 25% 2.0 mph SW3.2 kmh SW 4.0 mph6.4 kmh 29.68 in1005.1 mb 0.00 in0.0 mm 0.00 in0.0 mm 0.00 in0.0 mm
02:14 PM 86.5°F30.3°C 47.6°F8.7°C 26% 3.0 mph SW4.8 kmh SW 5.0 mph8.0 kmh 29.68 in1005.1 mb 0.00 in0.0 mm 0.00 in0.0 mm 0.00 in0.0 mm
02:13 PM 86.4°F30.2°C 46.5°F8.1°C 25% Calm Calm 3.0 mph4.8 kmh 29.68 in1005.1 mb 0.00 in0.0 mm 0.00 in0.0 mm 0.00 in0.0 mm
02:12 PM 86.4°F30.2°C 47.5°F8.6°C 26% Calm Calm 3.0 mph4.8 kmh 29.67 in1004.7 mb 0.00 in0.0 mm 0.00 in0.0 mm 0.00 in0.0 mm
02:11 PM 86.3°F30.2°C 47.4°F8.6°C 26% 1.0 mph SW1.6 kmh SW 1.0 mph1.6 kmh 29.67 in1004.7 mb 0.00 in0.0 mm 0.00 in0.0 mm 0.00 in0.0 mm
02:10 PM 86.2°F30.1°C 47.3°F8.5°C 26% Calm Calm 3.0 mph4.8 kmh 29.67 in1004.7 mb 0.00 in0.0 mm 0.00 in0.0 mm 0.00 in0.0 mm
02:09 PM 86.1°F30.1°C 46.2°F7.9°C 25% 3.0 mph SW4.8 kmh SW 3.0 mph4.8 kmh 29.68 in1005.1 mb 0.00 in0.0 mm 0.00 in0.0 mm 0.00 in0.0 mm
02:08 PM 86.1°F30.1°C 47.2°F8.4°C 26% 1.0 mph SW1.6 kmh SW 3.0 mph4.8 kmh 29.68 in1005.1 mb 0.00 in0.0 mm 0.00 in0.0 mm 0.00 in0.0 mm
02:07 PM 85.9°F29.9°C 47.1°F8.4°C 26% Calm Calm 1.0 mph1.6 kmh 29.68 in1005.1 mb 0.00 in0.0 mm 0.00 in0.0 mm 0.00 in0.0 mm
02:06 PM 85.9°F29.9°C 46.0°F7.8°C 25% Calm Calm 1.0 mph1.6 kmh 29.68 in1005.1 mb 0.00 in0.0 mm 0.00 in0.0 mm 0.00 in0.0 mm
02:05 PM 85.8°F29.9°C 47.0°F8.3°C 26% Calm Calm 1.0 mph1.6 kmh 29.68 in1005.1 mb 0.00 in0.0 mm 0.00 in0.0 mm 0.00 in0.0 mm
02:04 PM 85.7°F29.8°C 45.9°F7.7°C 25% Calm Calm 3.0 mph4.8 kmh 29.68 in1005.1 mb 0.00 in0.0 mm 0.00 in0.0 mm 0.00 in0.0 mm
02:03 PM 85.7°F29.8°C 46.9°F8.3°C 26% 1.0 mph SW1.6 kmh SW 3.0 mph4.8 kmh 29.68 in1005.1 mb 0.00 in0.0 mm 0.00 in0.0 mm 0.00 in0.0 mm
02:02 PM 85.7°F29.8°C 45.9°F7.7°C 25% 1.0 mph SW1.6 kmh SW 3.0 mph4.8 kmh 29.68 in1005.1 mb 0.00 in0.0 mm 0.00 in0.0 mm 0.00 in0.0 mm
02:01 PM 85.7°F29.8°C 45.9°F7.7°C 25% 2.0 mph SW3.2 kmh SW 3.0 mph4.8 kmh 29.68 in1005.1 mb 0.00 in0.0 mm 0.00 in0.0 mm 0.00 in0.0 mm
02:00 PM 85.7°F29.8°C 45.9°F7.7°C 25% 1.0 mph SW1.6 kmh SW 4.0 mph6.4 kmh 29.68 in1005.1 mb 0.00 in0.0 mm 0.00 in0.0 mm 0.00 in0.0 mm
01:59 PM 85.8°F29.9°C 46.0°F7.8°C 25% 4.0 mph SW6.4 kmh SW 5.0 mph8.0 kmh 29.68 in1005.1 mb 0.00 in0.0 mm 0.00 in0.0 mm 0.00 in0.0 mm
01:58 PM 85.9°F29.9°C 46.0°F7.8°C 25% 2.0 mph SW3.2 kmh SW 7.0 mph11.3 kmh 29.68 in1005.1 mb 0.00 in0.0 mm 0.00 in0.0 mm 0.00 in0.0 mm
01:57 PM 85.9°F29.9°C 46.0°F7.8°C 25% 7.0 mph WSW11.3 kmh WSW 7.0 mph11.3 kmh 29.68 in1005.1 mb 0.00 in0.0 mm 0.00 in0.0 mm 0.00 in0.0 mm
01:56 PM 85.9°F29.9°C 46.0°F7.8°C 25% 2.0 mph WSW3.2 kmh WSW 6.0 mph9.7 kmh 29.68 in1005.1 mb 0.00 in0.0 mm 0.00 in0.0 mm 0.00 in0.0 mm
01:55 PM 86.0°F30.0°C 46.1°F7.8°C 25% Calm Calm 5.0 mph8.0 kmh 29.68 in1005.1 mb 0.00 in0.0 mm 0.00 in0.0 mm 0.00 in0.0 mm
01:54 PM 86.0°F30.0°C 46.1°F7.8°C 25% 2.0 mph W3.2 kmh W 5.0 mph8.0 kmh 29.68 in1005.1 mb 0.00 in0.0 mm 0.00 in0.0 mm 0.00 in0.0 mm
01:53 PM 86.1°F30.1°C 47.2°F8.4°C 26% 1.0 mph W1.6 kmh W 5.0 mph8.0 kmh 29.68 in1005.1 mb 0.00 in0.0 mm 0.00 in0.0 mm 0.00 in0.0 mm
01:52 PM 86.1°F30.1°C 46.2°F7.9°C 25% 4.0 mph WNW6.4 kmh WNW 4.0 mph6.4 kmh 29.68 in1005.1 mb 0.00 in0.0 mm 0.00 in0.0 mm 0.00 in0.0 mm
01:51 PM 86.0°F30.0°C 46.1°F7.8°C 25% 2.0 mph WNW3.2 kmh WNW 4.0 mph6.4 kmh 29.68 in1005.1 mb 0.00 in0.0 mm 0.00 in0.0 mm 0.00 in0.0 mm
01:50 PM 86.0°F30.0°C 45.0°F7.2°C 24% Calm Calm 4.0 mph6.4 kmh 29.69 in1005.4 mb 0.00 in0.0 mm 0.00 in0.0 mm 0.00 in0.0 mm
01:49 PM 85.9°F29.9°C 45.0°F7.2°C 24% 1.0 mph WNW1.6 kmh WNW 6.0 mph9.7 kmh 29.68 in1005.1 mb 0.00 in0.0 mm 0.00 in0.0 mm 0.00 in0.0 mm
01:48 PM 85.9°F29.9°C 45.0°F7.2°C 24% Calm Calm 6.0 mph9.7 kmh 29.69 in1005.4 mb 0.00 in0.0 mm 0.00 in0.0 mm 0.00 in0.0 mm
01:47 PM 85.8°F29.9°C 43.8°F6.6°C 23% 1.0 mph WNW1.6 kmh WNW 6.0 mph9.7 kmh 29.69 in1005.4 mb 0.00 in0.0 mm 0.00 in0.0 mm 0.00 in0.0 mm
01:46 PM 85.8°F29.9°C 44.9°F7.2°C 24% 1.0 mph NW1.6 kmh NW 4.0 mph6.4 kmh 29.68 in1005.1 mb 0.00 in0.0 mm 0.00 in0.0 mm 0.00 in0.0 mm
01:45 PM 85.6°F29.8°C 45.8°F7.7°C 25% Calm Calm 1.0 mph1.6 kmh 29.68 in1005.1 mb 0.00 in0.0 mm 0.00 in0.0 mm 0.00 in0.0 mm
01:44 PM 85.5°F29.7°C 46.7°F8.2°C 26% 1.0 mph NW1.6 kmh NW 1.0 mph1.6 kmh 29.69 in1005.4 mb 0.00 in0.0 mm 0.00 in0.0 mm 0.00 in0.0 mm
01:43 PM 85.4°F29.7°C 44.5°F6.9°C 24% Calm Calm 1.0 mph1.6 kmh 29.69 in1005.4 mb 0.00 in0.0 mm 0.00 in0.0 mm 0.00 in0.0 mm
01:42 PM 85.3°F29.6°C 45.5°F7.5°C 25% Calm Calm -- 29.69 in1005.4 mb 0.00 in0.0 mm 0.00 in0.0 mm 0.00 in0.0 mm
01:41 PM 85.2°F29.6°C 46.5°F8.1°C 26% Calm Calm -- 29.69 in1005.4 mb 0.00 in0.0 mm 0.00 in0.0 mm 0.00 in0.0 mm
01:40 PM 85.1°F29.5°C 45.4°F7.4°C 25% Calm Calm 1.0 mph1.6 kmh 29.69 in1005.4 mb 0.00 in0.0 mm 0.00 in0.0 mm 0.00 in0.0 mm
01:39 PM 85.0°F29.4°C 44.2°F6.8°C 24% Calm Calm -- 29.69 in1005.4 mb 0.00 in0.0 mm 0.00 in0.0 mm 0.00 in0.0 mm
01:38 PM 84.9°F29.4°C 43.0°F6.1°C 23% Calm Calm 1.0 mph1.6 kmh 29.69 in1005.4 mb 0.00 in0.0 mm 0.00 in0.0 mm 0.00 in0.0 mm
01:37 PM 84.8°F29.3°C 42.9°F6.1°C 23% 1.0 mph NW1.6 kmh NW 1.0 mph1.6 kmh 29.69 in1005.4 mb 0.00 in0.0 mm 0.00 in0.0 mm 0.00 in0.0 mm
01:36 PM 84.7°F29.3°C 42.8°F6.0°C 23% Calm Calm 1.0 mph1.6 kmh 29.69 in1005.4 mb 0.00 in0.0 mm 0.00 in0.0 mm 0.00 in0.0 mm
01:35 PM 84.6°F29.2°C 42.8°F6.0°C 23% Calm Calm 1.0 mph1.6 kmh 29.69 in1005.4 mb 0.00 in0.0 mm 0.00 in0.0 mm 0.00 in0.0 mm
01:34 PM 84.5°F29.2°C 43.8°F6.6°C 24% Calm Calm 1.0 mph1.6 kmh 29.69 in1005.4 mb 0.00 in0.0 mm 0.00 in0.0 mm 0.00 in0.0 mm
01:33 PM 84.4°F29.1°C 43.7°F6.5°C 24% 1.0 mph NW1.6 kmh NW 2.0 mph3.2 kmh 29.69 in1005.4 mb 0.00 in0.0 mm 0.00 in0.0 mm 0.00 in0.0 mm
01:32 PM 84.3°F29.1°C 43.6°F6.4°C 24% Calm Calm 4.0 mph6.4 kmh 29.69 in1005.4 mb 0.00 in0.0 mm 0.00 in0.0 mm 0.00 in0.0 mm
01:31 PM 84.2°F29.0°C 43.5°F6.4°C 24% Calm Calm 1.0 mph1.6 kmh 29.69 in1005.4 mb 0.00 in0.0 mm 0.00 in0.0 mm 0.00 in0.0 mm
01:29 PM 84.1°F28.9°C 44.5°F6.9°C 25% Calm Calm -- 29.69 in1005.4 mb 0.00 in0.0 mm 0.00 in0.0 mm 0.00 in0.0 mm
01:28 PM 84.0°F28.9°C 44.4°F6.9°C 25% Calm Calm -- 29.70 in1005.8 mb 0.00 in0.0 mm 0.00 in0.0 mm 0.00 in0.0 mm
01:27 PM 83.9°F28.8°C 44.4°F6.9°C 25% Calm Calm 1.0 mph1.6 kmh 29.70 in1005.8 mb 0.00 in0.0 mm 0.00 in0.0 mm 0.00 in0.0 mm
01:26 PM 83.8°F28.8°C 44.3°F6.8°C 25% 1.0 mph NW1.6 kmh NW 1.0 mph1.6 kmh 29.70 in1005.8 mb 0.00 in0.0 mm 0.00 in0.0 mm 0.00 in0.0 mm
01:25 PM 83.7°F28.7°C 45.2°F7.3°C 26% Calm Calm -- 29.70 in1005.8 mb 0.00 in0.0 mm 0.00 in0.0 mm 0.00 in0.0 mm
01:24 PM 83.6°F28.7°C 44.1°F6.7°C 25% Calm Calm 2.0 mph3.2 kmh 29.70 in1005.8 mb 0.00 in0.0 mm 0.00 in0.0 mm 0.00 in0.0 mm
01:23 PM 83.5°F28.6°C 44.0°F6.7°C 25% Calm Calm 2.0 mph3.2 kmh 29.70 in1005.8 mb 0.00 in0.0 mm 0.00 in0.0 mm 0.00 in0.0 mm
01:22 PM 83.4°F28.6°C 43.9°F6.6°C 25% Calm Calm -- 29.70 in1005.8 mb 0.00 in0.0 mm 0.00 in0.0 mm 0.00 in0.0 mm
01:21 PM 83.4°F28.6°C 42.9°F6.1°C 24% Calm Calm 1.0 mph1.6 kmh 29.70 in1005.8 mb 0.00 in0.0 mm 0.00 in0.0 mm 0.00 in0.0 mm
01:20 PM 83.3°F28.5°C 42.8°F6.0°C 24% Calm Calm 6.0 mph9.7 kmh 29.70 in1005.8 mb 0.00 in0.0 mm 0.00 in0.0 mm 0.00 in0.0 mm
01:19 PM 83.3°F28.5°C 42.8°F6.0°C 24% Calm Calm 6.0 mph9.7 kmh 29.70 in1005.8 mb 0.00 in0.0 mm 0.00 in0.0 mm 0.00 in0.0 mm
01:18 PM 83.3°F28.5°C 43.8°F6.6°C 25% Calm Calm 2.0 mph3.2 kmh 29.70 in1005.8 mb 0.00 in0.0 mm 0.00 in0.0 mm 0.00 in0.0 mm
01:17 PM 83.2°F28.4°C 44.8°F7.1°C 26% Calm Calm 1.0 mph1.6 kmh 29.70 in1005.8 mb 0.00 in0.0 mm 0.00 in0.0 mm 0.00 in0.0 mm
01:16 PM 83.2°F28.4°C 43.8°F6.6°C 25% Calm Calm 2.0 mph3.2 kmh 29.70 in1005.8 mb 0.00 in0.0 mm 0.00 in0.0 mm 0.00 in0.0 mm
01:15 PM 83.1°F28.4°C 44.7°F7.1°C 26% 1.0 mph NNW1.6 kmh NNW 4.0 mph6.4 kmh 29.70 in1005.8 mb 0.00 in0.0 mm 0.00 in0.0 mm 0.00 in0.0 mm
01:14 PM 83.0°F28.3°C 44.6°F7.0°C 26% Calm Calm 2.0 mph3.2 kmh 29.70 in1005.8 mb 0.00 in0.0 mm 0.00 in0.0 mm 0.00 in0.0 mm
01:13 PM 82.9°F28.3°C 44.5°F6.9°C 26% Calm Calm 1.0 mph1.6 kmh 29.71 in1006.1 mb 0.00 in0.0 mm 0.00 in0.0 mm 0.00 in0.0 mm
01:12 PM 82.8°F28.2°C 44.5°F6.9°C 26% Calm Calm 1.0 mph1.6 kmh 29.71 in1006.1 mb 0.00 in0.0 mm 0.00 in0.0 mm 0.00 in0.0 mm
01:11 PM 82.7°F28.2°C 43.3°F6.3°C 25% Calm Calm 2.0 mph3.2 kmh 29.71 in1006.1 mb 0.00 in0.0 mm 0.00 in0.0 mm 0.00 in0.0 mm
01:10 PM 82.6°F28.1°C 41.1°F5.1°C 23% 2.0 mph NNW3.2 kmh NNW 2.0 mph3.2 kmh 29.71 in1006.1 mb 0.00 in0.0 mm 0.00 in0.0 mm 0.00 in0.0 mm
01:09 PM 82.5°F28.1°C 43.2°F6.2°C 25% Calm Calm -- 29.71 in1006.1 mb 0.00 in0.0 mm 0.00 in0.0 mm 0.00 in0.0 mm
01:08 PM 82.3°F27.9°C 45.0°F7.2°C 27% Calm Calm -- 29.71 in1006.1 mb 0.00 in0.0 mm 0.00 in0.0 mm 0.00 in0.0 mm
01:07 PM 82.1°F27.8°C 43.9°F6.6°C 26% Calm Calm -- 29.71 in1006.1 mb 0.00 in0.0 mm 0.00 in0.0 mm 0.00 in0.0 mm
01:06 PM 82.0°F27.8°C 43.8°F6.6°C 26% Calm Calm 1.0 mph1.6 kmh 29.71 in1006.1 mb 0.00 in0.0 mm 0.00 in0.0 mm 0.00 in0.0 mm
01:05 PM 81.9°F27.7°C 44.7°F7.1°C 27% Calm Calm 4.0 mph6.4 kmh 29.71 in1006.1 mb 0.00 in0.0 mm 0.00 in0.0 mm 0.00 in0.0 mm
01:04 PM 81.7°F27.6°C 43.5°F6.4°C 26% 1.0 mph NNW1.6 kmh NNW 4.0 mph6.4 kmh 29.71 in1006.1 mb 0.00 in0.0 mm 0.00 in0.0 mm 0.00 in0.0 mm
01:03 PM 81.6°F27.6°C 44.4°F6.9°C 27% Calm Calm -- 29.71 in1006.1 mb 0.00 in0.0 mm 0.00 in0.0 mm 0.00 in0.0 mm
01:02 PM 81.5°F27.5°C 46.2°F7.9°C 29% Calm Calm -- 29.71 in1006.1 mb 0.00 in0.0 mm 0.00 in0.0 mm 0.00 in0.0 mm
01:01 PM 81.3°F27.4°C 45.1°F7.3°C 28% Calm Calm -- 29.71 in1006.1 mb 0.00 in0.0 mm 0.00 in0.0 mm 0.00 in0.0 mm
01:00 PM 81.3°F27.4°C 45.1°F7.3°C 28% Calm Calm -- 29.71 in1006.1 mb 0.00 in0.0 mm 0.00 in0.0 mm 0.00 in0.0 mm
12:59 PM 81.1°F27.3°C 44.9°F7.2°C 28% Calm Calm 1.0 mph1.6 kmh 29.71 in1006.1 mb 0.00 in0.0 mm 0.00 in0.0 mm 0.00 in0.0 mm
12:58 PM 81.1°F27.3°C 44.9°F7.2°C 28% 1.0 mph NNW1.6 kmh NNW 1.0 mph1.6 kmh 29.71 in1006.1 mb 0.00 in0.0 mm 0.00 in0.0 mm 0.00 in0.0 mm
12:57 PM 80.9°F27.2°C 44.8°F7.1°C 28% Calm Calm -- 29.71 in1006.1 mb 0.00 in0.0 mm 0.00 in0.0 mm 0.00 in0.0 mm
12:56 PM 80.9°F27.2°C 44.8°F7.1°C 28% Calm Calm 1.0 mph1.6 kmh 29.72 in1006.4 mb 0.00 in0.0 mm 0.00 in0.0 mm 0.00 in0.0 mm
12:55 PM 80.9°F27.2°C 43.8°F6.6°C 27% Calm Calm 2.0 mph3.2 kmh 29.72 in1006.4 mb 0.00 in0.0 mm 0.00 in0.0 mm 0.00 in0.0 mm
12:54 PM 80.9°F27.2°C 44.8°F7.1°C 28% 2.0 mph NNW3.2 kmh NNW 2.0 mph3.2 kmh 29.72 in1006.4 mb 0.00 in0.0 mm 0.00 in0.0 mm 0.00 in0.0 mm
12:53 PM 80.8°F27.1°C 44.7°F7.1°C 28% Calm Calm -- 29.72 in1006.4 mb 0.00 in0.0 mm 0.00 in0.0 mm 0.00 in0.0 mm
12:52 PM 80.8°F27.1°C 43.7°F6.5°C 27% Calm Calm 1.0 mph1.6 kmh 29.72 in1006.4 mb 0.00 in0.0 mm 0.00 in0.0 mm 0.00 in0.0 mm
12:51 PM 80.8°F27.1°C 42.8°F6.0°C 26% Calm Calm 1.0 mph1.6 kmh 29.72 in1006.4 mb 0.00 in0.0 mm 0.00 in0.0 mm 0.00 in0.0 mm
12:50 PM 80.8°F27.1°C 44.7°F7.1°C 28% Calm Calm 1.0 mph1.6 kmh 29.72 in1006.4 mb 0.00 in0.0 mm 0.00 in0.0 mm 0.00 in0.0 mm
12:49 PM 80.7°F27.1°C 46.4°F8.0°C 30% Calm Calm -- 29.72 in1006.4 mb 0.00 in0.0 mm 0.00 in0.0 mm 0.00 in0.0 mm
12:48 PM 80.7°F27.1°C 44.6°F7.0°C 28% Calm Calm -- 29.72 in1006.4 mb 0.00 in0.0 mm 0.00 in0.0 mm 0.00 in0.0 mm
12:47 PM 80.7°F27.1°C 43.7°F6.5°C 27% Calm Calm -- 29.72 in1006.4 mb 0.00 in0.0 mm 0.00 in0.0 mm 0.00 in0.0 mm
12:46 PM 80.7°F27.1°C 43.7°F6.5°C 27% Calm Calm 2.0 mph3.2 kmh 29.72 in1006.4 mb 0.00 in0.0 mm 0.00 in0.0 mm 0.00 in0.0 mm
12:45 PM 80.6°F27.0°C 44.5°F6.9°C 28% 1.0 mph NNW1.6 kmh NNW 2.0 mph3.2 kmh 29.72 in1006.4 mb 0.00 in0.0 mm 0.00 in0.0 mm 0.00 in0.0 mm
12:44 PM 80.6°F27.0°C 43.6°F6.4°C 27% Calm Calm 1.0 mph1.6 kmh 29.72 in1006.4 mb 0.00 in0.0 mm 0.00 in0.0 mm 0.00 in0.0 mm
12:43 PM 80.5°F26.9°C 43.5°F6.4°C 27% Calm Calm 2.0 mph3.2 kmh 29.72 in1006.4 mb 0.00 in0.0 mm 0.00 in0.0 mm 0.00 in0.0 mm
12:42 PM 80.5°F26.9°C 43.5°F6.4°C 27% Calm Calm 1.0 mph1.6 kmh 29.72 in1006.4 mb 0.00 in0.0 mm 0.00 in0.0 mm 0.00 in0.0 mm
12:41 PM 80.3°F26.8°C 44.3°F6.8°C 28% Calm Calm -- 29.72 in1006.4 mb 0.00 in0.0 mm 0.00 in0.0 mm 0.00 in0.0 mm
12:40 PM 80.3°F26.8°C 43.3°F6.3°C 27% Calm Calm -- 29.72 in1006.4 mb 0.00 in0.0 mm 0.00 in0.0 mm 0.00 in0.0 mm
12:39 PM 80.2°F26.8°C 43.2°F6.2°C 27% Calm Calm 2.0 mph3.2 kmh 29.72 in1006.4 mb 0.00 in0.0 mm 0.00 in0.0 mm 0.00 in0.0 mm
12:38 PM 80.1°F26.7°C 45.0°F7.2°C 29% Calm Calm 2.0 mph3.2 kmh 29.72 in1006.4 mb 0.00 in0.0 mm 0.00 in0.0 mm 0.00 in0.0 mm
12:37 PM 80.0°F26.7°C 44.9°F7.2°C 29% Calm Calm 1.0 mph1.6 kmh 29.72 in1006.4 mb 0.00 in0.0 mm 0.00 in0.0 mm 0.00 in0.0 mm
12:36 PM 79.8°F26.6°C 42.9°F6.1°C 27% Calm Calm 4.0 mph6.4 kmh 29.72 in1006.4 mb 0.00 in0.0 mm 0.00 in0.0 mm 0.00 in0.0 mm
12:35 PM 79.7°F26.5°C 43.8°F6.6°C 28% 4.0 mph NNW6.4 kmh NNW 4.0 mph6.4 kmh 29.72 in1006.4 mb 0.00 in0.0 mm 0.00 in0.0 mm 0.00 in0.0 mm
12:34 PM 79.6°F26.4°C 43.7°F6.5°C 28% Calm Calm -- 29.72 in1006.4 mb 0.00 in0.0 mm 0.00 in0.0 mm 0.00 in0.0 mm
12:33 PM 79.4°F26.3°C 42.5°F5.8°C 27% Calm Calm 1.0 mph1.6 kmh 29.72 in1006.4 mb 0.00 in0.0 mm 0.00 in0.0 mm 0.00 in0.0 mm
12:32 PM 79.3°F26.3°C 43.4°F6.3°C 28% Calm Calm 1.0 mph1.6 kmh 29.73 in1006.8 mb 0.00 in0.0 mm 0.00 in0.0 mm 0.00 in0.0 mm
12:31 PM 79.2°F26.2°C 43.3°F6.3°C 28% Calm Calm -- 29.73 in1006.8 mb 0.00 in0.0 mm 0.00 in0.0 mm 0.00 in0.0 mm
12:30 PM 79.0°F26.1°C 43.2°F6.2°C 28% Calm Calm 1.0 mph1.6 kmh 29.73 in1006.8 mb 0.00 in0.0 mm 0.00 in0.0 mm 0.00 in0.0 mm
12:29 PM 79.0°F26.1°C 45.0°F7.2°C 30% Calm Calm 1.0 mph1.6 kmh 29.73 in1006.8 mb 0.00 in0.0 mm 0.00 in0.0 mm 0.00 in0.0 mm
12:28 PM 78.8°F26.0°C 45.6°F7.6°C 31% Calm Calm 2.0 mph3.2 kmh 29.73 in1006.8 mb 0.00 in0.0 mm 0.00 in0.0 mm 0.00 in0.0 mm
12:27 PM 78.7°F25.9°C 46.4°F8.0°C 32% 1.0 mph NNW1.6 kmh NNW 2.0 mph3.2 kmh 29.73 in1006.8 mb 0.00 in0.0 mm 0.00 in0.0 mm 0.00 in0.0 mm
12:26 PM 78.5°F25.8°C 45.4°F7.4°C 31% Calm Calm 2.0 mph3.2 kmh 29.72 in1006.4 mb 0.00 in0.0 mm 0.00 in0.0 mm 0.00 in0.0 mm
12:25 PM 78.4°F25.8°C 46.1°F7.8°C 32% 2.0 mph NNW3.2 kmh NNW 2.0 mph3.2 kmh 29.73 in1006.8 mb 0.00 in0.0 mm 0.00 in0.0 mm 0.00 in0.0 mm
12:24 PM 78.2°F25.7°C 46.0°F7.8°C 32% 1.0 mph NNW1.6 kmh NNW 1.0 mph1.6 kmh 29.73 in1006.8 mb 0.00 in0.0 mm 0.00 in0.0 mm 0.00 in0.0 mm
12:23 PM 78.1°F25.6°C 46.7°F8.2°C 33% Calm Calm 1.0 mph1.6 kmh 29.73 in1006.8 mb 0.00 in0.0 mm 0.00 in0.0 mm 0.00 in0.0 mm
12:22 PM 77.9°F25.5°C 45.7°F7.6°C 32% Calm Calm -- 29.73 in1006.8 mb 0.00 in0.0 mm 0.00 in0.0 mm 0.00 in0.0 mm
12:21 PM 77.8°F25.4°C 46.4°F8.0°C 33% Calm Calm -- 29.73 in1006.8 mb 0.00 in0.0 mm 0.00 in0.0 mm 0.00 in0.0 mm
12:20 PM 77.7°F25.4°C 46.3°F7.9°C 33% Calm Calm 1.0 mph1.6 kmh 29.73 in1006.8 mb 0.00 in0.0 mm 0.00 in0.0 mm 0.00 in0.0 mm
12:19 PM 77.6°F25.3°C 46.3°F7.9°C 33% Calm Calm 1.0 mph1.6 kmh 29.73 in1006.8 mb 0.00 in0.0 mm 0.00 in0.0 mm 0.00 in0.0 mm
12:18 PM 77.5°F25.3°C 45.4°F7.4°C 32% Calm Calm 4.0 mph6.4 kmh 29.73 in1006.8 mb 0.00 in0.0 mm 0.00 in0.0 mm 0.00 in0.0 mm
12:17 PM 77.4°F25.2°C 45.3°F7.4°C 32% Calm Calm 4.0 mph6.4 kmh 29.73 in1006.8 mb 0.00 in0.0 mm 0.00 in0.0 mm 0.00 in0.0 mm
12:16 PM 77.4°F25.2°C 45.3°F7.4°C 32% 1.0 mph NNW1.6 kmh NNW 2.0 mph3.2 kmh 29.73 in1006.8 mb 0.00 in0.0 mm 0.00 in0.0 mm 0.00 in0.0 mm
12:15 PM 77.3°F25.2°C 46.8°F8.2°C 34% Calm Calm -- 29.73 in1006.8 mb 0.00 in0.0 mm 0.00 in0.0 mm 0.00 in0.0 mm
12:14 PM 77.3°F25.2°C 45.2°F7.3°C 32% Calm Calm 1.0 mph1.6 kmh 29.73 in1006.8 mb 0.00 in0.0 mm 0.00 in0.0 mm 0.00 in0.0 mm
12:13 PM 77.2°F25.1°C 45.9°F7.7°C 33% Calm Calm 2.0 mph3.2 kmh 29.73 in1006.8 mb 0.00 in0.0 mm 0.00 in0.0 mm 0.00 in0.0 mm
12:12 PM 77.2°F25.1°C 45.9°F7.7°C 33% Calm Calm 2.0 mph3.2 kmh 29.73 in1006.8 mb 0.00 in0.0 mm 0.00 in0.0 mm 0.00 in0.0 mm
12:11 PM 77.2°F25.1°C 45.9°F7.7°C 33% Calm Calm 2.0 mph3.2 kmh 29.73 in1006.8 mb 0.00 in0.0 mm 0.00 in0.0 mm 0.00 in0.0 mm
12:10 PM 77.1°F25.1°C 45.8°F7.7°C 33% 1.0 mph NNW1.6 kmh NNW 2.0 mph3.2 kmh 29.73 in1006.8 mb 0.00 in0.0 mm 0.00 in0.0 mm 0.00 in0.0 mm
12:09 PM 77.1°F25.1°C 45.8°F7.7°C 33% 2.0 mph NNW3.2 kmh NNW 2.0 mph3.2 kmh 29.73 in1006.8 mb 0.00 in0.0 mm 0.00 in0.0 mm 0.00 in0.0 mm
12:08 PM 77.1°F25.1°C 46.6°F8.1°C 34% 2.0 mph NNW3.2 kmh NNW 2.0 mph3.2 kmh 29.73 in1006.8 mb 0.00 in0.0 mm 0.00 in0.0 mm 0.00 in0.0 mm
12:07 PM 77.1°F25.1°C 46.6°F8.1°C 34% Calm Calm 2.0 mph3.2 kmh 29.73 in1006.8 mb 0.00 in0.0 mm 0.00 in0.0 mm 0.00 in0.0 mm
12:06 PM 77.1°F25.1°C 46.6°F8.1°C 34% Calm Calm 2.0 mph3.2 kmh 29.74 in1007.1 mb 0.00 in0.0 mm 0.00 in0.0 mm 0.00 in0.0 mm
12:05 PM 77.0°F25.0°C 47.3°F8.5°C 35% Calm Calm 2.0 mph3.2 kmh 29.74 in1007.1 mb 0.00 in0.0 mm 0.00 in0.0 mm 0.00 in0.0 mm
12:04 PM 77.0°F25.0°C 46.5°F8.1°C 34% Calm Calm 2.0 mph3.2 kmh 29.74 in1007.1 mb 0.00 in0.0 mm 0.00 in0.0 mm 0.00 in0.0 mm
12:03 PM 77.1°F25.1°C 46.6°F8.1°C 34% Calm Calm 2.0 mph3.2 kmh 29.74 in1007.1 mb 0.00 in0.0 mm 0.00 in0.0 mm 0.00 in0.0 mm
12:02 PM 77.1°F25.1°C 46.6°F8.1°C 34% Calm Calm 2.0 mph3.2 kmh 29.74 in1007.1 mb 0.00 in0.0 mm 0.00 in0.0 mm 0.00 in0.0 mm
12:01 PM 77.1°F25.1°C 46.6°F8.1°C 34% 1.0 mph NNW1.6 kmh NNW 2.0 mph3.2 kmh 29.73 in1006.8 mb 0.00 in0.0 mm 0.00 in0.0 mm 0.00 in0.0 mm
12:00 PM 77.1°F25.1°C 46.6°F8.1°C 34% Calm Calm 2.0 mph3.2 kmh 29.74 in1007.1 mb 0.00 in0.0 mm 0.00 in0.0 mm 0.00 in0.0 mm
11:59 AM 77.2°F25.1°C 46.7°F8.2°C 34% Calm Calm 2.0 mph3.2 kmh 29.74 in1007.1 mb 0.00 in0.0 mm 0.00 in0.0 mm 0.00 in0.0 mm
11:58 AM 77.2°F25.1°C 46.7°F8.2°C 34% Calm Calm 1.0 mph1.6 kmh 29.74 in1007.1 mb 0.00 in0.0 mm 0.00 in0.0 mm 0.00 in0.0 mm
11:57 AM 77.2°F25.1°C 46.7°F8.2°C 34% 1.0 mph NNW1.6 kmh NNW 1.0 mph1.6 kmh 29.74 in1007.1 mb 0.00 in0.0 mm 0.00 in0.0 mm 0.00 in0.0 mm
11:56 AM 77.2°F25.1°C 46.7°F8.2°C 34% Calm Calm 2.0 mph3.2 kmh 29.74 in1007.1 mb 0.00 in0.0 mm 0.00 in0.0 mm 0.00 in0.0 mm
11:55 AM 77.3°F25.2°C 46.0°F7.8°C 33% Calm Calm 5.0 mph8.0 kmh 29.74 in1007.1 mb 0.00 in0.0 mm 0.00 in0.0 mm 0.00 in0.0 mm
11:54 AM 77.3°F25.2°C 46.0°F7.8°C 33% Calm Calm 2.0 mph3.2 kmh 29.74 in1007.1 mb 0.00 in0.0 mm 0.00 in0.0 mm 0.00 in0.0 mm
11:53 AM 77.2°F25.1°C 46.7°F8.2°C 34% Calm Calm 2.0 mph3.2 kmh 29.74 in1007.1 mb 0.00 in0.0 mm 0.00 in0.0 mm 0.00 in0.0 mm
11:52 AM 77.1°F25.1°C 45.8°F7.7°C 33% Calm Calm -- 29.74 in1007.1 mb 0.00 in0.0 mm 0.00 in0.0 mm 0.00 in0.0 mm
11:51 AM 77.1°F25.1°C 46.6°F8.1°C 34% Calm Calm -- 29.74 in1007.1 mb 0.00 in0.0 mm 0.00 in0.0 mm 0.00 in0.0 mm
11:50 AM 77.0°F25.0°C 45.7°F7.6°C 33% Calm Calm 2.0 mph3.2 kmh 29.74 in1007.1 mb 0.00 in0.0 mm 0.00 in0.0 mm 0.00 in0.0 mm
11:49 AM 76.9°F24.9°C 45.6°F7.6°C 33% 1.0 mph NNW1.6 kmh NNW 2.0 mph3.2 kmh 29.74 in1007.1 mb 0.00 in0.0 mm 0.00 in0.0 mm 0.00 in0.0 mm
11:48 AM 76.8°F24.9°C 47.1°F8.4°C 35% Calm Calm 1.0 mph1.6 kmh 29.74 in1007.1 mb 0.00 in0.0 mm 0.00 in0.0 mm 0.00 in0.0 mm
11:47 AM 76.8°F24.9°C 47.1°F8.4°C 35% Calm Calm 1.0 mph1.6 kmh 29.74 in1007.1 mb 0.00 in0.0 mm 0.00 in0.0 mm 0.00 in0.0 mm
11:46 AM 76.7°F24.8°C 46.3°F7.9°C 34% Calm Calm 2.0 mph3.2 kmh 29.74 in1007.1 mb 0.00 in0.0 mm 0.00 in0.0 mm 0.00 in0.0 mm
11:45 AM 76.6°F24.8°C 46.2°F7.9°C 34% Calm Calm 2.0 mph3.2 kmh 29.74 in1007.1 mb 0.00 in0.0 mm 0.00 in0.0 mm 0.00 in0.0 mm
11:44 AM 76.6°F24.8°C 46.2°F7.9°C 34% 1.0 mph NNW1.6 kmh NNW 1.0 mph1.6 kmh 29.74 in1007.1 mb 0.00 in0.0 mm 0.00 in0.0 mm 0.00 in0.0 mm
11:43 AM 76.5°F24.7°C 45.3°F7.4°C 33% Calm Calm -- 29.74 in1007.1 mb 0.00 in0.0 mm 0.00 in0.0 mm 0.00 in0.0 mm
11:42 AM 76.5°F24.7°C 45.3°F7.4°C 33% Calm Calm 1.0 mph1.6 kmh 29.74 in1007.1 mb 0.00 in0.0 mm 0.00 in0.0 mm 0.00 in0.0 mm
11:41 AM 76.5°F24.7°C 43.7°F6.5°C 31% Calm Calm 2.0 mph3.2 kmh 29.74 in1007.1 mb 0.00 in0.0 mm 0.00 in0.0 mm 0.00 in0.0 mm
11:40 AM 76.4°F24.7°C 44.4°F6.9°C 32% Calm Calm 4.0 mph6.4 kmh 29.75 in1007.5 mb 0.00 in0.0 mm 0.00 in0.0 mm 0.00 in0.0 mm
11:39 AM 76.4°F24.7°C 45.2°F7.3°C 33% 2.0 mph NNW3.2 kmh NNW 4.0 mph6.4 kmh 29.74 in1007.1 mb 0.00 in0.0 mm 0.00 in0.0 mm 0.00 in0.0 mm
11:38 AM 76.4°F24.7°C 45.2°F7.3°C 33% 1.0 mph NNW1.6 kmh NNW 1.0 mph1.6 kmh 29.74 in1007.1 mb 0.00 in0.0 mm 0.00 in0.0 mm 0.00 in0.0 mm
11:37 AM 76.3°F24.6°C 45.1°F7.3°C 33% Calm Calm 1.0 mph1.6 kmh 29.74 in1007.1 mb 0.00 in0.0 mm 0.00 in0.0 mm 0.00 in0.0 mm
11:36 AM 76.2°F24.6°C 45.0°F7.2°C 33% Calm Calm 1.0 mph1.6 kmh 29.74 in1007.1 mb 0.00 in0.0 mm 0.00 in0.0 mm 0.00 in0.0 mm
11:35 AM 76.2°F24.6°C 45.8°F7.7°C 34% Calm Calm 1.0 mph1.6 kmh 29.75 in1007.5 mb 0.00 in0.0 mm 0.00 in0.0 mm 0.00 in0.0 mm
11:34 AM 76.1°F24.5°C 45.7°F7.6°C 34% Calm Calm -- 29.75 in1007.5 mb 0.00 in0.0 mm 0.00 in0.0 mm 0.00 in0.0 mm
11:33 AM 75.9°F24.4°C 44.8°F7.1°C 33% Calm Calm -- 29.75 in1007.5 mb 0.00 in0.0 mm 0.00 in0.0 mm 0.00 in0.0 mm
11:32 AM 75.8°F24.3°C 44.7°F7.1°C 33% Calm Calm -- 29.75 in1007.5 mb 0.00 in0.0 mm 0.00 in0.0 mm 0.00 in0.0 mm
11:31 AM 75.7°F24.3°C 46.1°F7.8°C 35% Calm Calm 1.0 mph1.6 kmh 29.75 in1007.5 mb 0.00 in0.0 mm 0.00 in0.0 mm 0.00 in0.0 mm
11:30 AM 75.7°F24.3°C 44.6°F7.0°C 33% Calm Calm 2.0 mph3.2 kmh 29.75 in1007.5 mb 0.00 in0.0 mm 0.00 in0.0 mm 0.00 in0.0 mm
11:29 AM 75.6°F24.2°C 44.5°F6.9°C 33% 2.0 mph NNW3.2 kmh NNW 2.0 mph3.2 kmh 29.75 in1007.5 mb 0.00 in0.0 mm 0.00 in0.0 mm 0.00 in0.0 mm
11:28 AM 75.5°F24.2°C 45.2°F7.3°C 34% Calm Calm 1.0 mph1.6 kmh 29.75 in1007.5 mb 0.00 in0.0 mm 0.00 in0.0 mm 0.00 in0.0 mm
11:27 AM 75.5°F24.2°C 44.4°F6.9°C 33% Calm Calm 2.0 mph3.2 kmh 29.75 in1007.5 mb 0.00 in0.0 mm 0.00 in0.0 mm 0.00 in0.0 mm
11:26 AM 75.4°F24.1°C 44.3°F6.8°C 33% 1.0 mph NNW1.6 kmh NNW 6.0 mph9.7 kmh 29.75 in1007.5 mb 0.00 in0.0 mm 0.00 in0.0 mm 0.00 in0.0 mm
11:25 AM 75.3°F24.1°C 45.0°F7.2°C 34% 5.0 mph NNW8.0 kmh NNW 5.0 mph8.0 kmh 29.75 in1007.5 mb 0.00 in0.0 mm 0.00 in0.0 mm 0.00 in0.0 mm
11:24 AM 75.3°F24.1°C 45.8°F7.7°C 35% 1.0 mph NNW1.6 kmh NNW 4.0 mph6.4 kmh 29.75 in1007.5 mb 0.00 in0.0 mm 0.00 in0.0 mm 0.00 in0.0 mm
11:23 AM 75.2°F24.0°C 44.9°F7.2°C 34% Calm Calm 4.0 mph6.4 kmh 29.75 in1007.5 mb 0.00 in0.0 mm 0.00 in0.0 mm 0.00 in0.0 mm
11:22 AM 75.1°F23.9°C 44.9°F7.2°C 34% Calm Calm 1.0 mph1.6 kmh 29.75 in1007.5 mb 0.00 in0.0 mm 0.00 in0.0 mm 0.00 in0.0 mm
11:21 AM 75.0°F23.9°C 44.8°F7.1°C 34% Calm Calm 2.0 mph3.2 kmh 29.75 in1007.5 mb 0.00 in0.0 mm 0.00 in0.0 mm 0.00 in0.0 mm
11:20 AM 74.9°F23.8°C 45.4°F7.4°C 35% 2.0 mph NNW3.2 kmh NNW 4.0 mph6.4 kmh 29.75 in1007.5 mb 0.00 in0.0 mm 0.00 in0.0 mm 0.00 in0.0 mm
11:19 AM 74.8°F23.8°C 45.4°F7.4°C 35% Calm Calm 5.0 mph8.0 kmh 29.75 in1007.5 mb 0.00 in0.0 mm 0.00 in0.0 mm 0.00 in0.0 mm
11:18 AM 74.8°F23.8°C 46.1°F7.8°C 36% Calm Calm 1.0 mph1.6 kmh 29.75 in1007.5 mb 0.00 in0.0 mm 0.00 in0.0 mm 0.00 in0.0 mm
11:17 AM 74.7°F23.7°C 45.3°F7.4°C 35% Calm Calm 5.0 mph8.0 kmh 29.75 in1007.5 mb 0.00 in0.0 mm 0.00 in0.0 mm 0.00 in0.0 mm
11:16 AM 74.6°F23.7°C 45.9°F7.7°C 36% 1.0 mph NNW1.6 kmh NNW 5.0 mph8.0 kmh 29.75 in1007.5 mb 0.00 in0.0 mm 0.00 in0.0 mm 0.00 in0.0 mm
11:15 AM 74.6°F23.7°C 45.9°F7.7°C 36% Calm Calm 1.0 mph1.6 kmh 29.75 in1007.5 mb 0.00 in0.0 mm 0.00 in0.0 mm 0.00 in0.0 mm
11:14 AM 74.6°F23.7°C 45.2°F7.3°C 35% Calm Calm 1.0 mph1.6 kmh 29.76 in1007.8 mb 0.00 in0.0 mm 0.00 in0.0 mm 0.00 in0.0 mm
11:13 AM 74.5°F23.6°C 45.1°F7.3°C 35% Calm Calm 1.0 mph1.6 kmh 29.75 in1007.5 mb 0.00 in0.0 mm 0.00 in0.0 mm 0.00 in0.0 mm
11:12 AM 74.5°F23.6°C 45.8°F7.7°C 36% Calm Calm 1.0 mph1.6 kmh 29.75 in1007.5 mb 0.00 in0.0 mm 0.00 in0.0 mm 0.00 in0.0 mm
11:11 AM 74.5°F23.6°C 45.1°F7.3°C 35% Calm Calm 2.0 mph3.2 kmh 29.75 in1007.5 mb 0.00 in0.0 mm 0.00 in0.0 mm 0.00 in0.0 mm
11:10 AM 74.4°F23.6°C 44.2°F6.8°C 34% 1.0 mph NNW1.6 kmh NNW 2.0 mph3.2 kmh 29.75 in1007.5 mb 0.00 in0.0 mm 0.00 in0.0 mm 0.00 in0.0 mm
11:09 AM 74.4°F23.6°C 44.2°F6.8°C 34% Calm Calm 1.0 mph1.6 kmh 29.75 in1007.5 mb 0.00 in0.0 mm 0.00 in0.0 mm 0.00 in0.0 mm
11:08 AM 74.4°F23.6°C 44.2°F6.8°C 34% Calm Calm 1.0 mph1.6 kmh 29.75 in1007.5 mb 0.00 in0.0 mm 0.00 in0.0 mm 0.00 in0.0 mm
11:07 AM 74.4°F23.6°C 45.0°F7.2°C 35% Calm Calm -- 29.75 in1007.5 mb 0.00 in0.0 mm 0.00 in0.0 mm 0.00 in0.0 mm
11:06 AM 74.3°F23.5°C 44.9°F7.2°C 35% Calm Calm 1.0 mph1.6 kmh 29.75 in1007.5 mb 0.00 in0.0 mm 0.00 in0.0 mm 0.00 in0.0 mm
11:05 AM 74.3°F23.5°C 44.9°F7.2°C 35% Calm Calm 1.0 mph1.6 kmh 29.76 in1007.8 mb 0.00 in0.0 mm 0.00 in0.0 mm 0.00 in0.0 mm
11:04 AM 74.3°F23.5°C 44.1°F6.7°C 34% Calm Calm 1.0 mph1.6 kmh 29.76 in1007.8 mb 0.00 in0.0 mm 0.00 in0.0 mm 0.00 in0.0 mm
11:03 AM 74.4°F23.6°C 44.2°F6.8°C 34% Calm Calm 2.0 mph3.2 kmh 29.76 in1007.8 mb 0.00 in0.0 mm 0.00 in0.0 mm 0.00 in0.0 mm
11:02 AM 74.3°F23.5°C 44.1°F6.7°C 34% Calm Calm 2.0 mph3.2 kmh 29.76 in1007.8 mb 0.00 in0.0 mm 0.00 in0.0 mm 0.00 in0.0 mm
11:01 AM 74.4°F23.6°C 45.0°F7.2°C 35% 1.0 mph NNW1.6 kmh NNW 2.0 mph3.2 kmh 29.76 in1007.8 mb 0.00 in0.0 mm 0.00 in0.0 mm 0.00 in0.0 mm
10:59 AM 74.3°F23.5°C 44.9°F7.2°C 35% Calm Calm 2.0 mph3.2 kmh 29.76 in1007.8 mb 0.00 in0.0 mm 0.00 in0.0 mm 0.00 in0.0 mm
10:58 AM 74.3°F23.5°C 44.9°F7.2°C 35% Calm Calm 1.0 mph1.6 kmh 29.76 in1007.8 mb 0.00 in0.0 mm 0.00 in0.0 mm 0.00 in0.0 mm
10:57 AM 74.2°F23.4°C 44.8°F7.1°C 35% Calm Calm 1.0 mph1.6 kmh 29.76 in1007.8 mb 0.00 in0.0 mm 0.00 in0.0 mm 0.00 in0.0 mm
10:56 AM 74.1°F23.4°C 45.5°F7.5°C 36% Calm Calm 1.0 mph1.6 kmh 29.76 in1007.8 mb 0.00 in0.0 mm 0.00 in0.0 mm 0.00 in0.0 mm
10:55 AM 74.0°F23.3°C 45.4°F7.4°C 36% 1.0 mph NNW1.6 kmh NNW 1.0 mph1.6 kmh 29.76 in1007.8 mb 0.00 in0.0 mm 0.00 in0.0 mm 0.00 in0.0 mm
10:54 AM 74.0°F23.3°C 45.4°F7.4°C 36% Calm Calm -- 29.76 in1007.8 mb 0.00 in0.0 mm 0.00 in0.0 mm 0.00 in0.0 mm
10:53 AM 73.9°F23.3°C 44.6°F7.0°C 35% Calm Calm 1.0 mph1.6 kmh 29.76 in1007.8 mb 0.00 in0.0 mm 0.00 in0.0 mm 0.00 in0.0 mm
10:52 AM 73.8°F23.2°C 45.2°F7.3°C 36% Calm Calm 1.0 mph1.6 kmh 29.76 in1007.8 mb 0.00 in0.0 mm 0.00 in0.0 mm 0.00 in0.0 mm
10:51 AM 73.8°F23.2°C 44.5°F6.9°C 35% Calm Calm 1.0 mph1.6 kmh 29.76 in1007.8 mb 0.00 in0.0 mm 0.00 in0.0 mm 0.00 in0.0 mm
10:50 AM 73.7°F23.2°C 44.4°F6.9°C 35% Calm Calm -- 29.76 in1007.8 mb 0.00 in0.0 mm 0.00 in0.0 mm 0.00 in0.0 mm
10:49 AM 73.7°F23.2°C 44.4°F6.9°C 35% Calm Calm 2.0 mph3.2 kmh 29.76 in1007.8 mb 0.00 in0.0 mm 0.00 in0.0 mm 0.00 in0.0 mm
10:48 AM 73.6°F23.1°C 44.3°F6.8°C 35% Calm Calm 2.0 mph3.2 kmh 29.76 in1007.8 mb 0.00 in0.0 mm 0.00 in0.0 mm 0.00 in0.0 mm
10:47 AM 73.5°F23.1°C 44.2°F6.8°C 35% Calm Calm 1.0 mph1.6 kmh 29.76 in1007.8 mb 0.00 in0.0 mm 0.00 in0.0 mm 0.00 in0.0 mm
10:46 AM 73.5°F23.1°C 44.2°F6.8°C 35% Calm Calm 1.0 mph1.6 kmh 29.76 in1007.8 mb 0.00 in0.0 mm 0.00 in0.0 mm 0.00 in0.0 mm
10:45 AM 73.5°F23.1°C 44.2°F6.8°C 35% Calm Calm 1.0 mph1.6 kmh 29.76 in1007.8 mb 0.00 in0.0 mm 0.00 in0.0 mm 0.00 in0.0 mm
10:44 AM 73.4°F23.0°C 44.1°F6.7°C 35% Calm Calm 1.0 mph1.6 kmh 29.76 in1007.8 mb 0.00 in0.0 mm 0.00 in0.0 mm 0.00 in0.0 mm
10:43 AM 73.3°F22.9°C 44.0°F6.7°C 35% Calm Calm 1.0 mph1.6 kmh 29.76 in1007.8 mb 0.00 in0.0 mm 0.00 in0.0 mm 0.00 in0.0 mm
10:42 AM 73.3°F22.9°C 44.0°F6.7°C 35% Calm Calm 1.0 mph1.6 kmh 29.76 in1007.8 mb 0.00 in0.0 mm 0.00 in0.0 mm 0.00 in0.0 mm
10:41 AM 73.2°F22.9°C 43.9°F6.6°C 35% Calm Calm 1.0 mph1.6 kmh 29.76 in1007.8 mb 0.00 in0.0 mm 0.00 in0.0 mm 0.00 in0.0 mm
10:40 AM 73.1°F22.8°C 43.9°F6.6°C 35% Calm Calm 1.0 mph1.6 kmh 29.76 in1007.8 mb 0.00 in0.0 mm 0.00 in0.0 mm 0.00 in0.0 mm
10:39 AM 73.1°F22.8°C 43.9°F6.6°C 35% Calm Calm 1.0 mph1.6 kmh 29.76 in1007.8 mb 0.00 in0.0 mm 0.00 in0.0 mm 0.00 in0.0 mm
10:38 AM 73.1°F22.8°C 43.9°F6.6°C 35% Calm Calm 1.0 mph1.6 kmh 29.76 in1007.8 mb 0.00 in0.0 mm 0.00 in0.0 mm 0.00 in0.0 mm
10:37 AM 73.1°F22.8°C 43.9°F6.6°C 35% Calm Calm 1.0 mph1.6 kmh 29.76 in1007.8 mb 0.00 in0.0 mm 0.00 in0.0 mm 0.00 in0.0 mm
10:36 AM 73.0°F22.8°C 44.5°F6.9°C 36% Calm Calm 1.0 mph1.6 kmh 29.76 in1007.8 mb 0.00 in0.0 mm 0.00 in0.0 mm 0.00 in0.0 mm
10:35 AM 73.0°F22.8°C 43.8°F6.6°C 35% Calm Calm 1.0 mph1.6 kmh 29.76 in1007.8 mb 0.00 in0.0 mm 0.00 in0.0 mm 0.00 in0.0 mm
10:34 AM 73.0°F22.8°C 43.0°F6.1°C 34% 1.0 mph NNW1.6 kmh NNW 6.0 mph9.7 kmh 29.76 in1007.8 mb 0.00 in0.0 mm 0.00 in0.0 mm 0.00 in0.0 mm
10:33 AM 73.0°F22.8°C 43.0°F6.1°C 34% 4.0 mph NNW6.4 kmh NNW 7.0 mph11.3 kmh 29.76 in1007.8 mb 0.00 in0.0 mm 0.00 in0.0 mm 0.00 in0.0 mm
10:32 AM 73.0°F22.8°C 43.0°F6.1°C 34% 1.0 mph N1.6 kmh N 7.0 mph11.3 kmh 29.76 in1007.8 mb 0.00 in0.0 mm 0.00 in0.0 mm 0.00 in0.0 mm
10:31 AM 73.0°F22.8°C 43.8°F6.6°C 35% 1.0 mph N1.6 kmh N 7.0 mph11.3 kmh 29.76 in1007.8 mb 0.00 in0.0 mm 0.00 in0.0 mm 0.00 in0.0 mm
10:29 AM 73.0°F22.8°C 43.0°F6.1°C 34% Calm Calm 1.0 mph1.6 kmh 29.76 in1007.8 mb 0.00 in0.0 mm 0.00 in0.0 mm 0.00 in0.0 mm
10:28 AM 73.0°F22.8°C 43.0°F6.1°C 34% Calm Calm 2.0 mph3.2 kmh 29.76 in1007.8 mb 0.00 in0.0 mm 0.00 in0.0 mm 0.00 in0.0 mm
10:27 AM 73.0°F22.8°C 43.8°F6.6°C 35% Calm Calm 1.0 mph1.6 kmh 29.76 in1007.8 mb 0.00 in0.0 mm 0.00 in0.0 mm 0.00 in0.0 mm
10:26 AM 73.0°F22.8°C 43.8°F6.6°C 35% Calm Calm 2.0 mph3.2 kmh 29.76 in1007.8 mb 0.00 in0.0 mm 0.00 in0.0 mm 0.00 in0.0 mm
10:25 AM 73.0°F22.8°C 43.8°F6.6°C 35% 1.0 mph N1.6 kmh N 2.0 mph3.2 kmh 29.76 in1007.8 mb 0.00 in0.0 mm 0.00 in0.0 mm 0.00 in0.0 mm
10:24 AM 73.0°F22.8°C 43.8°F6.6°C 35% Calm Calm -- 29.77 in1008.1 mb 0.00 in0.0 mm 0.00 in0.0 mm 0.00 in0.0 mm
10:23 AM 73.0°F22.8°C 43.8°F6.6°C 35% Calm Calm 2.0 mph3.2 kmh 29.77 in1008.1 mb 0.00 in0.0 mm 0.00 in0.0 mm 0.00 in0.0 mm
10:22 AM 73.1°F22.8°C 43.1°F6.2°C 34% Calm Calm 4.0 mph6.4 kmh 29.76 in1007.8 mb 0.00 in0.0 mm 0.00 in0.0 mm 0.00 in0.0 mm
10:21 AM 73.2°F22.9°C 43.9°F6.6°C 35% Calm Calm 2.0 mph3.2 kmh 29.77 in1008.1 mb 0.00 in0.0 mm 0.00 in0.0 mm 0.00 in0.0 mm
10:20 AM 73.3°F22.9°C 43.3°F6.3°C 34% Calm Calm 1.0 mph1.6 kmh 29.77 in1008.1 mb 0.00 in0.0 mm 0.00 in0.0 mm 0.00 in0.0 mm
10:19 AM 73.3°F22.9°C 44.0°F6.7°C 35% Calm Calm 1.0 mph1.6 kmh 29.77 in1008.1 mb 0.00 in0.0 mm 0.00 in0.0 mm 0.00 in0.0 mm
10:18 AM 73.3°F22.9°C 44.0°F6.7°C 35% 1.0 mph N1.6 kmh N 1.0 mph1.6 kmh 29.76 in1007.8 mb 0.00 in0.0 mm 0.00 in0.0 mm 0.00 in0.0 mm
10:17 AM 73.3°F22.9°C 44.0°F6.7°C 35% Calm Calm 1.0 mph1.6 kmh 29.76 in1007.8 mb 0.00 in0.0 mm 0.00 in0.0 mm 0.00 in0.0 mm
10:16 AM 73.3°F22.9°C 44.0°F6.7°C 35% Calm Calm 5.0 mph8.0 kmh 29.77 in1008.1 mb 0.00 in0.0 mm 0.00 in0.0 mm 0.00 in0.0 mm
10:15 AM 73.3°F22.9°C 44.0°F6.7°C 35% 2.0 mph N3.2 kmh N 2.0 mph3.2 kmh 29.76 in1007.8 mb 0.00 in0.0 mm 0.00 in0.0 mm 0.00 in0.0 mm
10:14 AM 73.3°F22.9°C 44.8°F7.1°C 36% Calm Calm -- 29.76 in1007.8 mb 0.00 in0.0 mm 0.00 in0.0 mm 0.00 in0.0 mm
10:13 AM 73.1°F22.8°C 44.6°F7.0°C 36% Calm Calm -- 29.77 in1008.1 mb 0.00 in0.0 mm 0.00 in0.0 mm 0.00 in0.0 mm
10:12 AM 73.1°F22.8°C 44.6°F7.0°C 36% Calm Calm 1.0 mph1.6 kmh 29.77 in1008.1 mb 0.00 in0.0 mm 0.00 in0.0 mm 0.00 in0.0 mm
10:11 AM 73.0°F22.8°C 44.5°F6.9°C 36% Calm Calm 1.0 mph1.6 kmh 29.76 in1007.8 mb 0.00 in0.0 mm 0.00 in0.0 mm 0.00 in0.0 mm
10:10 AM 72.9°F22.7°C 44.4°F6.9°C 36% Calm Calm 1.0 mph1.6 kmh 29.77 in1008.1 mb 0.00 in0.0 mm 0.00 in0.0 mm 0.00 in0.0 mm
10:09 AM 72.8°F22.7°C 44.3°F6.8°C 36% Calm Calm -- 29.76 in1007.8 mb 0.00 in0.0 mm 0.00 in0.0 mm 0.00 in0.0 mm
10:08 AM 72.7°F22.6°C 44.2°F6.8°C 36% Calm Calm -- 29.77 in1008.1 mb 0.00 in0.0 mm 0.00 in0.0 mm 0.00 in0.0 mm
10:07 AM 72.5°F22.5°C 43.3°F6.3°C 35% Calm Calm 2.0 mph3.2 kmh 29.77 in1008.1 mb 0.00 in0.0 mm 0.00 in0.0 mm 0.00 in0.0 mm
10:06 AM 72.4°F22.4°C 44.0°F6.7°C 36% 1.0 mph N1.6 kmh N 2.0 mph3.2 kmh 29.77 in1008.1 mb 0.00 in0.0 mm 0.00 in0.0 mm 0.00 in0.0 mm
10:05 AM 72.3°F22.4°C 44.6°F7.0°C 37% 2.0 mph N3.2 kmh N 2.0 mph3.2 kmh 29.77 in1008.1 mb 0.00 in0.0 mm 0.00 in0.0 mm 0.00 in0.0 mm
10:04 AM 72.2°F22.3°C 44.5°F6.9°C 37% Calm Calm 1.0 mph1.6 kmh 29.77 in1008.1 mb 0.00 in0.0 mm 0.00 in0.0 mm 0.00 in0.0 mm
10:03 AM 72.1°F22.3°C 45.1°F7.3°C 38% Calm Calm -- 29.77 in1008.1 mb 0.00 in0.0 mm 0.00 in0.0 mm 0.00 in0.0 mm
10:02 AM 72.0°F22.2°C 44.3°F6.8°C 37% Calm Calm -- 29.77 in1008.1 mb 0.00 in0.0 mm 0.00 in0.0 mm 0.00 in0.0 mm
10:01 AM 71.9°F22.2°C 44.2°F6.8°C 37% Calm Calm -- 29.77 in1008.1 mb 0.00 in0.0 mm 0.00 in0.0 mm 0.00 in0.0 mm
10:00 AM 71.7°F22.1°C 43.4°F6.3°C 36% Calm Calm 1.0 mph1.6 kmh 29.77 in1008.1 mb 0.00 in0.0 mm 0.00 in0.0 mm 0.00 in0.0 mm
09:59 AM 71.5°F21.9°C 43.9°F6.6°C 37% 1.0 mph N1.6 kmh N 1.0 mph1.6 kmh 29.77 in1008.1 mb 0.00 in0.0 mm 0.00 in0.0 mm 0.00 in0.0 mm
09:58 AM 71.4°F21.9°C 43.8°F6.6°C 37% Calm Calm 1.0 mph1.6 kmh 29.77 in1008.1 mb 0.00 in0.0 mm 0.00 in0.0 mm 0.00 in0.0 mm
09:57 AM 71.2°F21.8°C 43.6°F6.4°C 37% Calm Calm 2.0 mph3.2 kmh 29.76 in1007.8 mb 0.00 in0.0 mm 0.00 in0.0 mm 0.00 in0.0 mm
09:56 AM 71.0°F21.7°C 45.5°F7.5°C 40% Calm Calm 2.0 mph3.2 kmh 29.76 in1007.8 mb 0.00 in0.0 mm 0.00 in0.0 mm 0.00 in0.0 mm
09:55 AM 70.9°F21.6°C 45.4°F7.4°C 40% Calm Calm -- 29.77 in1008.1 mb 0.00 in0.0 mm 0.00 in0.0 mm 0.00 in0.0 mm
09:54 AM 70.8°F21.6°C 46.0°F7.8°C 41% Calm Calm -- 29.76 in1007.8 mb 0.00 in0.0 mm 0.00 in0.0 mm 0.00 in0.0 mm
09:53 AM 70.6°F21.4°C 45.8°F7.7°C 41% Calm Calm 1.0 mph1.6 kmh 29.76 in1007.8 mb 0.00 in0.0 mm 0.00 in0.0 mm 0.00 in0.0 mm
09:52 AM 70.6°F21.4°C 46.4°F8.0°C 42% Calm Calm -- 29.76 in1007.8 mb 0.00 in0.0 mm 0.00 in0.0 mm 0.00 in0.0 mm
09:51 AM 70.5°F21.4°C 46.3°F7.9°C 42% Calm Calm -- 29.76 in1007.8 mb 0.00 in0.0 mm 0.00 in0.0 mm 0.00 in0.0 mm
09:50 AM 70.4°F21.3°C 46.2°F7.9°C 42% Calm Calm 1.0 mph1.6 kmh 29.76 in1007.8 mb 0.00 in0.0 mm 0.00 in0.0 mm 0.00 in0.0 mm
09:49 AM 70.3°F21.3°C 46.2°F7.9°C 42% Calm Calm 1.0 mph1.6 kmh 29.76 in1007.8 mb 0.00 in0.0 mm 0.00 in0.0 mm 0.00 in0.0 mm
09:48 AM 70.3°F21.3°C 46.8°F8.2°C 43% 1.0 mph N1.6 kmh N 1.0 mph1.6 kmh 29.76 in1007.8 mb 0.00 in0.0 mm 0.00 in0.0 mm 0.00 in0.0 mm
09:47 AM 70.2°F21.2°C 46.7°F8.2°C 43% 1.0 mph N1.6 kmh N 1.0 mph1.6 kmh 29.76 in1007.8 mb 0.00 in0.0 mm 0.00 in0.0 mm 0.00 in0.0 mm
09:46 AM 70.1°F21.2°C 47.2°F8.4°C 44% Calm Calm -- 29.77 in1008.1 mb 0.00 in0.0 mm 0.00 in0.0 mm 0.00 in0.0 mm
09:45 AM 70.1°F21.2°C 46.6°F8.1°C 43% Calm Calm 1.0 mph1.6 kmh 29.76 in1007.8 mb 0.00 in0.0 mm 0.00 in0.0 mm 0.00 in0.0 mm
09:44 AM 70.0°F21.1°C 47.7°F8.7°C 45% Calm Calm 1.0 mph1.6 kmh 29.76 in1007.8 mb 0.00 in0.0 mm 0.00 in0.0 mm 0.00 in0.0 mm
09:43 AM 69.9°F21.1°C 47.6°F8.7°C 45% Calm Calm 4.0 mph6.4 kmh 29.76 in1007.8 mb 0.00 in0.0 mm 0.00 in0.0 mm 0.00 in0.0 mm
09:42 AM 69.9°F21.1°C 47.6°F8.7°C 45% Calm Calm 4.0 mph6.4 kmh 29.76 in1007.8 mb 0.00 in0.0 mm 0.00 in0.0 mm 0.00 in0.0 mm
09:41 AM 69.9°F21.1°C 48.2°F9.0°C 46% Calm Calm 1.0 mph1.6 kmh 29.76 in1007.8 mb 0.00 in0.0 mm 0.00 in0.0 mm 0.00 in0.0 mm
09:40 AM 69.8°F21.0°C 48.1°F8.9°C 46% 1.0 mph N1.6 kmh N 1.0 mph1.6 kmh 29.76 in1007.8 mb 0.00 in0.0 mm 0.00 in0.0 mm 0.00 in0.0 mm
09:39 AM 69.8°F21.0°C 48.1°F8.9°C 46% Calm Calm 1.0 mph1.6 kmh 29.76 in1007.8 mb 0.00 in0.0 mm 0.00 in0.0 mm 0.00 in0.0 mm
09:38 AM 69.7°F20.9°C 48.0°F8.9°C 46% Calm Calm 1.0 mph1.6 kmh 29.76 in1007.8 mb 0.00 in0.0 mm 0.00 in0.0 mm 0.00 in0.0 mm
09:37 AM 69.7°F20.9°C 48.0°F8.9°C 46% Calm Calm 1.0 mph1.6 kmh 29.76 in1007.8 mb 0.00 in0.0 mm 0.00 in0.0 mm 0.00 in0.0 mm
09:36 AM 69.7°F20.9°C 48.0°F8.9°C 46% Calm Calm 1.0 mph1.6 kmh 29.76 in1007.8 mb 0.00 in0.0 mm 0.00 in0.0 mm 0.00 in0.0 mm
09:35 AM 69.7°F20.9°C 48.0°F8.9°C 46% Calm Calm -- 29.76 in1007.8 mb 0.00 in0.0 mm 0.00 in0.0 mm 0.00 in0.0 mm
09:34 AM 69.7°F20.9°C 47.4°F8.6°C 45% Calm Calm -- 29.76 in1007.8 mb 0.00 in0.0 mm 0.00 in0.0 mm 0.00 in0.0 mm
09:33 AM 69.6°F20.9°C 46.8°F8.2°C 44% Calm Calm -- 29.76 in1007.8 mb 0.00 in0.0 mm 0.00 in0.0 mm 0.00 in0.0 mm
09:32 AM 69.7°F20.9°C 46.8°F8.2°C 44% Calm Calm 1.0 mph1.6 kmh 29.76 in1007.8 mb 0.00 in0.0 mm 0.00 in0.0 mm 0.00 in0.0 mm
09:31 AM 69.7°F20.9°C 46.8°F8.2°C 44% Calm Calm 1.0 mph1.6 kmh 29.76 in1007.8 mb 0.00 in0.0 mm 0.00 in0.0 mm 0.00 in0.0 mm
09:30 AM 69.7°F20.9°C 46.8°F8.2°C 44% Calm Calm 1.0 mph1.6 kmh 29.77 in1008.1 mb 0.00 in0.0 mm 0.00 in0.0 mm 0.00 in0.0 mm
09:29 AM 69.7°F20.9°C 46.2°F7.9°C 43% 1.0 mph N1.6 kmh N 1.0 mph1.6 kmh 29.76 in1007.8 mb 0.00 in0.0 mm 0.00 in0.0 mm 0.00 in0.0 mm
09:28 AM 69.8°F21.0°C 46.3°F7.9°C 43% Calm Calm 1.0 mph1.6 kmh 29.76 in1007.8 mb 0.00 in0.0 mm 0.00 in0.0 mm 0.00 in0.0 mm
09:27 AM 69.8°F21.0°C 46.3°F7.9°C 43% Calm Calm 1.0 mph1.6 kmh 29.76 in1007.8 mb 0.00 in0.0 mm 0.00 in0.0 mm 0.00 in0.0 mm
09:26 AM 69.8°F21.0°C 46.3°F7.9°C 43% Calm Calm 1.0 mph1.6 kmh 29.76 in1007.8 mb 0.00 in0.0 mm 0.00 in0.0 mm 0.00 in0.0 mm
09:25 AM 69.8°F21.0°C 46.9°F8.3°C 44% Calm Calm 2.0 mph3.2 kmh 29.77 in1008.1 mb 0.00 in0.0 mm 0.00 in0.0 mm 0.00 in0.0 mm
09:24 AM 69.8°F21.0°C 46.3°F7.9°C 43% Calm Calm 2.0 mph3.2 kmh 29.76 in1007.8 mb 0.00 in0.0 mm 0.00 in0.0 mm 0.00 in0.0 mm
09:23 AM 69.8°F21.0°C 46.9°F8.3°C 44% Calm Calm 2.0 mph3.2 kmh 29.76 in1007.8 mb 0.00 in0.0 mm 0.00 in0.0 mm 0.00 in0.0 mm
09:22 AM 69.8°F21.0°C 46.9°F8.3°C 44% Calm Calm 2.0 mph3.2 kmh 29.76 in1007.8 mb 0.00 in0.0 mm 0.00 in0.0 mm 0.00 in0.0 mm
09:21 AM 69.8°F21.0°C 47.5°F8.6°C 45% Calm Calm 2.0 mph3.2 kmh 29.76 in1007.8 mb 0.00 in0.0 mm 0.00 in0.0 mm 0.00 in0.0 mm
09:20 AM 69.8°F21.0°C 47.5°F8.6°C 45% Calm Calm -- 29.77 in1008.1 mb 0.00 in0.0 mm 0.00 in0.0 mm 0.00 in0.0 mm
09:19 AM 69.7°F20.9°C 47.4°F8.6°C 45% Calm Calm 4.0 mph6.4 kmh 29.77 in1008.1 mb 0.00 in0.0 mm 0.00 in0.0 mm 0.00 in0.0 mm
09:18 AM 69.7°F20.9°C 48.0°F8.9°C 46% 4.0 mph N6.4 kmh N 4.0 mph6.4 kmh 29.77 in1008.1 mb 0.00 in0.0 mm 0.00 in0.0 mm 0.00 in0.0 mm
09:17 AM 69.6°F20.9°C 47.9°F8.8°C 46% Calm Calm -- 29.77 in1008.1 mb 0.00 in0.0 mm 0.00 in0.0 mm 0.00 in0.0 mm
09:16 AM 69.5°F20.8°C 47.3°F8.5°C 45% Calm Calm 1.0 mph1.6 kmh 29.77 in1008.1 mb 0.00 in0.0 mm 0.00 in0.0 mm 0.00 in0.0 mm
09:15 AM 69.4°F20.8°C 47.2°F8.4°C 45% Calm Calm 1.0 mph1.6 kmh 29.77 in1008.1 mb 0.00 in0.0 mm 0.00 in0.0 mm 0.00 in0.0 mm
09:14 AM 69.3°F20.7°C 47.7°F8.7°C 46% 1.0 mph N1.6 kmh N 1.0 mph1.6 kmh 29.77 in1008.1 mb 0.00 in0.0 mm 0.00 in0.0 mm 0.00 in0.0 mm
09:13 AM 69.2°F20.7°C 47.6°F8.7°C 46% Calm Calm 1.0 mph1.6 kmh 29.77 in1008.1 mb 0.00 in0.0 mm 0.00 in0.0 mm 0.00 in0.0 mm
09:12 AM 69.1°F20.6°C 47.5°F8.6°C 46% Calm Calm 1.0 mph1.6 kmh 29.77 in1008.1 mb 0.00 in0.0 mm 0.00 in0.0 mm 0.00 in0.0 mm
09:11 AM 68.9°F20.5°C 47.3°F8.5°C 46% Calm Calm -- 29.77 in1008.1 mb 0.00 in0.0 mm 0.00 in0.0 mm 0.00 in0.0 mm
09:10 AM 68.9°F20.5°C 47.3°F8.5°C 46% Calm Calm 1.0 mph1.6 kmh 29.77 in1008.1 mb 0.00 in0.0 mm 0.00 in0.0 mm 0.00 in0.0 mm
09:09 AM 68.7°F20.4°C 47.7°F8.7°C 47% Calm Calm 1.0 mph1.6 kmh 29.77 in1008.1 mb 0.00 in0.0 mm 0.00 in0.0 mm 0.00 in0.0 mm
09:08 AM 68.6°F20.3°C 47.6°F8.7°C 47% Calm Calm 2.0 mph3.2 kmh 29.77 in1008.1 mb 0.00 in0.0 mm 0.00 in0.0 mm 0.00 in0.0 mm
09:07 AM 68.5°F20.3°C 47.5°F8.6°C 47% Calm Calm -- 29.77 in1008.1 mb 0.00 in0.0 mm 0.00 in0.0 mm 0.00 in0.0 mm
09:06 AM 68.4°F20.2°C 47.4°F8.6°C 47% Calm Calm -- 29.77 in1008.1 mb 0.00 in0.0 mm 0.00 in0.0 mm 0.00 in0.0 mm
09:05 AM 68.3°F20.2°C 47.9°F8.8°C 48% Calm Calm -- 29.77 in1008.1 mb 0.00 in0.0 mm 0.00 in0.0 mm 0.00 in0.0 mm
09:04 AM 68.1°F20.1°C 47.1°F8.4°C 47% Calm Calm -- 29.77 in1008.1 mb 0.00 in0.0 mm 0.00 in0.0 mm 0.00 in0.0 mm
09:03 AM 67.9°F19.9°C 47.0°F8.3°C 47% Calm Calm -- 29.76 in1007.8 mb 0.00 in0.0 mm 0.00 in0.0 mm 0.00 in0.0 mm
09:02 AM 67.8°F19.9°C 47.4°F8.6°C 48% Calm Calm -- 29.77 in1008.1 mb 0.00 in0.0 mm 0.00 in0.0 mm 0.00 in0.0 mm
09:01 AM 67.6°F19.8°C 46.7°F8.2°C 47% Calm Calm -- 29.76 in1007.8 mb 0.00 in0.0 mm 0.00 in0.0 mm 0.00 in0.0 mm
09:00 AM 67.3°F19.6°C 46.4°F8.0°C 47% Calm Calm -- 29.77 in1008.1 mb 0.00 in0.0 mm 0.00 in0.0 mm 0.00 in0.0 mm
08:59 AM 67.1°F19.5°C 46.8°F8.2°C 48% Calm Calm -- 29.76 in1007.8 mb 0.00 in0.0 mm 0.00 in0.0 mm 0.00 in0.0 mm
08:58 AM 67.0°F19.4°C 46.1°F7.8°C 47% Calm Calm -- 29.77 in1008.1 mb 0.00 in0.0 mm 0.00 in0.0 mm 0.00 in0.0 mm
08:57 AM 66.7°F19.3°C 45.9°F7.7°C 47% Calm Calm -- 29.76 in1007.8 mb 0.00 in0.0 mm 0.00 in0.0 mm 0.00 in0.0 mm
08:56 AM 66.6°F19.2°C 45.8°F7.7°C 47% Calm Calm -- 29.76 in1007.8 mb 0.00 in0.0 mm 0.00 in0.0 mm 0.00 in0.0 mm
08:55 AM 66.4°F19.1°C 45.6°F7.6°C 47% Calm Calm -- 29.76 in1007.8 mb 0.00 in0.0 mm 0.00 in0.0 mm 0.00 in0.0 mm
08:54 AM 66.2°F19.0°C 45.4°F7.4°C 47% Calm Calm -- 29.76 in1007.8 mb 0.00 in0.0 mm 0.00 in0.0 mm 0.00 in0.0 mm
08:53 AM 66.0°F18.9°C 45.2°F7.3°C 47% Calm Calm -- 29.76 in1007.8 mb 0.00 in0.0 mm 0.00 in0.0 mm 0.00 in0.0 mm
08:52 AM 65.7°F18.7°C 45.5°F7.5°C 48% Calm Calm -- 29.77 in1008.1 mb 0.00 in0.0 mm 0.00 in0.0 mm 0.00 in0.0 mm
08:51 AM 65.5°F18.6°C 44.8°F7.1°C 47% Calm Calm -- 29.77 in1008.1 mb 0.00 in0.0 mm 0.00 in0.0 mm 0.00 in0.0 mm
08:50 AM 65.2°F18.4°C 45.0°F7.2°C 48% Calm Calm -- 29.76 in1007.8 mb 0.00 in0.0 mm 0.00 in0.0 mm 0.00 in0.0 mm
08:49 AM 64.9°F18.3°C 44.8°F7.1°C 48% Calm Calm -- 29.76 in1007.8 mb 0.00 in0.0 mm 0.00 in0.0 mm 0.00 in0.0 mm
08:48 AM 64.6°F18.1°C 44.5°F6.9°C 48% Calm Calm -- 29.76 in1007.8 mb 0.00 in0.0 mm 0.00 in0.0 mm 0.00 in0.0 mm
08:47 AM 64.3°F17.9°C 44.8°F7.1°C 49% Calm Calm -- 29.76 in1007.8 mb 0.00 in0.0 mm 0.00 in0.0 mm 0.00 in0.0 mm
08:46 AM 63.9°F17.7°C 44.4°F6.9°C 49% Calm Calm -- 29.76 in1007.8 mb 0.00 in0.0 mm 0.00 in0.0 mm 0.00 in0.0 mm
08:45 AM 63.6°F17.6°C 44.6°F7.0°C 50% Calm Calm -- 29.76 in1007.8 mb 0.00 in0.0 mm 0.00 in0.0 mm 0.00 in0.0 mm
08:44 AM 63.3°F17.4°C 44.4°F6.9°C 50% Calm Calm -- 29.76 in1007.8 mb 0.00 in0.0 mm 0.00 in0.0 mm 0.00 in0.0 mm
08:43 AM 62.9°F17.2°C 45.0°F7.2°C 52% Calm Calm -- 29.76 in1007.8 mb 0.00 in0.0 mm 0.00 in0.0 mm 0.00 in0.0 mm
08:42 AM 62.7°F17.1°C 45.3°F7.4°C 53% Calm Calm -- 29.76 in1007.8 mb 0.00 in0.0 mm 0.00 in0.0 mm 0.00 in0.0 mm
08:41 AM 62.5°F16.9°C 45.2°F7.3°C 53% Calm Calm -- 29.76 in1007.8 mb 0.00 in0.0 mm 0.00 in0.0 mm 0.00 in0.0 mm
08:40 AM 62.2°F16.8°C 44.9°F7.2°C 53% Calm Calm -- 29.76 in1007.8 mb 0.00 in0.0 mm 0.00 in0.0 mm 0.00 in0.0 mm
08:39 AM 61.9°F16.6°C 44.6°F7.0°C 53% Calm Calm -- 29.76 in1007.8 mb 0.00 in0.0 mm 0.00 in0.0 mm 0.00 in0.0 mm
08:38 AM 61.7°F16.5°C 44.4°F6.9°C 53% Calm Calm -- 29.76 in1007.8 mb 0.00 in0.0 mm 0.00 in0.0 mm 0.00 in0.0 mm
08:37 AM 61.5°F16.4°C 44.2°F6.8°C 53% Calm Calm -- 29.76 in1007.8 mb 0.00 in0.0 mm 0.00 in0.0 mm 0.00 in0.0 mm
08:36 AM 61.4°F16.3°C 44.1°F6.7°C 53% Calm Calm -- 29.76 in1007.8 mb 0.00 in0.0 mm 0.00 in0.0 mm 0.00 in0.0 mm
08:35 AM 61.2°F16.2°C 44.0°F6.7°C 53% Calm Calm -- 29.76 in1007.8 mb 0.00 in0.0 mm 0.00 in0.0 mm 0.00 in0.0 mm
08:34 AM 61.1°F16.2°C 43.4°F6.3°C 52% Calm Calm -- 29.76 in1007.8 mb 0.00 in0.0 mm 0.00 in0.0 mm 0.00 in0.0 mm
08:33 AM 60.9°F16.1°C 43.2°F6.2°C 52% Calm Calm -- 29.76 in1007.8 mb 0.00 in0.0 mm 0.00 in0.0 mm 0.00 in0.0 mm
08:32 AM 60.8°F16.0°C 43.1°F6.2°C 52% Calm Calm -- 29.76 in1007.8 mb 0.00 in0.0 mm 0.00 in0.0 mm 0.00 in0.0 mm
08:31 AM 60.7°F15.9°C 43.5°F6.4°C 53% Calm Calm -- 29.76 in1007.8 mb 0.00 in0.0 mm 0.00 in0.0 mm 0.00 in0.0 mm
08:29 AM 60.5°F15.8°C 42.8°F6.0°C 52% Calm Calm -- 29.76 in1007.8 mb 0.00 in0.0 mm 0.00 in0.0 mm 0.00 in0.0 mm
08:28 AM 60.4°F15.8°C 43.2°F6.2°C 53% Calm Calm -- 29.76 in1007.8 mb 0.00 in0.0 mm 0.00 in0.0 mm 0.00 in0.0 mm
08:27 AM 60.3°F15.7°C 43.1°F6.2°C 53% Calm Calm -- 29.76 in1007.8 mb 0.00 in0.0 mm 0.00 in0.0 mm 0.00 in0.0 mm
08:26 AM 60.2°F15.7°C 42.5°F5.8°C 52% Calm Calm -- 29.76 in1007.8 mb 0.00 in0.0 mm 0.00 in0.0 mm 0.00 in0.0 mm
08:25 AM 60.1°F15.6°C 42.4°F5.8°C 52% Calm Calm -- 29.76 in1007.8 mb 0.00 in0.0 mm 0.00 in0.0 mm 0.00 in0.0 mm
08:24 AM 60.0°F15.6°C 42.3°F5.7°C 52% Calm Calm -- 29.76 in1007.8 mb 0.00 in0.0 mm 0.00 in0.0 mm 0.00 in0.0 mm
08:23 AM 60.0°F15.6°C 42.3°F5.7°C 52% Calm Calm -- 29.76 in1007.8 mb 0.00 in0.0 mm 0.00 in0.0 mm 0.00 in0.0 mm
08:22 AM 59.8°F15.4°C 42.2°F5.7°C 52% Calm Calm -- 29.76 in1007.8 mb 0.00 in0.0 mm 0.00 in0.0 mm 0.00 in0.0 mm
08:21 AM 59.7°F15.4°C 42.1°F5.6°C 52% Calm Calm -- 29.76 in1007.8 mb 0.00 in0.0 mm 0.00 in0.0 mm 0.00 in0.0 mm
08:20 AM 59.7°F15.4°C 42.6°F5.9°C 53% Calm Calm -- 29.76 in1007.8 mb 0.00 in0.0 mm 0.00 in0.0 mm 0.00 in0.0 mm
08:19 AM 59.6°F15.3°C 42.0°F5.6°C 52% Calm Calm -- 29.76 in1007.8 mb 0.00 in0.0 mm 0.00 in0.0 mm 0.00 in0.0 mm
08:18 AM 59.5°F15.3°C 41.9°F5.5°C 52% Calm Calm -- 29.76 in1007.8 mb 0.00 in0.0 mm 0.00 in0.0 mm 0.00 in0.0 mm
08:17 AM 59.5°F15.3°C 41.9°F5.5°C 52% Calm Calm -- 29.76 in1007.8 mb 0.00 in0.0 mm 0.00 in0.0 mm 0.00 in0.0 mm
08:16 AM 59.4°F15.2°C 41.8°F5.4°C 52% Calm Calm -- 29.76 in1007.8 mb 0.00 in0.0 mm 0.00 in0.0 mm 0.00 in0.0 mm
08:15 AM 59.4°F15.2°C 41.8°F5.4°C 52% Calm Calm -- 29.76 in1007.8 mb 0.00 in0.0 mm 0.00 in0.0 mm 0.00 in0.0 mm
08:14 AM 59.3°F15.2°C 41.2°F5.1°C 51% Calm Calm -- 29.76 in1007.8 mb 0.00 in0.0 mm 0.00 in0.0 mm 0.00 in0.0 mm
08:13 AM 59.3°F15.2°C 41.2°F5.1°C 51% Calm Calm -- 29.76 in1007.8 mb 0.00 in0.0 mm 0.00 in0.0 mm 0.00 in0.0 mm
08:12 AM 59.2°F15.1°C 41.6°F5.3°C 52% Calm Calm -- 29.76 in1007.8 mb 0.00 in0.0 mm 0.00 in0.0 mm 0.00 in0.0 mm
08:11 AM 59.2°F15.1°C 41.6°F5.3°C 52% Calm Calm -- 29.76 in1007.8 mb 0.00 in0.0 mm 0.00 in0.0 mm 0.00 in0.0 mm
08:10 AM 59.1°F15.1°C 41.5°F5.3°C 52% Calm Calm -- 29.76 in1007.8 mb 0.00 in0.0 mm 0.00 in0.0 mm 0.00 in0.0 mm
08:09 AM 59.1°F15.1°C 41.5°F5.3°C 52% Calm Calm -- 29.76 in1007.8 mb 0.00 in0.0 mm 0.00 in0.0 mm 0.00 in0.0 mm
08:08 AM 59.0°F15.0°C 41.4°F5.2°C 52% Calm Calm -- 29.76 in1007.8 mb 0.00 in0.0 mm 0.00 in0.0 mm 0.00 in0.0 mm
08:07 AM 59.0°F15.0°C 41.4°F5.2°C 52% Calm Calm -- 29.76 in1007.8 mb 0.00 in0.0 mm 0.00 in0.0 mm 0.00 in0.0 mm
08:06 AM 59.0°F15.0°C 41.9°F5.5°C 53% Calm Calm -- 29.76 in1007.8 mb 0.00 in0.0 mm 0.00 in0.0 mm 0.00 in0.0 mm
08:05 AM 59.0°F15.0°C 41.4°F5.2°C 52% Calm Calm -- 29.76 in1007.8 mb 0.00 in0.0 mm 0.00 in0.0 mm 0.00 in0.0 mm
08:04 AM 59.0°F15.0°C 41.4°F5.2°C 52% Calm Calm -- 29.76 in1007.8 mb 0.00 in0.0 mm 0.00 in0.0 mm 0.00 in0.0 mm
08:03 AM 58.9°F14.9°C 41.3°F5.2°C 52% Calm Calm -- 29.76 in1007.8 mb 0.00 in0.0 mm 0.00 in0.0 mm 0.00 in0.0 mm
08:02 AM 58.9°F14.9°C 40.8°F4.9°C 51% Calm Calm -- 29.76 in1007.8 mb 0.00 in0.0 mm 0.00 in0.0 mm 0.00 in0.0 mm
08:01 AM 58.9°F14.9°C 40.3°F4.6°C 50% Calm Calm -- 29.76 in1007.8 mb 0.00 in0.0 mm 0.00 in0.0 mm 0.00 in0.0 mm
08:00 AM 58.9°F14.9°C 40.3°F4.6°C 50% Calm Calm -- 29.76 in1007.8 mb 0.00 in0.0 mm 0.00 in0.0 mm 0.00 in0.0 mm
07:59 AM 58.9°F14.9°C 40.3°F4.6°C 50% Calm Calm -- 29.76 in1007.8 mb 0.00 in0.0 mm 0.00 in0.0 mm 0.00 in0.0 mm
07:58 AM 58.9°F14.9°C 40.3°F4.6°C 50% Calm Calm -- 29.76 in1007.8 mb 0.00 in0.0 mm 0.00 in0.0 mm 0.00 in0.0 mm
07:57 AM 58.9°F14.9°C 40.3°F4.6°C 50% Calm Calm -- 29.75 in1007.5 mb 0.00 in0.0 mm 0.00 in0.0 mm 0.00 in0.0 mm
07:56 AM 58.9°F14.9°C 39.8°F4.3°C 49% Calm Calm -- 29.76 in1007.8 mb 0.00 in0.0 mm 0.00 in0.0 mm 0.00 in0.0 mm
07:55 AM 58.9°F14.9°C 39.8°F4.3°C 49% Calm Calm -- 29.76 in1007.8 mb 0.00 in0.0 mm 0.00 in0.0 mm 0.00 in0.0 mm
07:54 AM 58.8°F14.9°C 39.7°F4.3°C 49% Calm Calm -- 29.76 in1007.8 mb 0.00 in0.0 mm 0.00 in0.0 mm 0.00 in0.0 mm
07:53 AM 58.9°F14.9°C 39.3°F4.1°C 48% Calm Calm -- 29.76 in1007.8 mb 0.00 in0.0 mm 0.00 in0.0 mm 0.00 in0.0 mm
07:52 AM 58.8°F14.9°C 39.2°F4.0°C 48% Calm Calm -- 29.75 in1007.5 mb 0.00 in0.0 mm 0.00 in0.0 mm 0.00 in0.0 mm
07:51 AM 58.8°F14.9°C 39.2°F4.0°C 48% Calm Calm -- 29.76 in1007.8 mb 0.00 in0.0 mm 0.00 in0.0 mm 0.00 in0.0 mm
07:50 AM 58.8°F14.9°C 38.6°F3.7°C 47% Calm Calm -- 29.76 in1007.8 mb 0.00 in0.0 mm 0.00 in0.0 mm 0.00 in0.0 mm
07:49 AM 58.7°F14.8°C 38.5°F3.6°C 47% Calm Calm -- 29.76 in1007.8 mb 0.00 in0.0 mm 0.00 in0.0 mm 0.00 in0.0 mm
07:48 AM 58.7°F14.8°C 38.5°F3.6°C 47% Calm Calm -- 29.76 in1007.8 mb 0.00 in0.0 mm 0.00 in0.0 mm 0.00 in0.0 mm
07:47 AM 58.7°F14.8°C 38.5°F3.6°C 47% Calm Calm -- 29.75 in1007.5 mb 0.00 in0.0 mm 0.00 in0.0 mm 0.00 in0.0 mm
07:46 AM 58.7°F14.8°C 38.5°F3.6°C 47% Calm Calm -- 29.76 in1007.8 mb 0.00 in0.0 mm 0.00 in0.0 mm 0.00 in0.0 mm
07:45 AM 58.6°F14.8°C 38.5°F3.6°C 47% Calm Calm -- 29.75 in1007.5 mb 0.00 in0.0 mm 0.00 in0.0 mm 0.00 in0.0 mm
07:44 AM 58.6°F14.8°C 38.5°F3.6°C 47% Calm Calm -- 29.75 in1007.5 mb 0.00 in0.0 mm 0.00 in0.0 mm 0.00 in0.0 mm
07:43 AM 58.5°F14.7°C 37.8°F3.2°C 46% Calm Calm -- 29.75 in1007.5 mb 0.00 in0.0 mm 0.00 in0.0 mm 0.00 in0.0 mm
07:42 AM 58.5°F14.7°C 37.8°F3.2°C 46% Calm Calm -- 29.75 in1007.5 mb 0.00 in0.0 mm 0.00 in0.0 mm 0.00 in0.0 mm
07:41 AM 58.5°F14.7°C 37.8°F3.2°C 46% Calm Calm -- 29.75 in1007.5 mb 0.00 in0.0 mm 0.00 in0.0 mm 0.00 in0.0 mm
07:40 AM 58.5°F14.7°C 37.8°F3.2°C 46% Calm Calm -- 29.75 in1007.5 mb 0.00 in0.0 mm 0.00 in0.0 mm 0.00 in0.0 mm
07:39 AM 58.5°F14.7°C 37.8°F3.2°C 46% Calm Calm -- 29.75 in1007.5 mb 0.00 in0.0 mm 0.00 in0.0 mm 0.00 in0.0 mm
07:38 AM 58.5°F14.7°C 37.3°F2.9°C 45% Calm Calm -- 29.75 in1007.5 mb 0.00 in0.0 mm 0.00 in0.0 mm 0.00 in0.0 mm
07:37 AM 58.5°F14.7°C 37.3°F2.9°C 45% Calm Calm -- 29.75 in1007.5 mb 0.00 in0.0 mm 0.00 in0.0 mm 0.00 in0.0 mm
07:36 AM 58.5°F14.7°C 37.3°F2.9°C 45% Calm Calm -- 29.75 in1007.5 mb 0.00 in0.0 mm 0.00 in0.0 mm 0.00 in0.0 mm
07:35 AM 58.5°F14.7°C 36.7°F2.6°C 44% Calm Calm -- 29.75 in1007.5 mb 0.00 in0.0 mm 0.00 in0.0 mm 0.00 in0.0 mm
07:34 AM 58.6°F14.8°C 36.8°F2.7°C 44% Calm Calm -- 29.75 in1007.5 mb 0.00 in0.0 mm 0.00 in0.0 mm 0.00 in0.0 mm
07:33 AM 58.6°F14.8°C 36.8°F2.7°C 44% Calm Calm -- 29.75 in1007.5 mb 0.00 in0.0 mm 0.00 in0.0 mm 0.00 in0.0 mm
07:32 AM 58.6°F14.8°C 36.8°F2.7°C 44% Calm Calm -- 29.75 in1007.5 mb 0.00 in0.0 mm 0.00 in0.0 mm 0.00 in0.0 mm
07:31 AM 58.6°F14.8°C 37.3°F2.9°C 45% Calm Calm -- 29.75 in1007.5 mb 0.00 in0.0 mm 0.00 in0.0 mm 0.00 in0.0 mm
07:30 AM 58.6°F14.8°C 36.8°F2.7°C 44% Calm Calm -- 29.75 in1007.5 mb 0.00 in0.0 mm 0.00 in0.0 mm 0.00 in0.0 mm
07:29 AM 58.6°F14.8°C 36.8°F2.7°C 44% Calm Calm -- 29.75 in1007.5 mb 0.00 in0.0 mm 0.00 in0.0 mm 0.00 in0.0 mm
07:28 AM 58.5°F14.7°C 36.7°F2.6°C 44% Calm Calm -- 29.75 in1007.5 mb 0.00 in0.0 mm 0.00 in0.0 mm 0.00 in0.0 mm
07:27 AM 58.5°F14.7°C 36.7°F2.6°C 44% Calm Calm 1.0 mph1.6 kmh 29.75 in1007.5 mb 0.00 in0.0 mm 0.00 in0.0 mm 0.00 in0.0 mm
07:26 AM 58.4°F14.7°C 37.2°F2.9°C 45% Calm Calm 1.0 mph1.6 kmh 29.75 in1007.5 mb 0.00 in0.0 mm 0.00 in0.0 mm 0.00 in0.0 mm
07:25 AM 58.4°F14.7°C 37.2°F2.9°C 45% Calm Calm -- 29.75 in1007.5 mb 0.00 in0.0 mm 0.00 in0.0 mm 0.00 in0.0 mm
07:24 AM 58.4°F14.7°C 37.7°F3.2°C 46% Calm Calm -- 29.75 in1007.5 mb 0.00 in0.0 mm 0.00 in0.0 mm 0.00 in0.0 mm
07:23 AM 58.4°F14.7°C 38.3°F3.5°C 47% Calm Calm -- 29.75 in1007.5 mb 0.00 in0.0 mm 0.00 in0.0 mm 0.00 in0.0 mm
07:22 AM 58.4°F14.7°C 38.8°F3.8°C 48% Calm Calm -- 29.75 in1007.5 mb 0.00 in0.0 mm 0.00 in0.0 mm 0.00 in0.0 mm
07:21 AM 58.4°F14.7°C 37.7°F3.2°C 46% Calm Calm -- 29.75 in1007.5 mb 0.00 in0.0 mm 0.00 in0.0 mm 0.00 in0.0 mm
07:20 AM 58.4°F14.7°C 37.7°F3.2°C 46% Calm Calm -- 29.75 in1007.5 mb 0.00 in0.0 mm 0.00 in0.0 mm 0.00 in0.0 mm
07:19 AM 58.3°F14.6°C 36.5°F2.5°C 44% Calm Calm -- 29.75 in1007.5 mb 0.00 in0.0 mm 0.00 in0.0 mm 0.00 in0.0 mm
07:18 AM 58.3°F14.6°C 36.5°F2.5°C 44% Calm Calm -- 29.75 in1007.5 mb 0.00 in0.0 mm 0.00 in0.0 mm 0.00 in0.0 mm
07:17 AM 58.3°F14.6°C 36.5°F2.5°C 44% Calm Calm -- 29.75 in1007.5 mb 0.00 in0.0 mm 0.00 in0.0 mm 0.00 in0.0 mm
07:16 AM 58.3°F14.6°C 36.5°F2.5°C 44% Calm Calm -- 29.75 in1007.5 mb 0.00 in0.0 mm 0.00 in0.0 mm 0.00 in0.0 mm
07:15 AM 58.3°F14.6°C 36.5°F2.5°C 44% Calm Calm -- 29.75 in1007.5 mb 0.00 in0.0 mm 0.00 in0.0 mm 0.00 in0.0 mm
07:14 AM 58.3°F14.6°C 37.1°F2.8°C 45% Calm Calm -- 29.75 in1007.5 mb 0.00 in0.0 mm 0.00 in0.0 mm 0.00 in0.0 mm
07:13 AM 58.2°F14.6°C 37.0°F2.8°C 45% Calm Calm -- 29.75 in1007.5 mb 0.00 in0.0 mm 0.00 in0.0 mm 0.00 in0.0 mm
07:12 AM 58.2°F14.6°C 37.0°F2.8°C 45% Calm Calm -- 29.75 in1007.5 mb 0.00 in0.0 mm 0.00 in0.0 mm 0.00 in0.0 mm
07:11 AM 58.2°F14.6°C 37.0°F2.8°C 45% Calm Calm -- 29.75 in1007.5 mb 0.00 in0.0 mm 0.00 in0.0 mm 0.00 in0.0 mm
07:10 AM 58.2°F14.6°C 37.0°F2.8°C 45% Calm Calm -- 29.75 in1007.5 mb 0.00 in0.0 mm 0.00 in0.0 mm 0.00 in0.0 mm
07:09 AM 58.2°F14.6°C 37.0°F2.8°C 45% Calm Calm -- 29.75 in1007.5 mb 0.00 in0.0 mm 0.00 in0.0 mm 0.00 in0.0 mm
07:08 AM 58.2°F14.6°C 37.0°F2.8°C 45% Calm Calm -- 29.75 in1007.5 mb 0.00 in0.0 mm 0.00 in0.0 mm 0.00 in0.0 mm
07:07 AM 58.1°F14.5°C 36.9°F2.7°C 45% Calm Calm 1.0 mph1.6 kmh 29.75 in1007.5 mb 0.00 in0.0 mm 0.00 in0.0 mm 0.00 in0.0 mm
07:06 AM 58.1°F14.5°C 37.5°F3.1°C 46% Calm Calm -- 29.75 in1007.5 mb 0.00 in0.0 mm 0.00 in0.0 mm 0.00 in0.0 mm
07:05 AM 58.1°F14.5°C 37.5°F3.1°C 46% Calm Calm -- 29.75 in1007.5 mb 0.00 in0.0 mm 0.00 in0.0 mm 0.00 in0.0 mm
07:04 AM 58.1°F14.5°C 37.5°F3.1°C 46% Calm Calm -- 29.75 in1007.5 mb 0.00 in0.0 mm 0.00 in0.0 mm 0.00 in0.0 mm
07:03 AM 58.1°F14.5°C 37.5°F3.1°C 46% Calm Calm -- 29.74 in1007.1 mb 0.00 in0.0 mm 0.00 in0.0 mm 0.00 in0.0 mm
07:02 AM 58.0°F14.4°C 37.9°F3.3°C 47% Calm Calm -- 29.74 in1007.1 mb 0.00 in0.0 mm 0.00 in0.0 mm 0.00 in0.0 mm
07:01 AM 58.0°F14.4°C 37.9°F3.3°C 47% Calm Calm -- 29.74 in1007.1 mb 0.00 in0.0 mm 0.00 in0.0 mm 0.00 in0.0 mm
07:00 AM 57.9°F14.4°C 37.8°F3.2°C 47% Calm Calm -- 29.74 in1007.1 mb 0.00 in0.0 mm 0.00 in0.0 mm 0.00 in0.0 mm
06:59 AM 57.9°F14.4°C 37.8°F3.2°C 47% Calm Calm -- 29.74 in1007.1 mb 0.00 in0.0 mm 0.00 in0.0 mm 0.00 in0.0 mm
06:58 AM 57.8°F14.3°C 37.2°F2.9°C 46% Calm Calm 1.0 mph1.6 kmh 29.74 in1007.1 mb 0.00 in0.0 mm 0.00 in0.0 mm 0.00 in0.0 mm
06:57 AM 57.8°F14.3°C 37.7°F3.2°C 47% Calm Calm 1.0 mph1.6 kmh 29.74 in1007.1 mb 0.00 in0.0 mm 0.00 in0.0 mm 0.00 in0.0 mm
06:56 AM 57.7°F14.3°C 37.6°F3.1°C 47% Calm Calm 2.0 mph3.2 kmh 29.74 in1007.1 mb 0.00 in0.0 mm 0.00 in0.0 mm 0.00 in0.0 mm
06:55 AM 57.6°F14.2°C 37.5°F3.1°C 47% 1.0 mph N1.6 kmh N 1.0 mph1.6 kmh 29.74 in1007.1 mb 0.00 in0.0 mm 0.00 in0.0 mm 0.00 in0.0 mm
06:54 AM 57.6°F14.2°C 37.5°F3.1°C 47% Calm Calm 1.0 mph1.6 kmh 29.74 in1007.1 mb 0.00 in0.0 mm 0.00 in0.0 mm 0.00 in0.0 mm
06:53 AM 57.5°F14.2°C 37.5°F3.1°C 47% Calm Calm 1.0 mph1.6 kmh 29.74 in1007.1 mb 0.00 in0.0 mm 0.00 in0.0 mm 0.00 in0.0 mm
06:52 AM 57.5°F14.2°C 37.5°F3.1°C 47% Calm Calm -- 29.74 in1007.1 mb 0.00 in0.0 mm 0.00 in0.0 mm 0.00 in0.0 mm
06:51 AM 57.3°F14.1°C 37.3°F2.9°C 47% Calm Calm 4.0 mph6.4 kmh 29.74 in1007.1 mb 0.00 in0.0 mm 0.00 in0.0 mm 0.00 in0.0 mm
06:50 AM 57.2°F14.0°C 37.2°F2.9°C 47% Calm Calm 4.0 mph6.4 kmh 29.74 in1007.1 mb 0.00 in0.0 mm 0.00 in0.0 mm 0.00 in0.0 mm
06:49 AM 57.2°F14.0°C 38.2°F3.4°C 49% 1.0 mph N1.6 kmh N 1.0 mph1.6 kmh 29.74 in1007.1 mb 0.00 in0.0 mm 0.00 in0.0 mm 0.00 in0.0 mm
06:48 AM 57.1°F13.9°C 38.7°F3.7°C 50% Calm Calm -- 29.74 in1007.1 mb 0.00 in0.0 mm 0.00 in0.0 mm 0.00 in0.0 mm
06:47 AM 57.1°F13.9°C 39.2°F4.0°C 51% Calm Calm -- 29.74 in1007.1 mb 0.00 in0.0 mm 0.00 in0.0 mm 0.00 in0.0 mm
06:46 AM 57.1°F13.9°C 39.2°F4.0°C 51% Calm Calm -- 29.74 in1007.1 mb 0.00 in0.0 mm 0.00 in0.0 mm 0.00 in0.0 mm
06:45 AM 57.1°F13.9°C 39.7°F4.3°C 52% Calm Calm -- 29.74 in1007.1 mb 0.00 in0.0 mm 0.00 in0.0 mm 0.00 in0.0 mm
06:44 AM 57.1°F13.9°C 40.2°F4.6°C 53% Calm Calm -- 29.74 in1007.1 mb 0.00 in0.0 mm 0.00 in0.0 mm 0.00 in0.0 mm
06:43 AM 57.0°F13.9°C 40.1°F4.5°C 53% Calm Calm -- 29.73 in1006.8 mb 0.00 in0.0 mm 0.00 in0.0 mm 0.00 in0.0 mm
06:42 AM 57.0°F13.9°C 40.1°F4.5°C 53% Calm Calm -- 29.73 in1006.8 mb 0.00 in0.0 mm 0.00 in0.0 mm 0.00 in0.0 mm
06:41 AM 56.9°F13.8°C 40.0°F4.4°C 53% Calm Calm -- 29.73 in1006.8 mb 0.00 in0.0 mm 0.00 in0.0 mm 0.00 in0.0 mm
06:40 AM 56.9°F13.8°C 39.5°F4.2°C 52% Calm Calm -- 29.73 in1006.8 mb 0.00 in0.0 mm 0.00 in0.0 mm 0.00 in0.0 mm
06:39 AM 56.9°F13.8°C 39.5°F4.2°C 52% Calm Calm 2.0 mph3.2 kmh 29.73 in1006.8 mb 0.00 in0.0 mm 0.00 in0.0 mm 0.00 in0.0 mm
06:38 AM 56.9°F13.8°C 39.0°F3.9°C 51% Calm Calm 2.0 mph3.2 kmh 29.73 in1006.8 mb 0.00 in0.0 mm 0.00 in0.0 mm 0.00 in0.0 mm
06:37 AM 56.9°F13.8°C 39.0°F3.9°C 51% Calm Calm -- 29.73 in1006.8 mb 0.00 in0.0 mm 0.00 in0.0 mm 0.00 in0.0 mm
06:36 AM 56.9°F13.8°C 39.0°F3.9°C 51% Calm Calm -- 29.73 in1006.8 mb 0.00 in0.0 mm 0.00 in0.0 mm 0.00 in0.0 mm
06:35 AM 56.9°F13.8°C 39.0°F3.9°C 51% Calm Calm 1.0 mph1.6 kmh 29.73 in1006.8 mb 0.00 in0.0 mm 0.00 in0.0 mm 0.00 in0.0 mm
06:34 AM 57.0°F13.9°C 39.1°F3.9°C 51% Calm Calm 1.0 mph1.6 kmh 29.73 in1006.8 mb 0.00 in0.0 mm 0.00 in0.0 mm 0.00 in0.0 mm
06:33 AM 57.0°F13.9°C 39.1°F3.9°C 51% Calm Calm -- 29.73 in1006.8 mb 0.00 in0.0 mm 0.00 in0.0 mm 0.00 in0.0 mm
06:32 AM 57.1°F13.9°C 39.2°F4.0°C 51% Calm Calm 1.0 mph1.6 kmh 29.73 in1006.8 mb 0.00 in0.0 mm 0.00 in0.0 mm 0.00 in0.0 mm
06:31 AM 57.1°F13.9°C 39.2°F4.0°C 51% Calm Calm 1.0 mph1.6 kmh 29.73 in1006.8 mb 0.00 in0.0 mm 0.00 in0.0 mm 0.00 in0.0 mm
06:29 AM 57.3°F14.1°C 40.3°F4.6°C 53% 5.0 mph N8.0 kmh N 5.0 mph8.0 kmh 29.73 in1006.8 mb 0.00 in0.0 mm 0.00 in0.0 mm 0.00 in0.0 mm
06:28 AM 57.3°F14.1°C 39.8°F4.3°C 52% Calm Calm 1.0 mph1.6 kmh 29.73 in1006.8 mb 0.00 in0.0 mm 0.00 in0.0 mm 0.00 in0.0 mm
06:27 AM 57.4°F14.1°C 39.9°F4.4°C 52% Calm Calm 1.0 mph1.6 kmh 29.73 in1006.8 mb 0.00 in0.0 mm 0.00 in0.0 mm 0.00 in0.0 mm
06:26 AM 57.5°F14.2°C 40.0°F4.4°C 52% Calm Calm 2.0 mph3.2 kmh 29.73 in1006.8 mb 0.00 in0.0 mm 0.00 in0.0 mm 0.00 in0.0 mm
06:25 AM 57.5°F14.2°C 39.5°F4.2°C 51% 1.0 mph N1.6 kmh N 4.0 mph6.4 kmh 29.73 in1006.8 mb 0.00 in0.0 mm 0.00 in0.0 mm 0.00 in0.0 mm
06:24 AM 57.6°F14.2°C 39.6°F4.2°C 51% 2.0 mph N3.2 kmh N 2.0 mph3.2 kmh 29.73 in1006.8 mb 0.00 in0.0 mm 0.00 in0.0 mm 0.00 in0.0 mm
06:23 AM 57.8°F14.3°C 39.8°F4.3°C 51% Calm Calm -- 29.73 in1006.8 mb 0.00 in0.0 mm 0.00 in0.0 mm 0.00 in0.0 mm
06:22 AM 57.9°F14.4°C 39.9°F4.4°C 51% Calm Calm 1.0 mph1.6 kmh 29.73 in1006.8 mb 0.00 in0.0 mm 0.00 in0.0 mm 0.00 in0.0 mm
06:21 AM 58.1°F14.5°C 40.1°F4.5°C 51% Calm Calm 1.0 mph1.6 kmh 29.73 in1006.8 mb 0.00 in0.0 mm 0.00 in0.0 mm 0.00 in0.0 mm
06:20 AM 58.3°F14.6°C 41.8°F5.4°C 54% Calm Calm -- 29.73 in1006.8 mb 0.00 in0.0 mm 0.00 in0.0 mm 0.00 in0.0 mm
06:19 AM 58.4°F14.7°C 42.8°F6.0°C 56% Calm Calm -- 29.73 in1006.8 mb 0.00 in0.0 mm 0.00 in0.0 mm 0.00 in0.0 mm
06:18 AM 58.5°F14.7°C 42.9°F6.1°C 56% Calm Calm -- 29.73 in1006.8 mb 0.00 in0.0 mm 0.00 in0.0 mm 0.00 in0.0 mm
06:17 AM 58.6°F14.8°C 43.0°F6.1°C 56% Calm Calm 2.0 mph3.2 kmh 29.73 in1006.8 mb 0.00 in0.0 mm 0.00 in0.0 mm 0.00 in0.0 mm
06:16 AM 58.7°F14.8°C 43.1°F6.2°C 56% Calm Calm 2.0 mph3.2 kmh 29.73 in1006.8 mb 0.00 in0.0 mm 0.00 in0.0 mm 0.00 in0.0 mm
06:15 AM 58.8°F14.9°C 42.2°F5.7°C 54% 1.0 mph N1.6 kmh N 2.0 mph3.2 kmh 29.73 in1006.8 mb 0.00 in0.0 mm 0.00 in0.0 mm 0.00 in0.0 mm
06:14 AM 58.8°F14.9°C 41.7°F5.4°C 53% 1.0 mph N1.6 kmh N 1.0 mph1.6 kmh 29.73 in1006.8 mb 0.00 in0.0 mm 0.00 in0.0 mm 0.00 in0.0 mm
06:13 AM 58.8°F14.9°C 42.2°F5.7°C 54% Calm Calm -- 29.73 in1006.8 mb 0.00 in0.0 mm 0.00 in0.0 mm 0.00 in0.0 mm
06:12 AM 58.8°F14.9°C 42.2°F5.7°C 54% Calm Calm -- 29.73 in1006.8 mb 0.00 in0.0 mm 0.00 in0.0 mm 0.00 in0.0 mm
06:11 AM 58.8°F14.9°C 42.2°F5.7°C 54% Calm Calm -- 29.72 in1006.4 mb 0.00 in0.0 mm 0.00 in0.0 mm 0.00 in0.0 mm
06:10 AM 58.8°F14.9°C 41.7°F5.4°C 53% Calm Calm -- 29.73 in1006.8 mb 0.00 in0.0 mm 0.00 in0.0 mm 0.00 in0.0 mm
06:09 AM 58.8°F14.9°C 41.7°F5.4°C 53% Calm Calm -- 29.73 in1006.8 mb 0.00 in0.0 mm 0.00 in0.0 mm 0.00 in0.0 mm
06:08 AM 58.8°F14.9°C 41.2°F5.1°C 52% Calm Calm -- 29.72 in1006.4 mb 0.00 in0.0 mm 0.00 in0.0 mm 0.00 in0.0 mm
06:07 AM 58.8°F14.9°C 41.2°F5.1°C 52% Calm Calm -- 29.72 in1006.4 mb 0.00 in0.0 mm 0.00 in0.0 mm 0.00 in0.0 mm
06:06 AM 58.8°F14.9°C 41.2°F5.1°C 52% Calm Calm -- 29.73 in1006.8 mb 0.00 in0.0 mm 0.00 in0.0 mm 0.00 in0.0 mm
06:05 AM 58.7°F14.8°C 40.6°F4.8°C 51% Calm Calm -- 29.73 in1006.8 mb 0.00 in0.0 mm 0.00 in0.0 mm 0.00 in0.0 mm
06:04 AM 58.8°F14.9°C 40.2°F4.6°C 50% Calm Calm -- 29.73 in1006.8 mb 0.00 in0.0 mm 0.00 in0.0 mm 0.00 in0.0 mm
06:03 AM 58.7°F14.8°C 39.6°F4.2°C 49% Calm Calm -- 29.73 in1006.8 mb 0.00 in0.0 mm 0.00 in0.0 mm 0.00 in0.0 mm
06:02 AM 58.7°F14.8°C 39.6°F4.2°C 49% Calm Calm -- 29.72 in1006.4 mb 0.00 in0.0 mm 0.00 in0.0 mm 0.00 in0.0 mm
06:01 AM 58.7°F14.8°C 39.6°F4.2°C 49% Calm Calm -- 29.73 in1006.8 mb 0.00 in0.0 mm 0.00 in0.0 mm 0.00 in0.0 mm
06:00 AM 58.7°F14.8°C 39.6°F4.2°C 49% Calm Calm -- 29.73 in1006.8 mb 0.00 in0.0 mm 0.00 in0.0 mm 0.00 in0.0 mm
05:59 AM 58.7°F14.8°C 39.6°F4.2°C 49% Calm Calm -- 29.72 in1006.4 mb 0.00 in0.0 mm 0.00 in0.0 mm 0.00 in0.0 mm
05:58 AM 58.7°F14.8°C 39.6°F4.2°C 49% Calm Calm -- 29.72 in1006.4 mb 0.00 in0.0 mm 0.00 in0.0 mm 0.00 in0.0 mm
05:57 AM 58.6°F14.8°C 39.0°F3.9°C 48% Calm Calm -- 29.72 in1006.4 mb 0.00 in0.0 mm 0.00 in0.0 mm 0.00 in0.0 mm
05:56 AM 58.6°F14.8°C 39.0°F3.9°C 48% Calm Calm -- 29.72 in1006.4 mb 0.00 in0.0 mm 0.00 in0.0 mm 0.00 in0.0 mm
05:55 AM 58.6°F14.8°C 39.5°F4.2°C 49% Calm Calm -- 29.72 in1006.4 mb 0.00 in0.0 mm 0.00 in0.0 mm 0.00 in0.0 mm
05:54 AM 58.6°F14.8°C 39.0°F3.9°C 48% Calm Calm -- 29.72 in1006.4 mb 0.00 in0.0 mm 0.00 in0.0 mm 0.00 in0.0 mm
05:53 AM 58.5°F14.7°C 38.9°F3.8°C 48% Calm Calm -- 29.73 in1006.8 mb 0.00 in0.0 mm 0.00 in0.0 mm 0.00 in0.0 mm
05:52 AM 58.5°F14.7°C 39.4°F4.1°C 49% Calm Calm -- 29.72 in1006.4 mb 0.00 in0.0 mm 0.00 in0.0 mm 0.00 in0.0 mm
05:51 AM 58.5°F14.7°C 39.4°F4.1°C 49% Calm Calm -- 29.72 in1006.4 mb 0.00 in0.0 mm 0.00 in0.0 mm 0.00 in0.0 mm
05:50 AM 58.4°F14.7°C 39.3°F4.1°C 49% Calm Calm -- 29.72 in1006.4 mb 0.00 in0.0 mm 0.00 in0.0 mm 0.00 in0.0 mm
05:49 AM 58.4°F14.7°C 39.3°F4.1°C 49% Calm Calm -- 29.72 in1006.4 mb 0.00 in0.0 mm 0.00 in0.0 mm 0.00 in0.0 mm
05:48 AM 58.3°F14.6°C 39.2°F4.0°C 49% Calm Calm -- 29.72 in1006.4 mb 0.00 in0.0 mm 0.00 in0.0 mm 0.00 in0.0 mm
05:47 AM 58.3°F14.6°C 39.2°F4.0°C 49% Calm Calm -- 29.72 in1006.4 mb 0.00 in0.0 mm 0.00 in0.0 mm 0.00 in0.0 mm
05:46 AM 58.2°F14.6°C 39.2°F4.0°C 49% Calm Calm -- 29.72 in1006.4 mb 0.00 in0.0 mm 0.00 in0.0 mm 0.00 in0.0 mm
05:45 AM 58.1°F14.5°C 39.1°F3.9°C 49% Calm Calm -- 29.72 in1006.4 mb 0.00 in0.0 mm 0.00 in0.0 mm 0.00 in0.0 mm
05:44 AM 58.0°F14.4°C 39.0°F3.9°C 49% Calm Calm -- 29.72 in1006.4 mb 0.00 in0.0 mm 0.00 in0.0 mm 0.00 in0.0 mm
05:43 AM 58.0°F14.4°C 39.0°F3.9°C 49% Calm Calm -- 29.72 in1006.4 mb 0.00 in0.0 mm 0.00 in0.0 mm 0.00 in0.0 mm
05:42 AM 57.9°F14.4°C 38.9°F3.8°C 49% Calm Calm -- 29.72 in1006.4 mb 0.00 in0.0 mm 0.00 in0.0 mm 0.00 in0.0 mm
05:41 AM 57.8°F14.3°C 39.3°F4.1°C 50% Calm Calm -- 29.72 in1006.4 mb 0.00 in0.0 mm 0.00 in0.0 mm 0.00 in0.0 mm
05:40 AM 57.8°F14.3°C 39.3°F4.1°C 50% Calm Calm -- 29.72 in1006.4 mb 0.00 in0.0 mm 0.00 in0.0 mm 0.00 in0.0 mm
05:39 AM 57.7°F14.3°C 39.2°F4.0°C 50% Calm Calm -- 29.72 in1006.4 mb 0.00 in0.0 mm 0.00 in0.0 mm 0.00 in0.0 mm
05:38 AM 57.7°F14.3°C 39.7°F4.3°C 51% Calm Calm -- 29.72 in1006.4 mb 0.00 in0.0 mm 0.00 in0.0 mm 0.00 in0.0 mm
05:37 AM 57.6°F14.2°C 40.1°F4.5°C 52% Calm Calm -- 29.72 in1006.4 mb 0.00 in0.0 mm 0.00 in0.0 mm 0.00 in0.0 mm
05:36 AM 57.5°F14.2°C 40.5°F4.7°C 53% Calm Calm -- 29.72 in1006.4 mb 0.00 in0.0 mm 0.00 in0.0 mm 0.00 in0.0 mm
05:35 AM 57.5°F14.2°C 41.0°F5.0°C 54% Calm Calm -- 29.72 in1006.4 mb 0.00 in0.0 mm 0.00 in0.0 mm 0.00 in0.0 mm
05:34 AM 57.5°F14.2°C 41.5°F5.3°C 55% Calm Calm -- 29.72 in1006.4 mb 0.00 in0.0 mm 0.00 in0.0 mm 0.00 in0.0 mm
05:33 AM 57.5°F14.2°C 41.9°F5.5°C 56% Calm Calm -- 29.72 in1006.4 mb 0.00 in0.0 mm 0.00 in0.0 mm 0.00 in0.0 mm
05:32 AM 57.5°F14.2°C 41.9°F5.5°C 56% Calm Calm -- 29.72 in1006.4 mb 0.00 in0.0 mm 0.00 in0.0 mm 0.00 in0.0 mm
05:31 AM 57.5°F14.2°C 41.5°F5.3°C 55% Calm Calm -- 29.73 in1006.8 mb 0.00 in0.0 mm 0.00 in0.0 mm 0.00 in0.0 mm
05:30 AM 57.5°F14.2°C 41.0°F5.0°C 54% Calm Calm -- 29.72 in1006.4 mb 0.00 in0.0 mm 0.00 in0.0 mm 0.00 in0.0 mm
05:29 AM 57.5°F14.2°C 41.0°F5.0°C 54% Calm Calm -- 29.72 in1006.4 mb 0.00 in0.0 mm 0.00 in0.0 mm 0.00 in0.0 mm
05:28 AM 57.6°F14.2°C 40.6°F4.8°C 53% Calm Calm -- 29.72 in1006.4 mb 0.00 in0.0 mm 0.00 in0.0 mm 0.00 in0.0 mm
05:27 AM 57.5°F14.2°C 40.5°F4.7°C 53% Calm Calm -- 29.72 in1006.4 mb 0.00 in0.0 mm 0.00 in0.0 mm 0.00 in0.0 mm
05:26 AM 57.6°F14.2°C 39.1°F3.9°C 50% Calm Calm -- 29.72 in1006.4 mb 0.00 in0.0 mm 0.00 in0.0 mm 0.00 in0.0 mm
05:25 AM 57.6°F14.2°C 39.1°F3.9°C 50% Calm Calm -- 29.72 in1006.4 mb 0.00 in0.0 mm 0.00 in0.0 mm 0.00 in0.0 mm
05:24 AM 57.6°F14.2°C 39.1°F3.9°C 50% Calm Calm -- 29.72 in1006.4 mb 0.00 in0.0 mm 0.00 in0.0 mm 0.00 in0.0 mm
05:23 AM 57.6°F14.2°C 38.6°F3.7°C 49% Calm Calm -- 29.72 in1006.4 mb 0.00 in0.0 mm 0.00 in0.0 mm 0.00 in0.0 mm
05:22 AM 57.6°F14.2°C 38.1°F3.4°C 48% Calm Calm -- 29.72 in1006.4 mb 0.00 in0.0 mm 0.00 in0.0 mm 0.00 in0.0 mm
05:21 AM 57.6°F14.2°C 39.1°F3.9°C 50% Calm Calm -- 29.72 in1006.4 mb 0.00 in0.0 mm 0.00 in0.0 mm 0.00 in0.0 mm
05:20 AM 57.6°F14.2°C 38.6°F3.7°C 49% Calm Calm -- 29.72 in1006.4 mb 0.00 in0.0 mm 0.00 in0.0 mm 0.00 in0.0 mm
05:19 AM 57.6°F14.2°C 39.1°F3.9°C 50% Calm Calm -- 29.72 in1006.4 mb 0.00 in0.0 mm 0.00 in0.0 mm 0.00 in0.0 mm
05:18 AM 57.7°F14.3°C 39.2°F4.0°C 50% Calm Calm -- 29.72 in1006.4 mb 0.00 in0.0 mm 0.00 in0.0 mm 0.00 in0.0 mm
05:17 AM 57.7°F14.3°C 40.7°F4.8°C 53% Calm Calm -- 29.72 in1006.4 mb 0.00 in0.0 mm 0.00 in0.0 mm 0.00 in0.0 mm
05:16 AM 57.7°F14.3°C 41.7°F5.4°C 55% Calm Calm -- 29.72 in1006.4 mb 0.00 in0.0 mm 0.00 in0.0 mm 0.00 in0.0 mm
05:15 AM 57.7°F14.3°C 41.2°F5.1°C 54% Calm Calm -- 29.72 in1006.4 mb 0.00 in0.0 mm 0.00 in0.0 mm 0.00 in0.0 mm
05:14 AM 57.6°F14.2°C 40.1°F4.5°C 52% Calm Calm -- 29.72 in1006.4 mb 0.00 in0.0 mm 0.00 in0.0 mm 0.00 in0.0 mm
05:13 AM 57.6°F14.2°C 39.1°F3.9°C 50% Calm Calm -- 29.72 in1006.4 mb 0.00 in0.0 mm 0.00 in0.0 mm 0.00 in0.0 mm
05:12 AM 57.6°F14.2°C 37.5°F3.1°C 47% Calm Calm -- 29.72 in1006.4 mb 0.00 in0.0 mm 0.00 in0.0 mm 0.00 in0.0 mm
05:11 AM 57.6°F14.2°C 38.1°F3.4°C 48% Calm Calm -- 29.72 in1006.4 mb 0.00 in0.0 mm 0.00 in0.0 mm 0.00 in0.0 mm
05:10 AM 57.7°F14.3°C 38.2°F3.4°C 48% Calm Calm -- 29.72 in1006.4 mb 0.00 in0.0 mm 0.00 in0.0 mm 0.00 in0.0 mm
05:09 AM 57.7°F14.3°C 38.2°F3.4°C 48% Calm Calm -- 29.72 in1006.4 mb 0.00 in0.0 mm 0.00 in0.0 mm 0.00 in0.0 mm
05:08 AM 57.7°F14.3°C 38.2°F3.4°C 48% Calm Calm -- 29.72 in1006.4 mb 0.00 in0.0 mm 0.00 in0.0 mm 0.00 in0.0 mm
05:07 AM 57.7°F14.3°C 38.2°F3.4°C 48% Calm Calm -- 29.72 in1006.4 mb 0.00 in0.0 mm 0.00 in0.0 mm 0.00 in0.0 mm
05:06 AM 57.7°F14.3°C 38.2°F3.4°C 48% Calm Calm -- 29.72 in1006.4 mb 0.00 in0.0 mm 0.00 in0.0 mm 0.00 in0.0 mm
05:05 AM 57.8°F14.3°C 38.8°F3.8°C 49% Calm Calm -- 29.72 in1006.4 mb 0.00 in0.0 mm 0.00 in0.0 mm 0.00 in0.0 mm
05:04 AM 57.8°F14.3°C 39.3°F4.1°C 50% Calm Calm -- 29.71 in1006.1 mb 0.00 in0.0 mm 0.00 in0.0 mm 0.00 in0.0 mm
05:03 AM 57.8°F14.3°C 39.3°F4.1°C 50% Calm Calm -- 29.71 in1006.1 mb 0.00 in0.0 mm 0.00 in0.0 mm 0.00 in0.0 mm
05:02 AM 57.9°F14.4°C 39.9°F4.4°C 51% Calm Calm -- 29.71 in1006.1 mb 0.00 in0.0 mm 0.00 in0.0 mm 0.00 in0.0 mm
05:01 AM 57.9°F14.4°C 39.4°F4.1°C 50% Calm Calm -- 29.71 in1006.1 mb 0.00 in0.0 mm 0.00 in0.0 mm 0.00 in0.0 mm
04:59 AM 58.0°F14.4°C 40.5°F4.7°C 52% Calm Calm -- 29.71 in1006.1 mb 0.00 in0.0 mm 0.00 in0.0 mm 0.00 in0.0 mm
04:58 AM 58.1°F14.5°C 41.1°F5.1°C 53% Calm Calm -- 29.71 in1006.1 mb 0.00 in0.0 mm 0.00 in0.0 mm 0.00 in0.0 mm
04:57 AM 58.2°F14.6°C 41.7°F5.4°C 54% Calm Calm -- 29.71 in1006.1 mb 0.00 in0.0 mm 0.00 in0.0 mm 0.00 in0.0 mm
04:56 AM 58.3°F14.6°C 41.8°F5.4°C 54% Calm Calm -- 29.71 in1006.1 mb 0.00 in0.0 mm 0.00 in0.0 mm 0.00 in0.0 mm
04:55 AM 58.4°F14.7°C 41.8°F5.4°C 54% Calm Calm -- 29.71 in1006.1 mb 0.00 in0.0 mm 0.00 in0.0 mm 0.00 in0.0 mm
04:54 AM 58.4°F14.7°C 42.8°F6.0°C 56% Calm Calm -- 29.71 in1006.1 mb 0.00 in0.0 mm 0.00 in0.0 mm 0.00 in0.0 mm
04:53 AM 58.5°F14.7°C 43.3°F6.3°C 57% Calm Calm -- 29.71 in1006.1 mb 0.00 in0.0 mm 0.00 in0.0 mm 0.00 in0.0 mm
04:52 AM 58.6°F14.8°C 43.4°F6.3°C 57% Calm Calm -- 29.71 in1006.1 mb 0.00 in0.0 mm 0.00 in0.0 mm 0.00 in0.0 mm
04:51 AM 58.7°F14.8°C 44.4°F6.9°C 59% Calm Calm -- 29.71 in1006.1 mb 0.00 in0.0 mm 0.00 in0.0 mm 0.00 in0.0 mm
04:50 AM 58.9°F14.9°C 45.1°F7.3°C 60% Calm Calm -- 29.71 in1006.1 mb 0.00 in0.0 mm 0.00 in0.0 mm 0.00 in0.0 mm
04:49 AM 59.0°F15.0°C 45.6°F7.6°C 61% Calm Calm -- 29.71 in1006.1 mb 0.00 in0.0 mm 0.00 in0.0 mm 0.00 in0.0 mm
04:48 AM 59.1°F15.1°C 46.1°F7.8°C 62% Calm Calm -- 29.71 in1006.1 mb 0.00 in0.0 mm 0.00 in0.0 mm 0.00 in0.0 mm
04:47 AM 59.1°F15.1°C 46.1°F7.8°C 62% Calm Calm -- 29.71 in1006.1 mb 0.00 in0.0 mm 0.00 in0.0 mm 0.00 in0.0 mm
04:46 AM 59.2°F15.1°C 46.2°F7.9°C 62% Calm Calm -- 29.71 in1006.1 mb 0.00 in0.0 mm 0.00 in0.0 mm 0.00 in0.0 mm
04:45 AM 59.3°F15.2°C 46.7°F8.2°C 63% Calm Calm -- 29.71 in1006.1 mb 0.00 in0.0 mm 0.00 in0.0 mm 0.00 in0.0 mm
04:44 AM 59.3°F15.2°C 46.7°F8.2°C 63% Calm Calm -- 29.71 in1006.1 mb 0.00 in0.0 mm 0.00 in0.0 mm 0.00 in0.0 mm
04:43 AM 59.4°F15.2°C 47.2°F8.4°C 64% Calm Calm -- 29.71 in1006.1 mb 0.00 in0.0 mm 0.00 in0.0 mm 0.00 in0.0 mm
04:42 AM 59.4°F15.2°C 46.8°F8.2°C 63% Calm Calm -- 29.71 in1006.1 mb 0.00 in0.0 mm 0.00 in0.0 mm 0.00 in0.0 mm
04:41 AM 59.5°F15.3°C 46.5°F8.1°C 62% Calm Calm -- 29.71 in1006.1 mb 0.00 in0.0 mm 0.00 in0.0 mm 0.00 in0.0 mm
04:40 AM 59.5°F15.3°C 46.5°F8.1°C 62% Calm Calm -- 29.71 in1006.1 mb 0.00 in0.0 mm 0.00 in0.0 mm 0.00 in0.0 mm
04:39 AM 59.5°F15.3°C 46.5°F8.1°C 62% Calm Calm -- 29.71 in1006.1 mb 0.00 in0.0 mm 0.00 in0.0 mm 0.00 in0.0 mm
04:38 AM 59.6°F15.3°C 46.6°F8.1°C 62% Calm Calm -- 29.71 in1006.1 mb 0.00 in0.0 mm 0.00 in0.0 mm 0.00 in0.0 mm
04:37 AM 59.6°F15.3°C 46.6°F8.1°C 62% Calm Calm -- 29.71 in1006.1 mb 0.00 in0.0 mm 0.00 in0.0 mm 0.00 in0.0 mm
04:36 AM 59.6°F15.3°C 46.2°F7.9°C 61% Calm Calm -- 29.71 in1006.1 mb 0.00 in0.0 mm 0.00 in0.0 mm 0.00 in0.0 mm
04:35 AM 59.6°F15.3°C 46.2°F7.9°C 61% Calm Calm -- 29.71 in1006.1 mb 0.00 in0.0 mm 0.00 in0.0 mm 0.00 in0.0 mm
04:34 AM 59.6°F15.3°C 46.2°F7.9°C 61% Calm Calm -- 29.71 in1006.1 mb 0.00 in0.0 mm 0.00 in0.0 mm 0.00 in0.0 mm
04:33 AM 59.7°F15.4°C 45.8°F7.7°C 60% Calm Calm -- 29.71 in1006.1 mb 0.00 in0.0 mm 0.00 in0.0 mm 0.00 in0.0 mm
04:29 AM 59.6°F15.3°C 43.9°F6.6°C 56% Calm Calm -- 29.71 in1006.1 mb 0.00 in0.0 mm 0.00 in0.0 mm 0.00 in0.0 mm
04:28 AM 59.6°F15.3°C 43.0°F6.1°C 54% Calm Calm -- 29.71 in1006.1 mb 0.00 in0.0 mm 0.00 in0.0 mm 0.00 in0.0 mm
04:27 AM 59.6°F15.3°C 41.5°F5.3°C 51% Calm Calm -- 29.71 in1006.1 mb 0.00 in0.0 mm 0.00 in0.0 mm 0.00 in0.0 mm
04:26 AM 59.6°F15.3°C 39.4°F4.1°C 47% Calm Calm -- 29.71 in1006.1 mb 0.00 in0.0 mm 0.00 in0.0 mm 0.00 in0.0 mm
04:25 AM 59.6°F15.3°C 38.8°F3.8°C 46% Calm Calm -- 29.71 in1006.1 mb 0.00 in0.0 mm 0.00 in0.0 mm 0.00 in0.0 mm
04:24 AM 59.6°F15.3°C 38.8°F3.8°C 46% Calm Calm -- 29.71 in1006.1 mb 0.00 in0.0 mm 0.00 in0.0 mm 0.00 in0.0 mm
04:23 AM 59.7°F15.4°C 39.5°F4.2°C 47% Calm Calm -- 29.70 in1005.8 mb 0.00 in0.0 mm 0.00 in0.0 mm 0.00 in0.0 mm
04:22 AM 59.7°F15.4°C 40.0°F4.4°C 48% Calm Calm -- 29.71 in1006.1 mb 0.00 in0.0 mm 0.00 in0.0 mm 0.00 in0.0 mm
04:21 AM 59.8°F15.4°C 40.6°F4.8°C 49% Calm Calm -- 29.71 in1006.1 mb 0.00 in0.0 mm 0.00 in0.0 mm 0.00 in0.0 mm
04:20 AM 59.8°F15.4°C 41.1°F5.1°C 50% Calm Calm -- 29.70 in1005.8 mb 0.00 in0.0 mm 0.00 in0.0 mm 0.00 in0.0 mm
04:19 AM 59.8°F15.4°C 41.1°F5.1°C 50% Calm Calm -- 29.70 in1005.8 mb 0.00 in0.0 mm 0.00 in0.0 mm 0.00 in0.0 mm
04:18 AM 59.8°F15.4°C 41.1°F5.1°C 50% Calm Calm -- 29.70 in1005.8 mb 0.00 in0.0 mm 0.00 in0.0 mm 0.00 in0.0 mm
04:17 AM 59.8°F15.4°C 40.6°F4.8°C 49% Calm Calm -- 29.70 in1005.8 mb 0.00 in0.0 mm 0.00 in0.0 mm 0.00 in0.0 mm
04:16 AM 59.9°F15.5°C 41.2°F5.1°C 50% Calm Calm -- 29.70 in1005.8 mb 0.00 in0.0 mm 0.00 in0.0 mm 0.00 in0.0 mm
04:15 AM 59.9°F15.5°C 41.2°F5.1°C 50% Calm Calm -- 29.70 in1005.8 mb 0.00 in0.0 mm 0.00 in0.0 mm 0.00 in0.0 mm
04:14 AM 59.9°F15.5°C 40.7°F4.8°C 49% Calm Calm -- 29.70 in1005.8 mb 0.00 in0.0 mm 0.00 in0.0 mm 0.00 in0.0 mm
04:13 AM 60.0°F15.6°C 40.3°F4.6°C 48% Calm Calm -- 29.70 in1005.8 mb 0.00 in0.0 mm 0.00 in0.0 mm 0.00 in0.0 mm
04:12 AM 60.0°F15.6°C 39.7°F4.3°C 47% Calm Calm -- 29.71 in1006.1 mb 0.00 in0.0 mm 0.00 in0.0 mm 0.00 in0.0 mm
04:11 AM 60.0°F15.6°C 39.7°F4.3°C 47% Calm Calm -- 29.70 in1005.8 mb 0.00 in0.0 mm 0.00 in0.0 mm 0.00 in0.0 mm
04:10 AM 60.0°F15.6°C 39.2°F4.0°C 46% Calm Calm -- 29.71 in1006.1 mb 0.00 in0.0 mm 0.00 in0.0 mm 0.00 in0.0 mm
04:09 AM 60.0°F15.6°C 38.6°F3.7°C 45% Calm Calm -- 29.71 in1006.1 mb 0.00 in0.0 mm 0.00 in0.0 mm 0.00 in0.0 mm
04:08 AM 60.1°F15.6°C 38.7°F3.7°C 45% Calm Calm -- 29.71 in1006.1 mb 0.00 in0.0 mm 0.00 in0.0 mm 0.00 in0.0 mm
04:07 AM 60.1°F15.6°C 38.7°F3.7°C 45% Calm Calm -- 29.71 in1006.1 mb 0.00 in0.0 mm 0.00 in0.0 mm 0.00 in0.0 mm
04:06 AM 60.1°F15.6°C 39.3°F4.1°C 46% Calm Calm -- 29.70 in1005.8 mb 0.00 in0.0 mm 0.00 in0.0 mm 0.00 in0.0 mm
04:05 AM 60.1°F15.6°C 39.3°F4.1°C 46% Calm Calm -- 29.70 in1005.8 mb 0.00 in0.0 mm 0.00 in0.0 mm 0.00 in0.0 mm
04:04 AM 60.2°F15.7°C 39.4°F4.1°C 46% Calm Calm -- 29.70 in1005.8 mb 0.00 in0.0 mm 0.00 in0.0 mm 0.00 in0.0 mm
04:03 AM 60.2°F15.7°C 39.4°F4.1°C 46% Calm Calm -- 29.70 in1005.8 mb 0.00 in0.0 mm 0.00 in0.0 mm 0.00 in0.0 mm
04:02 AM 60.2°F15.7°C 38.8°F3.8°C 45% Calm Calm -- 29.70 in1005.8 mb 0.00 in0.0 mm 0.00 in0.0 mm 0.00 in0.0 mm
04:01 AM 60.3°F15.7°C 39.5°F4.2°C 46% Calm Calm -- 29.70 in1005.8 mb 0.00 in0.0 mm 0.00 in0.0 mm 0.00 in0.0 mm
04:00 AM 60.3°F15.7°C 40.0°F4.4°C 47% Calm Calm -- 29.70 in1005.8 mb 0.00 in0.0 mm 0.00 in0.0 mm 0.00 in0.0 mm
03:59 AM 60.3°F15.7°C 38.9°F3.8°C 45% Calm Calm -- 29.70 in1005.8 mb 0.00 in0.0 mm 0.00 in0.0 mm 0.00 in0.0 mm
03:58 AM 60.4°F15.8°C 38.4°F3.6°C 44% Calm Calm -- 29.70 in1005.8 mb 0.00 in0.0 mm 0.00 in0.0 mm 0.00 in0.0 mm
03:57 AM 60.4°F15.8°C 37.8°F3.2°C 43% Calm Calm -- 29.70 in1005.8 mb 0.00 in0.0 mm 0.00 in0.0 mm 0.00 in0.0 mm
03:56 AM 60.5°F15.8°C 37.9°F3.3°C 43% Calm Calm -- 29.70 in1005.8 mb 0.00 in0.0 mm 0.00 in0.0 mm 0.00 in0.0 mm
03:55 AM 60.6°F15.9°C 38.0°F3.3°C 43% Calm Calm -- 29.70 in1005.8 mb 0.00 in0.0 mm 0.00 in0.0 mm 0.00 in0.0 mm
03:54 AM 60.7°F15.9°C 38.1°F3.4°C 43% Calm Calm -- 29.70 in1005.8 mb 0.00 in0.0 mm 0.00 in0.0 mm 0.00 in0.0 mm
03:53 AM 60.8°F16.0°C 38.8°F3.8°C 44% Calm Calm -- 29.70 in1005.8 mb 0.00 in0.0 mm 0.00 in0.0 mm 0.00 in0.0 mm
03:52 AM 60.9°F16.1°C 39.4°F4.1°C 45% Calm Calm -- 29.70 in1005.8 mb 0.00 in0.0 mm 0.00 in0.0 mm 0.00 in0.0 mm
03:51 AM 61.0°F16.1°C 39.5°F4.2°C 45% Calm Calm -- 29.70 in1005.8 mb 0.00 in0.0 mm 0.00 in0.0 mm 0.00 in0.0 mm
03:50 AM 61.1°F16.2°C 40.7°F4.8°C 47% Calm Calm -- 29.70 in1005.8 mb 0.00 in0.0 mm 0.00 in0.0 mm 0.00 in0.0 mm
03:49 AM 61.3°F16.3°C 43.0°F6.1°C 51% Calm Calm -- 29.70 in1005.8 mb 0.00 in0.0 mm 0.00 in0.0 mm 0.00 in0.0 mm
03:48 AM 61.4°F16.3°C 46.1°F7.8°C 57% Calm Calm -- 29.70 in1005.8 mb 0.00 in0.0 mm 0.00 in0.0 mm 0.00 in0.0 mm
03:47 AM 61.5°F16.4°C 46.1°F7.8°C 57% Calm Calm -- 29.70 in1005.8 mb 0.00 in0.0 mm 0.00 in0.0 mm 0.00 in0.0 mm
03:46 AM 61.5°F16.4°C 46.1°F7.8°C 57% Calm Calm -- 29.70 in1005.8 mb 0.00 in0.0 mm 0.00 in0.0 mm 0.00 in0.0 mm
03:45 AM 61.5°F16.4°C 45.2°F7.3°C 55% Calm Calm -- 29.70 in1005.8 mb 0.00 in0.0 mm 0.00 in0.0 mm 0.00 in0.0 mm
03:44 AM 61.6°F16.4°C 45.3°F7.4°C 55% Calm Calm -- 29.70 in1005.8 mb 0.00 in0.0 mm 0.00 in0.0 mm 0.00 in0.0 mm
03:43 AM 61.6°F16.4°C 44.8°F7.1°C 54% Calm Calm -- 29.70 in1005.8 mb 0.00 in0.0 mm 0.00 in0.0 mm 0.00 in0.0 mm
03:42 AM 61.5°F16.4°C 43.7°F6.5°C 52% Calm Calm -- 29.70 in1005.8 mb 0.00 in0.0 mm 0.00 in0.0 mm 0.00 in0.0 mm
03:41 AM 61.5°F16.4°C 43.7°F6.5°C 52% Calm Calm -- 29.70 in1005.8 mb 0.00 in0.0 mm 0.00 in0.0 mm 0.00 in0.0 mm
03:40 AM 61.5°F16.4°C 42.2°F5.7°C 49% Calm Calm -- 29.70 in1005.8 mb 0.00 in0.0 mm 0.00 in0.0 mm 0.00 in0.0 mm
03:39 AM 61.5°F16.4°C 41.7°F5.4°C 48% Calm Calm -- 29.70 in1005.8 mb 0.00 in0.0 mm 0.00 in0.0 mm 0.00 in0.0 mm
03:38 AM 61.5°F16.4°C 40.6°F4.8°C 46% Calm Calm -- 29.70 in1005.8 mb 0.00 in0.0 mm 0.00 in0.0 mm 0.00 in0.0 mm
03:37 AM 61.5°F16.4°C 39.4°F4.1°C 44% Calm Calm -- 29.70 in1005.8 mb 0.00 in0.0 mm 0.00 in0.0 mm 0.00 in0.0 mm
03:36 AM 61.5°F16.4°C 38.8°F3.8°C 43% Calm Calm -- 29.70 in1005.8 mb 0.00 in0.0 mm 0.00 in0.0 mm 0.00 in0.0 mm
03:35 AM 61.6°F16.4°C 38.9°F3.8°C 43% Calm Calm -- 29.70 in1005.8 mb 0.00 in0.0 mm 0.00 in0.0 mm 0.00 in0.0 mm
03:34 AM 61.6°F16.4°C 38.3°F3.5°C 42% Calm Calm -- 29.70 in1005.8 mb 0.00 in0.0 mm 0.00 in0.0 mm 0.00 in0.0 mm
03:33 AM 61.6°F16.4°C 38.3°F3.5°C 42% Calm Calm -- 29.70 in1005.8 mb 0.00 in0.0 mm 0.00 in0.0 mm 0.00 in0.0 mm
03:32 AM 61.6°F16.4°C 38.9°F3.8°C 43% Calm Calm -- 29.70 in1005.8 mb 0.00 in0.0 mm 0.00 in0.0 mm 0.00 in0.0 mm
03:31 AM 61.6°F16.4°C 37.7°F3.2°C 41% Calm Calm -- 29.70 in1005.8 mb 0.00 in0.0 mm 0.00 in0.0 mm 0.00 in0.0 mm
03:30 AM 61.6°F16.4°C 38.9°F3.8°C 43% Calm Calm -- 29.70 in1005.8 mb 0.00 in0.0 mm 0.00 in0.0 mm 0.00 in0.0 mm
03:29 AM 61.7°F16.5°C 40.2°F4.6°C 45% Calm Calm -- 29.70 in1005.8 mb 0.00 in0.0 mm 0.00 in0.0 mm 0.00 in0.0 mm
03:28 AM 61.7°F16.5°C 40.2°F4.6°C 45% Calm Calm -- 29.70 in1005.8 mb 0.00 in0.0 mm 0.00 in0.0 mm 0.00 in0.0 mm
03:27 AM 61.7°F16.5°C 40.2°F4.6°C 45% Calm Calm -- 29.70 in1005.8 mb 0.00 in0.0 mm 0.00 in0.0 mm 0.00 in0.0 mm
03:26 AM 61.7°F16.5°C 40.2°F4.6°C 45% Calm Calm -- 29.70 in1005.8 mb 0.00 in0.0 mm 0.00 in0.0 mm 0.00 in0.0 mm
03:25 AM 61.7°F16.5°C 40.2°F4.6°C 45% Calm Calm -- 29.70 in1005.8 mb 0.00 in0.0 mm 0.00 in0.0 mm 0.00 in0.0 mm
03:24 AM 61.8°F16.6°C 39.7°F4.3°C 44% Calm Calm -- 29.69 in1005.4 mb 0.00 in0.0 mm 0.00 in0.0 mm 0.00 in0.0 mm
03:23 AM 61.8°F16.6°C 37.3°F2.9°C 40% Calm Calm -- 29.70 in1005.8 mb 0.00 in0.0 mm 0.00 in0.0 mm 0.00 in0.0 mm
03:22 AM 61.8°F16.6°C 37.3°F2.9°C 40% Calm Calm -- 29.70 in1005.8 mb 0.00 in0.0 mm 0.00 in0.0 mm 0.00 in0.0 mm
03:21 AM 61.8°F16.6°C 37.3°F2.9°C 40% Calm Calm -- 29.70 in1005.8 mb 0.00 in0.0 mm 0.00 in0.0 mm 0.00 in0.0 mm
03:20 AM 61.8°F16.6°C 36.6°F2.6°C 39% Calm Calm -- 29.70 in1005.8 mb 0.00 in0.0 mm 0.00 in0.0 mm 0.00 in0.0 mm
03:19 AM 61.8°F16.6°C 36.6°F2.6°C 39% Calm Calm -- 29.70 in1005.8 mb 0.00 in0.0 mm 0.00 in0.0 mm 0.00 in0.0 mm
03:18 AM 61.8°F16.6°C 36.0°F2.2°C 38% Calm Calm -- 29.70 in1005.8 mb 0.00 in0.0 mm 0.00 in0.0 mm 0.00 in0.0 mm
03:17 AM 61.8°F16.6°C 36.0°F2.2°C 38% Calm Calm -- 29.70 in1005.8 mb 0.00 in0.0 mm 0.00 in0.0 mm 0.00 in0.0 mm
03:16 AM 61.9°F16.6°C 36.0°F2.2°C 38% Calm Calm -- 29.70 in1005.8 mb 0.00 in0.0 mm 0.00 in0.0 mm 0.00 in0.0 mm
03:15 AM 61.9°F16.6°C 36.0°F2.2°C 38% Calm Calm -- 29.70 in1005.8 mb 0.00 in0.0 mm 0.00 in0.0 mm 0.00 in0.0 mm
03:14 AM 61.9°F16.6°C 36.0°F2.2°C 38% Calm Calm -- 29.70 in1005.8 mb 0.00 in0.0 mm 0.00 in0.0 mm 0.00 in0.0 mm
03:13 AM 61.9°F16.6°C 36.0°F2.2°C 38% Calm Calm -- 29.70 in1005.8 mb 0.00 in0.0 mm 0.00 in0.0 mm 0.00 in0.0 mm
03:12 AM 61.9°F16.6°C 36.7°F2.6°C 39% Calm Calm -- 29.70 in1005.8 mb 0.00 in0.0 mm 0.00 in0.0 mm 0.00 in0.0 mm
03:11 AM 62.0°F16.7°C 36.8°F2.7°C 39% Calm Calm -- 29.70 in1005.8 mb 0.00 in0.0 mm 0.00 in0.0 mm 0.00 in0.0 mm
03:10 AM 62.0°F16.7°C 36.1°F2.3°C 38% Calm Calm -- 29.70 in1005.8 mb 0.00 in0.0 mm 0.00 in0.0 mm 0.00 in0.0 mm
03:09 AM 62.0°F16.7°C 36.1°F2.3°C 38% Calm Calm -- 29.70 in1005.8 mb 0.00 in0.0 mm 0.00 in0.0 mm 0.00 in0.0 mm
03:08 AM 62.0°F16.7°C 36.8°F2.7°C 39% Calm Calm -- 29.70 in1005.8 mb 0.00 in0.0 mm 0.00 in0.0 mm 0.00 in0.0 mm
03:07 AM 62.1°F16.7°C 37.5°F3.1°C 40% Calm Calm 1.0 mph1.6 kmh 29.70 in1005.8 mb 0.00 in0.0 mm 0.00 in0.0 mm 0.00 in0.0 mm
03:06 AM 62.1°F16.7°C 37.5°F3.1°C 40% Calm Calm 1.0 mph1.6 kmh 29.70 in1005.8 mb 0.00 in0.0 mm 0.00 in0.0 mm 0.00 in0.0 mm
03:05 AM 62.1°F16.7°C 37.5°F3.1°C 40% Calm Calm -- 29.70 in1005.8 mb 0.00 in0.0 mm 0.00 in0.0 mm 0.00 in0.0 mm
03:04 AM 62.1°F16.7°C 38.1°F3.4°C 41% Calm Calm 1.0 mph1.6 kmh 29.69 in1005.4 mb 0.00 in0.0 mm 0.00 in0.0 mm 0.00 in0.0 mm
03:03 AM 62.0°F16.7°C 38.1°F3.4°C 41% Calm Calm 1.0 mph1.6 kmh 29.70 in1005.8 mb 0.00 in0.0 mm 0.00 in0.0 mm 0.00 in0.0 mm
03:02 AM 62.0°F16.7°C 38.1°F3.4°C 41% Calm Calm -- 29.70 in1005.8 mb 0.00 in0.0 mm 0.00 in0.0 mm 0.00 in0.0 mm
03:01 AM 62.0°F16.7°C 38.1°F3.4°C 41% Calm Calm -- 29.70 in1005.8 mb 0.00 in0.0 mm 0.00 in0.0 mm 0.00 in0.0 mm
03:00 AM 62.0°F16.7°C 38.1°F3.4°C 41% Calm Calm -- 29.70 in1005.8 mb 0.00 in0.0 mm 0.00 in0.0 mm 0.00 in0.0 mm
02:59 AM 62.0°F16.7°C 38.1°F3.4°C 41% Calm Calm -- 29.70 in1005.8 mb 0.00 in0.0 mm 0.00 in0.0 mm 0.00 in0.0 mm
02:58 AM 62.0°F16.7°C 38.1°F3.4°C 41% Calm Calm -- 29.70 in1005.8 mb 0.00 in0.0 mm 0.00 in0.0 mm 0.00 in0.0 mm
02:57 AM 62.0°F16.7°C 38.1°F3.4°C 41% Calm Calm -- 29.70 in1005.8 mb 0.00 in0.0 mm 0.00 in0.0 mm 0.00 in0.0 mm
02:56 AM 61.9°F16.6°C 38.0°F3.3°C 41% Calm Calm -- 29.70 in1005.8 mb 0.00 in0.0 mm 0.00 in0.0 mm 0.00 in0.0 mm
02:55 AM 61.9°F16.6°C 38.0°F3.3°C 41% Calm Calm -- 29.70 in1005.8 mb 0.00 in0.0 mm 0.00 in0.0 mm 0.00 in0.0 mm
02:54 AM 61.9°F16.6°C 38.0°F3.3°C 41% Calm Calm -- 29.70 in1005.8 mb 0.00 in0.0 mm 0.00 in0.0 mm 0.00 in0.0 mm
02:53 AM 61.8°F16.6°C 37.9°F3.3°C 41% Calm Calm -- 29.70 in1005.8 mb 0.00 in0.0 mm 0.00 in0.0 mm 0.00 in0.0 mm
02:52 AM 61.9°F16.6°C 38.0°F3.3°C 41% Calm Calm -- 29.70 in1005.8 mb 0.00 in0.0 mm 0.00 in0.0 mm 0.00 in0.0 mm
02:51 AM 61.8°F16.6°C 37.9°F3.3°C 41% Calm Calm -- 29.69 in1005.4 mb 0.00 in0.0 mm 0.00 in0.0 mm 0.00 in0.0 mm
02:50 AM 61.8°F16.6°C 37.9°F3.3°C 41% Calm Calm -- 29.70 in1005.8 mb 0.00 in0.0 mm 0.00 in0.0 mm 0.00 in0.0 mm
02:49 AM 61.8°F16.6°C 38.5°F3.6°C 42% Calm Calm -- 29.69 in1005.4 mb 0.00 in0.0 mm 0.00 in0.0 mm 0.00 in0.0 mm
02:48 AM 61.8°F16.6°C 39.1°F3.9°C 43% Calm Calm -- 29.70 in1005.8 mb 0.00 in0.0 mm 0.00 in0.0 mm 0.00 in0.0 mm
02:47 AM 61.8°F16.6°C 38.5°F3.6°C 42% Calm Calm -- 29.70 in1005.8 mb 0.00 in0.0 mm 0.00 in0.0 mm 0.00 in0.0 mm
02:46 AM 61.8°F16.6°C 37.9°F3.3°C 41% Calm Calm -- 29.70 in1005.8 mb 0.00 in0.0 mm 0.00 in0.0 mm 0.00 in0.0 mm
02:45 AM 61.8°F16.6°C 37.9°F3.3°C 41% Calm Calm -- 29.69 in1005.4 mb 0.00 in0.0 mm 0.00 in0.0 mm 0.00 in0.0 mm
02:44 AM 61.9°F16.6°C 38.0°F3.3°C 41% Calm Calm -- 29.69 in1005.4 mb 0.00 in0.0 mm 0.00 in0.0 mm